<?xml version="1.0" encoding="UTF-8" standalone="no" ?>
<gpx xmlns="http://www.topografix.com/GPX/1/1" xmlns:xsi="http://www.w3.org/2001/XMLSchema-instance" xsi:schemaLocation="http://www.topografix.com/GPX/1/1 http://www.topografix.com/GPX/1/1/gpx.xsd" version="1.1" creator="VisuGPX - https://www.visugpx.com">
  <metadata>
    <name>Randonnée du 13/10/2022 à 09:54</name>
    <desc><![CDATA[Boucle VTT Biviers -Col de Baure -Eimendras- Saint Eynard- Bois du Mollard-Biviers]]></desc>
  </metadata>
  <trk>
    <name><![CDATA[Randonnée du 13/10/2022 à 09:54]]></name>
    <trkseg>
      <trkpt lat="45.23888" lon="5.80351">
        <ele>466</ele>
        <time>2022-10-13T09:54:13+02:00</time>
      </trkpt>
      <trkpt lat="45.23908" lon="5.80337">
        <ele>454</ele>
        <time>2022-10-13T09:58:39+02:00</time>
      </trkpt>
      <trkpt lat="45.23932" lon="5.80343">
        <ele>457</ele>
        <time>2022-10-13T09:58:53+02:00</time>
      </trkpt>
      <trkpt lat="45.23945" lon="5.80316">
        <ele>463</ele>
        <time>2022-10-13T09:59:13+02:00</time>
      </trkpt>
      <trkpt lat="45.23961" lon="5.80342">
        <ele>461</ele>
        <time>2022-10-13T09:59:25+02:00</time>
      </trkpt>
      <trkpt lat="45.23983" lon="5.80348">
        <ele>461</ele>
        <time>2022-10-13T09:59:40+02:00</time>
      </trkpt>
      <trkpt lat="45.24" lon="5.80372">
        <ele>463</ele>
        <time>2022-10-13T09:59:49+02:00</time>
      </trkpt>
      <trkpt lat="45.2402" lon="5.80354">
        <ele>469</ele>
        <time>2022-10-13T10:00:00+02:00</time>
      </trkpt>
      <trkpt lat="45.24007" lon="5.80326">
        <ele>470</ele>
        <time>2022-10-13T10:00:14+02:00</time>
      </trkpt>
      <trkpt lat="45.24007" lon="5.80293">
        <ele>467</ele>
        <time>2022-10-13T10:00:26+02:00</time>
      </trkpt>
      <trkpt lat="45.24016" lon="5.80264">
        <ele>473</ele>
        <time>2022-10-13T10:00:38+02:00</time>
      </trkpt>
      <trkpt lat="45.2403" lon="5.80238">
        <ele>480</ele>
        <time>2022-10-13T10:00:58+02:00</time>
      </trkpt>
      <trkpt lat="45.24049" lon="5.80221">
        <ele>488</ele>
        <time>2022-10-13T10:01:19+02:00</time>
      </trkpt>
      <trkpt lat="45.24073" lon="5.80219">
        <ele>488</ele>
        <time>2022-10-13T10:01:35+02:00</time>
      </trkpt>
      <trkpt lat="45.24095" lon="5.80209">
        <ele>493</ele>
        <time>2022-10-13T10:01:52+02:00</time>
      </trkpt>
      <trkpt lat="45.24118" lon="5.80203">
        <ele>495</ele>
        <time>2022-10-13T10:02:10+02:00</time>
      </trkpt>
      <trkpt lat="45.24141" lon="5.80206">
        <ele>495</ele>
        <time>2022-10-13T10:02:24+02:00</time>
      </trkpt>
      <trkpt lat="45.24165" lon="5.80204">
        <ele>500</ele>
        <time>2022-10-13T10:02:38+02:00</time>
      </trkpt>
      <trkpt lat="45.24189" lon="5.80198">
        <ele>503</ele>
        <time>2022-10-13T10:02:51+02:00</time>
      </trkpt>
      <trkpt lat="45.24211" lon="5.802">
        <ele>504</ele>
        <time>2022-10-13T10:03:06+02:00</time>
      </trkpt>
      <trkpt lat="45.24235" lon="5.80209">
        <ele>510</ele>
        <time>2022-10-13T10:03:20+02:00</time>
      </trkpt>
      <trkpt lat="45.24258" lon="5.80215">
        <ele>506</ele>
        <time>2022-10-13T10:03:30+02:00</time>
      </trkpt>
      <trkpt lat="45.24282" lon="5.80216">
        <ele>508</ele>
        <time>2022-10-13T10:03:40+02:00</time>
      </trkpt>
      <trkpt lat="45.24305" lon="5.80225">
        <ele>511</ele>
        <time>2022-10-13T10:03:50+02:00</time>
      </trkpt>
      <trkpt lat="45.24329" lon="5.80231">
        <ele>510</ele>
        <time>2022-10-13T10:04:00+02:00</time>
      </trkpt>
      <trkpt lat="45.24352" lon="5.80242">
        <ele>515</ele>
        <time>2022-10-13T10:04:10+02:00</time>
      </trkpt>
      <trkpt lat="45.24373" lon="5.8026">
        <ele>519</ele>
        <time>2022-10-13T10:04:20+02:00</time>
      </trkpt>
      <trkpt lat="45.24392" lon="5.80276">
        <ele>520</ele>
        <time>2022-10-13T10:04:28+02:00</time>
      </trkpt>
      <trkpt lat="45.24404" lon="5.80303">
        <ele>528</ele>
        <time>2022-10-13T10:08:59+02:00</time>
      </trkpt>
      <trkpt lat="45.24408" lon="5.80338">
        <ele>522</ele>
        <time>2022-10-13T10:09:10+02:00</time>
      </trkpt>
      <trkpt lat="45.24422" lon="5.80381">
        <ele>527</ele>
        <time>2022-10-13T10:09:14+02:00</time>
      </trkpt>
      <trkpt lat="45.24438" lon="5.80404">
        <ele>529</ele>
        <time>2022-10-13T10:09:19+02:00</time>
      </trkpt>
      <trkpt lat="45.2447" lon="5.80461">
        <ele>527</ele>
        <time>2022-10-13T10:09:29+02:00</time>
      </trkpt>
      <trkpt lat="45.24489" lon="5.80489">
        <ele>526</ele>
        <time>2022-10-13T10:09:36+02:00</time>
      </trkpt>
      <trkpt lat="45.24507" lon="5.80517">
        <ele>525</ele>
        <time>2022-10-13T10:09:38+02:00</time>
      </trkpt>
      <trkpt lat="45.24523" lon="5.80544">
        <ele>524</ele>
        <time>2022-10-13T10:09:43+02:00</time>
      </trkpt>
      <trkpt lat="45.24545" lon="5.80537">
        <ele>527</ele>
        <time>2022-10-13T10:09:57+02:00</time>
      </trkpt>
      <trkpt lat="45.24568" lon="5.80548">
        <ele>525</ele>
        <time>2022-10-13T10:10:15+02:00</time>
      </trkpt>
      <trkpt lat="45.24588" lon="5.80567">
        <ele>525</ele>
        <time>2022-10-13T10:10:21+02:00</time>
      </trkpt>
      <trkpt lat="45.24615" lon="5.80594">
        <ele>525</ele>
        <time>2022-10-13T10:10:24+02:00</time>
      </trkpt>
      <trkpt lat="45.24633" lon="5.80617">
        <ele>526</ele>
        <time>2022-10-13T10:10:29+02:00</time>
      </trkpt>
      <trkpt lat="45.24646" lon="5.80647">
        <ele>525</ele>
        <time>2022-10-13T10:10:37+02:00</time>
      </trkpt>
      <trkpt lat="45.24662" lon="5.80674">
        <ele>534</ele>
        <time>2022-10-13T10:10:53+02:00</time>
      </trkpt>
      <trkpt lat="45.24681" lon="5.80692">
        <ele>534</ele>
        <time>2022-10-13T10:11:05+02:00</time>
      </trkpt>
      <trkpt lat="45.24702" lon="5.80707">
        <ele>538</ele>
        <time>2022-10-13T10:11:25+02:00</time>
      </trkpt>
      <trkpt lat="45.24724" lon="5.80716">
        <ele>542</ele>
        <time>2022-10-13T10:11:41+02:00</time>
      </trkpt>
      <trkpt lat="45.24746" lon="5.80727">
        <ele>546</ele>
        <time>2022-10-13T10:11:59+02:00</time>
      </trkpt>
      <trkpt lat="45.24766" lon="5.80741">
        <ele>547</ele>
        <time>2022-10-13T10:12:12+02:00</time>
      </trkpt>
      <trkpt lat="45.24788" lon="5.80755">
        <ele>557</ele>
        <time>2022-10-13T10:12:37+02:00</time>
      </trkpt>
      <trkpt lat="45.24805" lon="5.80777">
        <ele>564</ele>
        <time>2022-10-13T10:12:56+02:00</time>
      </trkpt>
      <trkpt lat="45.2482" lon="5.80801">
        <ele>567</ele>
        <time>2022-10-13T10:13:10+02:00</time>
      </trkpt>
      <trkpt lat="45.24839" lon="5.80821">
        <ele>564</ele>
        <time>2022-10-13T10:13:19+02:00</time>
      </trkpt>
      <trkpt lat="45.24857" lon="5.80844">
        <ele>563</ele>
        <time>2022-10-13T10:13:24+02:00</time>
      </trkpt>
      <trkpt lat="45.24874" lon="5.80865">
        <ele>561</ele>
        <time>2022-10-13T10:13:27+02:00</time>
      </trkpt>
      <trkpt lat="45.24888" lon="5.80895">
        <ele>560</ele>
        <time>2022-10-13T10:13:38+02:00</time>
      </trkpt>
      <trkpt lat="45.24901" lon="5.80925">
        <ele>564</ele>
        <time>2022-10-13T10:13:46+02:00</time>
      </trkpt>
      <trkpt lat="45.2491" lon="5.80957">
        <ele>562</ele>
        <time>2022-10-13T10:13:54+02:00</time>
      </trkpt>
      <trkpt lat="45.24916" lon="5.80989">
        <ele>567</ele>
        <time>2022-10-13T10:14:05+02:00</time>
      </trkpt>
      <trkpt lat="45.24924" lon="5.81021">
        <ele>564</ele>
        <time>2022-10-13T10:14:20+02:00</time>
      </trkpt>
      <trkpt lat="45.24939" lon="5.81047">
        <ele>567</ele>
        <time>2022-10-13T10:14:35+02:00</time>
      </trkpt>
      <trkpt lat="45.24958" lon="5.8107">
        <ele>570</ele>
        <time>2022-10-13T10:14:44+02:00</time>
      </trkpt>
      <trkpt lat="45.2498" lon="5.8109">
        <ele>573</ele>
        <time>2022-10-13T10:14:51+02:00</time>
      </trkpt>
      <trkpt lat="45.25004" lon="5.81099">
        <ele>575</ele>
        <time>2022-10-13T10:14:59+02:00</time>
      </trkpt>
      <trkpt lat="45.25029" lon="5.81097">
        <ele>570</ele>
        <time>2022-10-13T10:15:08+02:00</time>
      </trkpt>
      <trkpt lat="45.2505" lon="5.8108">
        <ele>570</ele>
        <time>2022-10-13T10:15:14+02:00</time>
      </trkpt>
      <trkpt lat="45.25068" lon="5.8106">
        <ele>569</ele>
        <time>2022-10-13T10:15:25+02:00</time>
      </trkpt>
      <trkpt lat="45.25088" lon="5.81043">
        <ele>570</ele>
        <time>2022-10-13T10:15:36+02:00</time>
      </trkpt>
      <trkpt lat="45.25097" lon="5.81013">
        <ele>570</ele>
        <time>2022-10-13T10:15:45+02:00</time>
      </trkpt>
      <trkpt lat="45.25109" lon="5.80981">
        <ele>572</ele>
        <time>2022-10-13T10:15:49+02:00</time>
      </trkpt>
      <trkpt lat="45.25132" lon="5.80989">
        <ele>574</ele>
        <time>2022-10-13T10:16:02+02:00</time>
      </trkpt>
      <trkpt lat="45.25149" lon="5.81009">
        <ele>570</ele>
        <time>2022-10-13T10:16:11+02:00</time>
      </trkpt>
      <trkpt lat="45.25155" lon="5.81043">
        <ele>570</ele>
        <time>2022-10-13T10:16:21+02:00</time>
      </trkpt>
      <trkpt lat="45.25173" lon="5.81064">
        <ele>569</ele>
        <time>2022-10-13T10:16:30+02:00</time>
      </trkpt>
      <trkpt lat="45.25194" lon="5.81078">
        <ele>572</ele>
        <time>2022-10-13T10:16:41+02:00</time>
      </trkpt>
      <trkpt lat="45.25217" lon="5.8109">
        <ele>574</ele>
        <time>2022-10-13T10:16:51+02:00</time>
      </trkpt>
      <trkpt lat="45.25238" lon="5.81105">
        <ele>576</ele>
        <time>2022-10-13T10:17:01+02:00</time>
      </trkpt>
      <trkpt lat="45.25256" lon="5.8113">
        <ele>578</ele>
        <time>2022-10-13T10:17:11+02:00</time>
      </trkpt>
      <trkpt lat="45.25268" lon="5.81157">
        <ele>576</ele>
        <time>2022-10-13T10:17:18+02:00</time>
      </trkpt>
      <trkpt lat="45.25265" lon="5.81188">
        <ele>577</ele>
        <time>2022-10-13T10:17:24+02:00</time>
      </trkpt>
      <trkpt lat="45.25254" lon="5.81218">
        <ele>580</ele>
        <time>2022-10-13T10:17:39+02:00</time>
      </trkpt>
      <trkpt lat="45.25246" lon="5.81248">
        <ele>580</ele>
        <time>2022-10-13T10:17:50+02:00</time>
      </trkpt>
      <trkpt lat="45.25239" lon="5.81282">
        <ele>580</ele>
        <time>2022-10-13T10:18:01+02:00</time>
      </trkpt>
      <trkpt lat="45.25249" lon="5.81316">
        <ele>577</ele>
        <time>2022-10-13T10:18:08+02:00</time>
      </trkpt>
      <trkpt lat="45.25264" lon="5.81356">
        <ele>577</ele>
        <time>2022-10-13T10:18:14+02:00</time>
      </trkpt>
      <trkpt lat="45.25269" lon="5.81389">
        <ele>580</ele>
        <time>2022-10-13T10:18:20+02:00</time>
      </trkpt>
      <trkpt lat="45.25278" lon="5.81421">
        <ele>581</ele>
        <time>2022-10-13T10:18:25+02:00</time>
      </trkpt>
      <trkpt lat="45.25293" lon="5.81457">
        <ele>580</ele>
        <time>2022-10-13T10:18:33+02:00</time>
      </trkpt>
      <trkpt lat="45.25309" lon="5.8148">
        <ele>580</ele>
        <time>2022-10-13T10:18:39+02:00</time>
      </trkpt>
      <trkpt lat="45.25328" lon="5.81503">
        <ele>578</ele>
        <time>2022-10-13T10:19:02+02:00</time>
      </trkpt>
      <trkpt lat="45.25345" lon="5.81526">
        <ele>579</ele>
        <time>2022-10-13T10:19:09+02:00</time>
      </trkpt>
      <trkpt lat="45.25366" lon="5.81561">
        <ele>581</ele>
        <time>2022-10-13T10:19:14+02:00</time>
      </trkpt>
      <trkpt lat="45.25387" lon="5.8158">
        <ele>585</ele>
        <time>2022-10-13T10:19:28+02:00</time>
      </trkpt>
      <trkpt lat="45.25403" lon="5.81604">
        <ele>583</ele>
        <time>2022-10-13T10:19:38+02:00</time>
      </trkpt>
      <trkpt lat="45.25417" lon="5.8163">
        <ele>577</ele>
        <time>2022-10-13T10:19:44+02:00</time>
      </trkpt>
      <trkpt lat="45.25432" lon="5.81658">
        <ele>572</ele>
        <time>2022-10-13T10:19:47+02:00</time>
      </trkpt>
      <trkpt lat="45.25448" lon="5.81701">
        <ele>571</ele>
        <time>2022-10-13T10:19:50+02:00</time>
      </trkpt>
      <trkpt lat="45.25461" lon="5.81735">
        <ele>570</ele>
        <time>2022-10-13T10:19:52+02:00</time>
      </trkpt>
      <trkpt lat="45.25474" lon="5.81771">
        <ele>569</ele>
        <time>2022-10-13T10:19:56+02:00</time>
      </trkpt>
      <trkpt lat="45.25483" lon="5.81808">
        <ele>565</ele>
        <time>2022-10-13T10:20:00+02:00</time>
      </trkpt>
      <trkpt lat="45.25488" lon="5.81841">
        <ele>561</ele>
        <time>2022-10-13T10:20:04+02:00</time>
      </trkpt>
      <trkpt lat="45.25516" lon="5.81846">
        <ele>555</ele>
        <time>2022-10-13T10:20:12+02:00</time>
      </trkpt>
      <trkpt lat="45.25541" lon="5.81862">
        <ele>552</ele>
        <time>2022-10-13T10:20:14+02:00</time>
      </trkpt>
      <trkpt lat="45.25561" lon="5.81886">
        <ele>552</ele>
        <time>2022-10-13T10:20:18+02:00</time>
      </trkpt>
      <trkpt lat="45.25582" lon="5.81912">
        <ele>549</ele>
        <time>2022-10-13T10:20:23+02:00</time>
      </trkpt>
      <trkpt lat="45.25599" lon="5.81938">
        <ele>549</ele>
        <time>2022-10-13T10:20:27+02:00</time>
      </trkpt>
      <trkpt lat="45.256" lon="5.81973">
        <ele>547</ele>
        <time>2022-10-13T10:20:36+02:00</time>
      </trkpt>
      <trkpt lat="45.25602" lon="5.82008">
        <ele>545</ele>
        <time>2022-10-13T10:20:43+02:00</time>
      </trkpt>
      <trkpt lat="45.25618" lon="5.82032">
        <ele>546</ele>
        <time>2022-10-13T10:20:50+02:00</time>
      </trkpt>
      <trkpt lat="45.25639" lon="5.82018">
        <ele>546</ele>
        <time>2022-10-13T10:21:04+02:00</time>
      </trkpt>
      <trkpt lat="45.25659" lon="5.82002">
        <ele>550</ele>
        <time>2022-10-13T10:21:25+02:00</time>
      </trkpt>
      <trkpt lat="45.2568" lon="5.82019">
        <ele>557</ele>
        <time>2022-10-13T10:21:44+02:00</time>
      </trkpt>
      <trkpt lat="45.257" lon="5.82035">
        <ele>562</ele>
        <time>2022-10-13T10:21:59+02:00</time>
      </trkpt>
      <trkpt lat="45.25719" lon="5.82053">
        <ele>565</ele>
        <time>2022-10-13T10:22:15+02:00</time>
      </trkpt>
      <trkpt lat="45.25739" lon="5.82071">
        <ele>567</ele>
        <time>2022-10-13T10:22:37+02:00</time>
      </trkpt>
      <trkpt lat="45.25762" lon="5.82073">
        <ele>572</ele>
        <time>2022-10-13T10:22:56+02:00</time>
      </trkpt>
      <trkpt lat="45.25784" lon="5.82078">
        <ele>577</ele>
        <time>2022-10-13T10:23:17+02:00</time>
      </trkpt>
      <trkpt lat="45.25806" lon="5.82089">
        <ele>581</ele>
        <time>2022-10-13T10:23:37+02:00</time>
      </trkpt>
      <trkpt lat="45.25828" lon="5.82102">
        <ele>586</ele>
        <time>2022-10-13T10:23:54+02:00</time>
      </trkpt>
      <trkpt lat="45.25844" lon="5.82124">
        <ele>588</ele>
        <time>2022-10-13T10:24:15+02:00</time>
      </trkpt>
      <trkpt lat="45.25865" lon="5.82138">
        <ele>594</ele>
        <time>2022-10-13T10:24:37+02:00</time>
      </trkpt>
      <trkpt lat="45.25888" lon="5.82138">
        <ele>603</ele>
        <time>2022-10-13T10:24:55+02:00</time>
      </trkpt>
      <trkpt lat="45.25911" lon="5.82137">
        <ele>598</ele>
        <time>2022-10-13T10:25:12+02:00</time>
      </trkpt>
      <trkpt lat="45.25941" lon="5.82142">
        <ele>598</ele>
        <time>2022-10-13T10:25:21+02:00</time>
      </trkpt>
      <trkpt lat="45.25961" lon="5.82155">
        <ele>603</ele>
        <time>2022-10-13T10:25:25+02:00</time>
      </trkpt>
      <trkpt lat="45.25985" lon="5.8216">
        <ele>602</ele>
        <time>2022-10-13T10:25:34+02:00</time>
      </trkpt>
      <trkpt lat="45.26004" lon="5.82181">
        <ele>601</ele>
        <time>2022-10-13T10:25:46+02:00</time>
      </trkpt>
      <trkpt lat="45.26024" lon="5.82199">
        <ele>602</ele>
        <time>2022-10-13T10:25:53+02:00</time>
      </trkpt>
      <trkpt lat="45.26045" lon="5.82211">
        <ele>604</ele>
        <time>2022-10-13T10:26:05+02:00</time>
      </trkpt>
      <trkpt lat="45.26065" lon="5.82231">
        <ele>605</ele>
        <time>2022-10-13T10:26:16+02:00</time>
      </trkpt>
      <trkpt lat="45.26082" lon="5.82253">
        <ele>607</ele>
        <time>2022-10-13T10:26:26+02:00</time>
      </trkpt>
      <trkpt lat="45.261" lon="5.82275">
        <ele>608</ele>
        <time>2022-10-13T10:26:35+02:00</time>
      </trkpt>
      <trkpt lat="45.26122" lon="5.82286">
        <ele>610</ele>
        <time>2022-10-13T10:26:46+02:00</time>
      </trkpt>
      <trkpt lat="45.26144" lon="5.82299">
        <ele>611</ele>
        <time>2022-10-13T10:27:32+02:00</time>
      </trkpt>
      <trkpt lat="45.26167" lon="5.82302">
        <ele>610</ele>
        <time>2022-10-13T10:27:44+02:00</time>
      </trkpt>
      <trkpt lat="45.2619" lon="5.82316">
        <ele>610</ele>
        <time>2022-10-13T10:28:07+02:00</time>
      </trkpt>
      <trkpt lat="45.26207" lon="5.8234">
        <ele>614</ele>
        <time>2022-10-13T10:28:21+02:00</time>
      </trkpt>
      <trkpt lat="45.26214" lon="5.82371">
        <ele>615</ele>
        <time>2022-10-13T10:28:33+02:00</time>
      </trkpt>
      <trkpt lat="45.26234" lon="5.82388">
        <ele>621</ele>
        <time>2022-10-13T10:29:07+02:00</time>
      </trkpt>
      <trkpt lat="45.2625" lon="5.82411">
        <ele>633</ele>
        <time>2022-10-13T10:29:45+02:00</time>
      </trkpt>
      <trkpt lat="45.26271" lon="5.82422">
        <ele>644</ele>
        <time>2022-10-13T10:30:40+02:00</time>
      </trkpt>
      <trkpt lat="45.26291" lon="5.8244">
        <ele>645</ele>
        <time>2022-10-13T10:32:08+02:00</time>
      </trkpt>
      <trkpt lat="45.26317" lon="5.82464">
        <ele>640</ele>
        <time>2022-10-13T10:32:17+02:00</time>
      </trkpt>
      <trkpt lat="45.26336" lon="5.82484">
        <ele>642</ele>
        <time>2022-10-13T10:32:31+02:00</time>
      </trkpt>
      <trkpt lat="45.26357" lon="5.825">
        <ele>644</ele>
        <time>2022-10-13T10:32:42+02:00</time>
      </trkpt>
      <trkpt lat="45.26374" lon="5.8252">
        <ele>637</ele>
        <time>2022-10-13T10:32:52+02:00</time>
      </trkpt>
      <trkpt lat="45.26381" lon="5.82552">
        <ele>635</ele>
        <time>2022-10-13T10:33:00+02:00</time>
      </trkpt>
      <trkpt lat="45.26398" lon="5.82575">
        <ele>636</ele>
        <time>2022-10-13T10:33:06+02:00</time>
      </trkpt>
      <trkpt lat="45.26409" lon="5.82605">
        <ele>636</ele>
        <time>2022-10-13T10:33:26+02:00</time>
      </trkpt>
      <trkpt lat="45.26418" lon="5.82637">
        <ele>636</ele>
        <time>2022-10-13T10:33:37+02:00</time>
      </trkpt>
      <trkpt lat="45.26426" lon="5.82669">
        <ele>627</ele>
        <time>2022-10-13T10:33:51+02:00</time>
      </trkpt>
      <trkpt lat="45.26445" lon="5.82691">
        <ele>620</ele>
        <time>2022-10-13T10:34:02+02:00</time>
      </trkpt>
      <trkpt lat="45.26452" lon="5.82722">
        <ele>617</ele>
        <time>2022-10-13T10:34:12+02:00</time>
      </trkpt>
      <trkpt lat="45.26443" lon="5.82753">
        <ele>612</ele>
        <time>2022-10-13T10:34:27+02:00</time>
      </trkpt>
      <trkpt lat="45.2643" lon="5.8278">
        <ele>600</ele>
        <time>2022-10-13T10:34:41+02:00</time>
      </trkpt>
      <trkpt lat="45.26432" lon="5.82813">
        <ele>588</ele>
        <time>2022-10-13T10:34:57+02:00</time>
      </trkpt>
      <trkpt lat="45.26453" lon="5.82828">
        <ele>575</ele>
        <time>2022-10-13T10:35:12+02:00</time>
      </trkpt>
      <trkpt lat="45.26476" lon="5.8282">
        <ele>572</ele>
        <time>2022-10-13T10:35:28+02:00</time>
      </trkpt>
      <trkpt lat="45.26498" lon="5.82814">
        <ele>575</ele>
        <time>2022-10-13T10:35:43+02:00</time>
      </trkpt>
      <trkpt lat="45.2652" lon="5.82803">
        <ele>580</ele>
        <time>2022-10-13T10:36:01+02:00</time>
      </trkpt>
      <trkpt lat="45.26539" lon="5.82783">
        <ele>590</ele>
        <time>2022-10-13T10:36:19+02:00</time>
      </trkpt>
      <trkpt lat="45.26557" lon="5.82765">
        <ele>605</ele>
        <time>2022-10-13T10:36:39+02:00</time>
      </trkpt>
      <trkpt lat="45.26539" lon="5.82786">
        <ele>600</ele>
        <time>2022-10-13T10:38:34+02:00</time>
      </trkpt>
      <trkpt lat="45.26524" lon="5.82812">
        <ele>597</ele>
        <time>2022-10-13T10:38:37+02:00</time>
      </trkpt>
      <trkpt lat="45.26503" lon="5.82831">
        <ele>591</ele>
        <time>2022-10-13T10:38:42+02:00</time>
      </trkpt>
      <trkpt lat="45.2648" lon="5.82837">
        <ele>588</ele>
        <time>2022-10-13T10:38:48+02:00</time>
      </trkpt>
      <trkpt lat="45.26455" lon="5.82838">
        <ele>582</ele>
        <time>2022-10-13T10:38:53+02:00</time>
      </trkpt>
      <trkpt lat="45.2643" lon="5.82841">
        <ele>572</ele>
        <time>2022-10-13T10:39:04+02:00</time>
      </trkpt>
      <trkpt lat="45.2641" lon="5.82859">
        <ele>565</ele>
        <time>2022-10-13T10:39:11+02:00</time>
      </trkpt>
      <trkpt lat="45.26391" lon="5.82882">
        <ele>558</ele>
        <time>2022-10-13T10:39:20+02:00</time>
      </trkpt>
      <trkpt lat="45.26371" lon="5.82898">
        <ele>552</ele>
        <time>2022-10-13T10:39:28+02:00</time>
      </trkpt>
      <trkpt lat="45.2635" lon="5.82916">
        <ele>546</ele>
        <time>2022-10-13T10:39:37+02:00</time>
      </trkpt>
      <trkpt lat="45.26335" lon="5.82941">
        <ele>541</ele>
        <time>2022-10-13T10:39:50+02:00</time>
      </trkpt>
      <trkpt lat="45.26316" lon="5.82967">
        <ele>534</ele>
        <time>2022-10-13T10:39:56+02:00</time>
      </trkpt>
      <trkpt lat="45.26301" lon="5.82992">
        <ele>519</ele>
        <time>2022-10-13T10:40:04+02:00</time>
      </trkpt>
      <trkpt lat="45.26292" lon="5.83026">
        <ele>511</ele>
        <time>2022-10-13T10:40:21+02:00</time>
      </trkpt>
      <trkpt lat="45.26271" lon="5.83041">
        <ele>508</ele>
        <time>2022-10-13T10:40:25+02:00</time>
      </trkpt>
      <trkpt lat="45.26246" lon="5.8306">
        <ele>506</ele>
        <time>2022-10-13T10:40:29+02:00</time>
      </trkpt>
      <trkpt lat="45.26227" lon="5.83081">
        <ele>502</ele>
        <time>2022-10-13T10:40:33+02:00</time>
      </trkpt>
      <trkpt lat="45.26201" lon="5.83095">
        <ele>499</ele>
        <time>2022-10-13T10:40:37+02:00</time>
      </trkpt>
      <trkpt lat="45.26173" lon="5.83108">
        <ele>497</ele>
        <time>2022-10-13T10:40:41+02:00</time>
      </trkpt>
      <trkpt lat="45.26147" lon="5.8312">
        <ele>494</ele>
        <time>2022-10-13T10:40:45+02:00</time>
      </trkpt>
      <trkpt lat="45.26122" lon="5.83138">
        <ele>491</ele>
        <time>2022-10-13T10:40:49+02:00</time>
      </trkpt>
      <trkpt lat="45.261" lon="5.83155">
        <ele>489</ele>
        <time>2022-10-13T10:40:55+02:00</time>
      </trkpt>
      <trkpt lat="45.26094" lon="5.83188">
        <ele>484</ele>
        <time>2022-10-13T10:41:02+02:00</time>
      </trkpt>
      <trkpt lat="45.26095" lon="5.83222">
        <ele>483</ele>
        <time>2022-10-13T10:41:08+02:00</time>
      </trkpt>
      <trkpt lat="45.26098" lon="5.83254">
        <ele>485</ele>
        <time>2022-10-13T10:41:16+02:00</time>
      </trkpt>
      <trkpt lat="45.261" lon="5.83288">
        <ele>484</ele>
        <time>2022-10-13T10:41:22+02:00</time>
      </trkpt>
      <trkpt lat="45.26106" lon="5.83324">
        <ele>483</ele>
        <time>2022-10-13T10:41:28+02:00</time>
      </trkpt>
      <trkpt lat="45.26115" lon="5.83356">
        <ele>482</ele>
        <time>2022-10-13T10:41:34+02:00</time>
      </trkpt>
      <trkpt lat="45.26127" lon="5.83393">
        <ele>486</ele>
        <time>2022-10-13T10:41:41+02:00</time>
      </trkpt>
      <trkpt lat="45.26139" lon="5.8342">
        <ele>486</ele>
        <time>2022-10-13T10:41:48+02:00</time>
      </trkpt>
      <trkpt lat="45.26151" lon="5.83448">
        <ele>488</ele>
        <time>2022-10-13T10:41:55+02:00</time>
      </trkpt>
      <trkpt lat="45.26163" lon="5.83477">
        <ele>483</ele>
        <time>2022-10-13T10:42:03+02:00</time>
      </trkpt>
      <trkpt lat="45.26172" lon="5.83507">
        <ele>489</ele>
        <time>2022-10-13T10:42:10+02:00</time>
      </trkpt>
      <trkpt lat="45.26181" lon="5.83539">
        <ele>486</ele>
        <time>2022-10-13T10:42:17+02:00</time>
      </trkpt>
      <trkpt lat="45.26192" lon="5.83572">
        <ele>491</ele>
        <time>2022-10-13T10:42:22+02:00</time>
      </trkpt>
      <trkpt lat="45.26205" lon="5.83601">
        <ele>488</ele>
        <time>2022-10-13T10:42:29+02:00</time>
      </trkpt>
      <trkpt lat="45.26218" lon="5.83629">
        <ele>489</ele>
        <time>2022-10-13T10:42:34+02:00</time>
      </trkpt>
      <trkpt lat="45.26239" lon="5.83641">
        <ele>488</ele>
        <time>2022-10-13T10:42:41+02:00</time>
      </trkpt>
      <trkpt lat="45.26261" lon="5.83631">
        <ele>493</ele>
        <time>2022-10-13T10:42:56+02:00</time>
      </trkpt>
      <trkpt lat="45.26284" lon="5.8362">
        <ele>498</ele>
        <time>2022-10-13T10:43:11+02:00</time>
      </trkpt>
      <trkpt lat="45.26306" lon="5.83629">
        <ele>502</ele>
        <time>2022-10-13T10:43:23+02:00</time>
      </trkpt>
      <trkpt lat="45.26328" lon="5.83638">
        <ele>509</ele>
        <time>2022-10-13T10:43:52+02:00</time>
      </trkpt>
      <trkpt lat="45.26348" lon="5.83622">
        <ele>514</ele>
        <time>2022-10-13T10:44:05+02:00</time>
      </trkpt>
      <trkpt lat="45.2637" lon="5.83612">
        <ele>517</ele>
        <time>2022-10-13T10:44:18+02:00</time>
      </trkpt>
      <trkpt lat="45.26393" lon="5.83602">
        <ele>518</ele>
        <time>2022-10-13T10:44:31+02:00</time>
      </trkpt>
      <trkpt lat="45.26414" lon="5.8359">
        <ele>520</ele>
        <time>2022-10-13T10:44:47+02:00</time>
      </trkpt>
      <trkpt lat="45.26436" lon="5.83586">
        <ele>524</ele>
        <time>2022-10-13T10:45:03+02:00</time>
      </trkpt>
      <trkpt lat="45.26459" lon="5.83583">
        <ele>525</ele>
        <time>2022-10-13T10:45:15+02:00</time>
      </trkpt>
      <trkpt lat="45.26479" lon="5.83567">
        <ele>526</ele>
        <time>2022-10-13T10:45:33+02:00</time>
      </trkpt>
      <trkpt lat="45.26501" lon="5.83555">
        <ele>534</ele>
        <time>2022-10-13T10:45:49+02:00</time>
      </trkpt>
      <trkpt lat="45.26522" lon="5.83543">
        <ele>536</ele>
        <time>2022-10-13T10:46:02+02:00</time>
      </trkpt>
      <trkpt lat="45.26546" lon="5.83534">
        <ele>542</ele>
        <time>2022-10-13T10:46:15+02:00</time>
      </trkpt>
      <trkpt lat="45.2657" lon="5.83536">
        <ele>541</ele>
        <time>2022-10-13T10:46:27+02:00</time>
      </trkpt>
      <trkpt lat="45.26592" lon="5.83532">
        <ele>541</ele>
        <time>2022-10-13T10:46:45+02:00</time>
      </trkpt>
      <trkpt lat="45.26614" lon="5.83526">
        <ele>549</ele>
        <time>2022-10-13T10:47:05+02:00</time>
      </trkpt>
      <trkpt lat="45.26637" lon="5.83516">
        <ele>553</ele>
        <time>2022-10-13T10:47:21+02:00</time>
      </trkpt>
      <trkpt lat="45.2666" lon="5.83504">
        <ele>556</ele>
        <time>2022-10-13T10:47:31+02:00</time>
      </trkpt>
      <trkpt lat="45.26682" lon="5.83497">
        <ele>555</ele>
        <time>2022-10-13T10:47:42+02:00</time>
      </trkpt>
      <trkpt lat="45.26704" lon="5.83486">
        <ele>557</ele>
        <time>2022-10-13T10:47:58+02:00</time>
      </trkpt>
      <trkpt lat="45.26726" lon="5.83478">
        <ele>560</ele>
        <time>2022-10-13T10:48:22+02:00</time>
      </trkpt>
      <trkpt lat="45.26747" lon="5.83462">
        <ele>565</ele>
        <time>2022-10-13T10:48:36+02:00</time>
      </trkpt>
      <trkpt lat="45.26769" lon="5.83454">
        <ele>567</ele>
        <time>2022-10-13T10:48:48+02:00</time>
      </trkpt>
      <trkpt lat="45.2679" lon="5.83441">
        <ele>568</ele>
        <time>2022-10-13T10:49:01+02:00</time>
      </trkpt>
      <trkpt lat="45.26812" lon="5.83427">
        <ele>571</ele>
        <time>2022-10-13T10:49:14+02:00</time>
      </trkpt>
      <trkpt lat="45.26834" lon="5.83419">
        <ele>577</ele>
        <time>2022-10-13T10:49:27+02:00</time>
      </trkpt>
      <trkpt lat="45.26855" lon="5.83406">
        <ele>579</ele>
        <time>2022-10-13T10:49:42+02:00</time>
      </trkpt>
      <trkpt lat="45.26879" lon="5.83398">
        <ele>580</ele>
        <time>2022-10-13T10:49:56+02:00</time>
      </trkpt>
      <trkpt lat="45.26902" lon="5.83387">
        <ele>587</ele>
        <time>2022-10-13T10:50:09+02:00</time>
      </trkpt>
      <trkpt lat="45.26923" lon="5.83371">
        <ele>592</ele>
        <time>2022-10-13T10:50:26+02:00</time>
      </trkpt>
      <trkpt lat="45.26944" lon="5.83357">
        <ele>592</ele>
        <time>2022-10-13T10:50:42+02:00</time>
      </trkpt>
      <trkpt lat="45.26967" lon="5.83348">
        <ele>595</ele>
        <time>2022-10-13T10:50:57+02:00</time>
      </trkpt>
      <trkpt lat="45.2699" lon="5.83345">
        <ele>597</ele>
        <time>2022-10-13T10:51:12+02:00</time>
      </trkpt>
      <trkpt lat="45.27013" lon="5.83337">
        <ele>602</ele>
        <time>2022-10-13T10:51:33+02:00</time>
      </trkpt>
      <trkpt lat="45.27035" lon="5.83326">
        <ele>607</ele>
        <time>2022-10-13T10:51:54+02:00</time>
      </trkpt>
      <trkpt lat="45.27058" lon="5.8332">
        <ele>611</ele>
        <time>2022-10-13T10:52:08+02:00</time>
      </trkpt>
      <trkpt lat="45.27082" lon="5.83317">
        <ele>615</ele>
        <time>2022-10-13T10:52:24+02:00</time>
      </trkpt>
      <trkpt lat="45.27105" lon="5.83318">
        <ele>618</ele>
        <time>2022-10-13T10:52:40+02:00</time>
      </trkpt>
      <trkpt lat="45.27128" lon="5.83318">
        <ele>625</ele>
        <time>2022-10-13T10:53:03+02:00</time>
      </trkpt>
      <trkpt lat="45.27151" lon="5.8332">
        <ele>626</ele>
        <time>2022-10-13T10:53:17+02:00</time>
      </trkpt>
      <trkpt lat="45.27174" lon="5.8332">
        <ele>629</ele>
        <time>2022-10-13T10:53:34+02:00</time>
      </trkpt>
      <trkpt lat="45.27198" lon="5.83319">
        <ele>635</ele>
        <time>2022-10-13T10:53:50+02:00</time>
      </trkpt>
      <trkpt lat="45.27221" lon="5.83319">
        <ele>638</ele>
        <time>2022-10-13T10:54:10+02:00</time>
      </trkpt>
      <trkpt lat="45.27244" lon="5.83321">
        <ele>642</ele>
        <time>2022-10-13T10:54:27+02:00</time>
      </trkpt>
      <trkpt lat="45.27267" lon="5.83325">
        <ele>645</ele>
        <time>2022-10-13T10:54:45+02:00</time>
      </trkpt>
      <trkpt lat="45.2729" lon="5.83327">
        <ele>649</ele>
        <time>2022-10-13T10:55:01+02:00</time>
      </trkpt>
      <trkpt lat="45.27313" lon="5.83327">
        <ele>648</ele>
        <time>2022-10-13T10:55:19+02:00</time>
      </trkpt>
      <trkpt lat="45.27337" lon="5.83325">
        <ele>654</ele>
        <time>2022-10-13T10:55:35+02:00</time>
      </trkpt>
      <trkpt lat="45.27361" lon="5.83321">
        <ele>664</ele>
        <time>2022-10-13T10:55:55+02:00</time>
      </trkpt>
      <trkpt lat="45.27384" lon="5.83313">
        <ele>660</ele>
        <time>2022-10-13T10:56:15+02:00</time>
      </trkpt>
      <trkpt lat="45.27407" lon="5.83306">
        <ele>666</ele>
        <time>2022-10-13T10:56:29+02:00</time>
      </trkpt>
      <trkpt lat="45.27431" lon="5.83304">
        <ele>671</ele>
        <time>2022-10-13T10:56:45+02:00</time>
      </trkpt>
      <trkpt lat="45.27454" lon="5.83308">
        <ele>679</ele>
        <time>2022-10-13T10:57:06+02:00</time>
      </trkpt>
      <trkpt lat="45.27477" lon="5.83319">
        <ele>678</ele>
        <time>2022-10-13T10:57:19+02:00</time>
      </trkpt>
      <trkpt lat="45.27499" lon="5.83329">
        <ele>683</ele>
        <time>2022-10-13T10:57:35+02:00</time>
      </trkpt>
      <trkpt lat="45.27521" lon="5.83339">
        <ele>687</ele>
        <time>2022-10-13T10:57:50+02:00</time>
      </trkpt>
      <trkpt lat="45.27544" lon="5.83338">
        <ele>692</ele>
        <time>2022-10-13T10:58:08+02:00</time>
      </trkpt>
      <trkpt lat="45.27567" lon="5.83331">
        <ele>709</ele>
        <time>2022-10-13T10:58:25+02:00</time>
      </trkpt>
      <trkpt lat="45.27586" lon="5.83312">
        <ele>705</ele>
        <time>2022-10-13T10:58:45+02:00</time>
      </trkpt>
      <trkpt lat="45.27608" lon="5.83308">
        <ele>698</ele>
        <time>2022-10-13T10:59:01+02:00</time>
      </trkpt>
      <trkpt lat="45.27624" lon="5.83283">
        <ele>705</ele>
        <time>2022-10-13T10:59:24+02:00</time>
      </trkpt>
      <trkpt lat="45.27642" lon="5.83263">
        <ele>711</ele>
        <time>2022-10-13T10:59:41+02:00</time>
      </trkpt>
      <trkpt lat="45.27665" lon="5.83259">
        <ele>714</ele>
        <time>2022-10-13T11:00:00+02:00</time>
      </trkpt>
      <trkpt lat="45.27688" lon="5.83255">
        <ele>716</ele>
        <time>2022-10-13T11:00:21+02:00</time>
      </trkpt>
      <trkpt lat="45.27711" lon="5.83254">
        <ele>722</ele>
        <time>2022-10-13T11:00:45+02:00</time>
      </trkpt>
      <trkpt lat="45.27732" lon="5.83243">
        <ele>726</ele>
        <time>2022-10-13T11:01:01+02:00</time>
      </trkpt>
      <trkpt lat="45.27754" lon="5.83234">
        <ele>732</ele>
        <time>2022-10-13T11:01:17+02:00</time>
      </trkpt>
      <trkpt lat="45.27777" lon="5.83232">
        <ele>737</ele>
        <time>2022-10-13T11:01:34+02:00</time>
      </trkpt>
      <trkpt lat="45.278" lon="5.83236">
        <ele>737</ele>
        <time>2022-10-13T11:01:48+02:00</time>
      </trkpt>
      <trkpt lat="45.27821" lon="5.83224">
        <ele>736</ele>
        <time>2022-10-13T11:02:12+02:00</time>
      </trkpt>
      <trkpt lat="45.27844" lon="5.83217">
        <ele>737</ele>
        <time>2022-10-13T11:02:33+02:00</time>
      </trkpt>
      <trkpt lat="45.27867" lon="5.8321">
        <ele>749</ele>
        <time>2022-10-13T11:02:59+02:00</time>
      </trkpt>
      <trkpt lat="45.27889" lon="5.83213">
        <ele>757</ele>
        <time>2022-10-13T11:03:15+02:00</time>
      </trkpt>
      <trkpt lat="45.27912" lon="5.83213">
        <ele>756</ele>
        <time>2022-10-13T11:03:36+02:00</time>
      </trkpt>
      <trkpt lat="45.27935" lon="5.83207">
        <ele>761</ele>
        <time>2022-10-13T11:03:59+02:00</time>
      </trkpt>
      <trkpt lat="45.27957" lon="5.83203">
        <ele>765</ele>
        <time>2022-10-13T11:04:18+02:00</time>
      </trkpt>
      <trkpt lat="45.27981" lon="5.83196">
        <ele>771</ele>
        <time>2022-10-13T11:04:37+02:00</time>
      </trkpt>
      <trkpt lat="45.28003" lon="5.83189">
        <ele>769</ele>
        <time>2022-10-13T11:04:59+02:00</time>
      </trkpt>
      <trkpt lat="45.28026" lon="5.83187">
        <ele>785</ele>
        <time>2022-10-13T11:05:20+02:00</time>
      </trkpt>
      <trkpt lat="45.28047" lon="5.83198">
        <ele>790</ele>
        <time>2022-10-13T11:05:42+02:00</time>
      </trkpt>
      <trkpt lat="45.28069" lon="5.83209">
        <ele>790</ele>
        <time>2022-10-13T11:06:02+02:00</time>
      </trkpt>
      <trkpt lat="45.28092" lon="5.83204">
        <ele>800</ele>
        <time>2022-10-13T11:06:23+02:00</time>
      </trkpt>
      <trkpt lat="45.28115" lon="5.83196">
        <ele>805</ele>
        <time>2022-10-13T11:06:45+02:00</time>
      </trkpt>
      <trkpt lat="45.28137" lon="5.83202">
        <ele>820</ele>
        <time>2022-10-13T11:07:06+02:00</time>
      </trkpt>
      <trkpt lat="45.28155" lon="5.83183">
        <ele>811</ele>
        <time>2022-10-13T11:07:24+02:00</time>
      </trkpt>
      <trkpt lat="45.28179" lon="5.83181">
        <ele>809</ele>
        <time>2022-10-13T11:07:45+02:00</time>
      </trkpt>
      <trkpt lat="45.282" lon="5.83171">
        <ele>819</ele>
        <time>2022-10-13T11:08:06+02:00</time>
      </trkpt>
      <trkpt lat="45.28222" lon="5.83161">
        <ele>827</ele>
        <time>2022-10-13T11:08:25+02:00</time>
      </trkpt>
      <trkpt lat="45.28243" lon="5.83145">
        <ele>825</ele>
        <time>2022-10-13T11:08:53+02:00</time>
      </trkpt>
      <trkpt lat="45.28263" lon="5.83131">
        <ele>836</ele>
        <time>2022-10-13T11:09:15+02:00</time>
      </trkpt>
      <trkpt lat="45.28286" lon="5.83139">
        <ele>845</ele>
        <time>2022-10-13T11:09:33+02:00</time>
      </trkpt>
      <trkpt lat="45.28308" lon="5.83141">
        <ele>849</ele>
        <time>2022-10-13T11:09:59+02:00</time>
      </trkpt>
      <trkpt lat="45.28325" lon="5.83163">
        <ele>853</ele>
        <time>2022-10-13T11:10:19+02:00</time>
      </trkpt>
      <trkpt lat="45.28348" lon="5.83161">
        <ele>859</ele>
        <time>2022-10-13T11:10:44+02:00</time>
      </trkpt>
      <trkpt lat="45.28366" lon="5.8314">
        <ele>857</ele>
        <time>2022-10-13T11:11:06+02:00</time>
      </trkpt>
      <trkpt lat="45.28384" lon="5.83121">
        <ele>866</ele>
        <time>2022-10-13T11:11:27+02:00</time>
      </trkpt>
      <trkpt lat="45.28405" lon="5.8311">
        <ele>872</ele>
        <time>2022-10-13T11:11:43+02:00</time>
      </trkpt>
      <trkpt lat="45.28429" lon="5.83106">
        <ele>874</ele>
        <time>2022-10-13T11:12:02+02:00</time>
      </trkpt>
      <trkpt lat="45.28451" lon="5.83106">
        <ele>887</ele>
        <time>2022-10-13T11:12:25+02:00</time>
      </trkpt>
      <trkpt lat="45.28475" lon="5.83113">
        <ele>882</ele>
        <time>2022-10-13T11:12:41+02:00</time>
      </trkpt>
      <trkpt lat="45.28497" lon="5.83111">
        <ele>888</ele>
        <time>2022-10-13T11:13:04+02:00</time>
      </trkpt>
      <trkpt lat="45.28518" lon="5.83125">
        <ele>885</ele>
        <time>2022-10-13T11:13:24+02:00</time>
      </trkpt>
      <trkpt lat="45.28542" lon="5.83128">
        <ele>887</ele>
        <time>2022-10-13T11:13:40+02:00</time>
      </trkpt>
      <trkpt lat="45.28565" lon="5.83126">
        <ele>893</ele>
        <time>2022-10-13T11:14:03+02:00</time>
      </trkpt>
      <trkpt lat="45.28587" lon="5.83117">
        <ele>894</ele>
        <time>2022-10-13T11:14:19+02:00</time>
      </trkpt>
      <trkpt lat="45.28609" lon="5.83108">
        <ele>894</ele>
        <time>2022-10-13T11:14:39+02:00</time>
      </trkpt>
      <trkpt lat="45.28629" lon="5.83093">
        <ele>905</ele>
        <time>2022-10-13T11:15:06+02:00</time>
      </trkpt>
      <trkpt lat="45.28652" lon="5.83088">
        <ele>912</ele>
        <time>2022-10-13T11:15:21+02:00</time>
      </trkpt>
      <trkpt lat="45.28668" lon="5.83113">
        <ele>913</ele>
        <time>2022-10-13T11:22:28+02:00</time>
      </trkpt>
      <trkpt lat="45.28651" lon="5.83135">
        <ele>927</ele>
        <time>2022-10-13T11:24:01+02:00</time>
      </trkpt>
      <trkpt lat="45.28638" lon="5.83162">
        <ele>928</ele>
        <time>2022-10-13T11:24:21+02:00</time>
      </trkpt>
      <trkpt lat="45.28619" lon="5.83182">
        <ele>929</ele>
        <time>2022-10-13T11:24:46+02:00</time>
      </trkpt>
      <trkpt lat="45.28639" lon="5.83199">
        <ele>935</ele>
        <time>2022-10-13T11:25:22+02:00</time>
      </trkpt>
      <trkpt lat="45.2866" lon="5.83185">
        <ele>938</ele>
        <time>2022-10-13T11:25:39+02:00</time>
      </trkpt>
      <trkpt lat="45.28682" lon="5.83174">
        <ele>939</ele>
        <time>2022-10-13T11:26:02+02:00</time>
      </trkpt>
      <trkpt lat="45.28705" lon="5.83165">
        <ele>941</ele>
        <time>2022-10-13T11:26:20+02:00</time>
      </trkpt>
      <trkpt lat="45.28727" lon="5.83149">
        <ele>950</ele>
        <time>2022-10-13T11:26:41+02:00</time>
      </trkpt>
      <trkpt lat="45.28708" lon="5.83169">
        <ele>962</ele>
        <time>2022-10-13T11:27:43+02:00</time>
      </trkpt>
      <trkpt lat="45.28689" lon="5.83189">
        <ele>960</ele>
        <time>2022-10-13T11:28:04+02:00</time>
      </trkpt>
      <trkpt lat="45.28675" lon="5.83215">
        <ele>962</ele>
        <time>2022-10-13T11:28:26+02:00</time>
      </trkpt>
      <trkpt lat="45.28662" lon="5.83242">
        <ele>969</ele>
        <time>2022-10-13T11:28:47+02:00</time>
      </trkpt>
      <trkpt lat="45.28644" lon="5.83263">
        <ele>964</ele>
        <time>2022-10-13T11:29:08+02:00</time>
      </trkpt>
      <trkpt lat="45.28626" lon="5.83282">
        <ele>972</ele>
        <time>2022-10-13T11:29:25+02:00</time>
      </trkpt>
      <trkpt lat="45.28644" lon="5.83302">
        <ele>981</ele>
        <time>2022-10-13T11:30:07+02:00</time>
      </trkpt>
      <trkpt lat="45.28665" lon="5.83287">
        <ele>989</ele>
        <time>2022-10-13T11:30:36+02:00</time>
      </trkpt>
      <trkpt lat="45.28685" lon="5.83273">
        <ele>996</ele>
        <time>2022-10-13T11:30:55+02:00</time>
      </trkpt>
      <trkpt lat="45.28707" lon="5.83264">
        <ele>995</ele>
        <time>2022-10-13T11:31:15+02:00</time>
      </trkpt>
      <trkpt lat="45.28729" lon="5.83251">
        <ele>1005</ele>
        <time>2022-10-13T11:31:31+02:00</time>
      </trkpt>
      <trkpt lat="45.2875" lon="5.8324">
        <ele>1007</ele>
        <time>2022-10-13T11:31:51+02:00</time>
      </trkpt>
      <trkpt lat="45.28773" lon="5.8323">
        <ele>1005</ele>
        <time>2022-10-13T11:32:04+02:00</time>
      </trkpt>
      <trkpt lat="45.28792" lon="5.83209">
        <ele>1005</ele>
        <time>2022-10-13T11:32:19+02:00</time>
      </trkpt>
      <trkpt lat="45.28772" lon="5.83226">
        <ele>1018</ele>
        <time>2022-10-13T11:33:12+02:00</time>
      </trkpt>
      <trkpt lat="45.28752" lon="5.8324">
        <ele>1028</ele>
        <time>2022-10-13T11:33:38+02:00</time>
      </trkpt>
      <trkpt lat="45.28739" lon="5.83266">
        <ele>1022</ele>
        <time>2022-10-13T11:33:54+02:00</time>
      </trkpt>
      <trkpt lat="45.28722" lon="5.83291">
        <ele>1022</ele>
        <time>2022-10-13T11:34:13+02:00</time>
      </trkpt>
      <trkpt lat="45.2871" lon="5.83319">
        <ele>1025</ele>
        <time>2022-10-13T11:34:29+02:00</time>
      </trkpt>
      <trkpt lat="45.28691" lon="5.83337">
        <ele>1026</ele>
        <time>2022-10-13T11:34:50+02:00</time>
      </trkpt>
      <trkpt lat="45.28673" lon="5.83357">
        <ele>1034</ele>
        <time>2022-10-13T11:35:06+02:00</time>
      </trkpt>
      <trkpt lat="45.28688" lon="5.83381">
        <ele>1043</ele>
        <time>2022-10-13T11:35:34+02:00</time>
      </trkpt>
      <trkpt lat="45.28711" lon="5.83373">
        <ele>1044</ele>
        <time>2022-10-13T11:35:50+02:00</time>
      </trkpt>
      <trkpt lat="45.28733" lon="5.83359">
        <ele>1051</ele>
        <time>2022-10-13T11:36:13+02:00</time>
      </trkpt>
      <trkpt lat="45.28749" lon="5.83336">
        <ele>1060</ele>
        <time>2022-10-13T11:36:31+02:00</time>
      </trkpt>
      <trkpt lat="45.2877" lon="5.83326">
        <ele>1063</ele>
        <time>2022-10-13T11:36:58+02:00</time>
      </trkpt>
      <trkpt lat="45.28788" lon="5.83307">
        <ele>1060</ele>
        <time>2022-10-13T11:37:10+02:00</time>
      </trkpt>
      <trkpt lat="45.2881" lon="5.83294">
        <ele>1066</ele>
        <time>2022-10-13T11:37:25+02:00</time>
      </trkpt>
      <trkpt lat="45.28794" lon="5.83319">
        <ele>1070</ele>
        <time>2022-10-13T11:38:13+02:00</time>
      </trkpt>
      <trkpt lat="45.28781" lon="5.83347">
        <ele>1069</ele>
        <time>2022-10-13T11:38:32+02:00</time>
      </trkpt>
      <trkpt lat="45.28761" lon="5.83362">
        <ele>1079</ele>
        <time>2022-10-13T11:38:57+02:00</time>
      </trkpt>
      <trkpt lat="45.28749" lon="5.8339">
        <ele>1081</ele>
        <time>2022-10-13T11:39:18+02:00</time>
      </trkpt>
      <trkpt lat="45.28737" lon="5.83418">
        <ele>1084</ele>
        <time>2022-10-13T11:39:35+02:00</time>
      </trkpt>
      <trkpt lat="45.28759" lon="5.83424">
        <ele>1103</ele>
        <time>2022-10-13T11:40:58+02:00</time>
      </trkpt>
      <trkpt lat="45.28777" lon="5.83403">
        <ele>1108</ele>
        <time>2022-10-13T11:41:18+02:00</time>
      </trkpt>
      <trkpt lat="45.288" lon="5.83397">
        <ele>1113</ele>
        <time>2022-10-13T11:41:37+02:00</time>
      </trkpt>
      <trkpt lat="45.2882" lon="5.83382">
        <ele>1116</ele>
        <time>2022-10-13T11:41:55+02:00</time>
      </trkpt>
      <trkpt lat="45.28833" lon="5.83356">
        <ele>1115</ele>
        <time>2022-10-13T11:42:14+02:00</time>
      </trkpt>
      <trkpt lat="45.28821" lon="5.83384">
        <ele>1122</ele>
        <time>2022-10-13T11:42:52+02:00</time>
      </trkpt>
      <trkpt lat="45.28803" lon="5.83403">
        <ele>1124</ele>
        <time>2022-10-13T11:43:09+02:00</time>
      </trkpt>
      <trkpt lat="45.28826" lon="5.83404">
        <ele>1127</ele>
        <time>2022-10-13T11:44:06+02:00</time>
      </trkpt>
      <trkpt lat="45.28844" lon="5.83382">
        <ele>1130</ele>
        <time>2022-10-13T11:44:23+02:00</time>
      </trkpt>
      <trkpt lat="45.28827" lon="5.83406">
        <ele>1148</ele>
        <time>2022-10-13T11:45:42+02:00</time>
      </trkpt>
      <trkpt lat="45.28809" lon="5.83424">
        <ele>1154</ele>
        <time>2022-10-13T11:46:05+02:00</time>
      </trkpt>
      <trkpt lat="45.2883" lon="5.83436">
        <ele>1150</ele>
        <time>2022-10-13T11:47:09+02:00</time>
      </trkpt>
      <trkpt lat="45.28847" lon="5.83415">
        <ele>1166</ele>
        <time>2022-10-13T11:47:29+02:00</time>
      </trkpt>
      <trkpt lat="45.28869" lon="5.83406">
        <ele>1167</ele>
        <time>2022-10-13T11:47:51+02:00</time>
      </trkpt>
      <trkpt lat="45.28853" lon="5.83428">
        <ele>1177</ele>
        <time>2022-10-13T11:48:50+02:00</time>
      </trkpt>
      <trkpt lat="45.28841" lon="5.83457">
        <ele>1176</ele>
        <time>2022-10-13T11:49:08+02:00</time>
      </trkpt>
      <trkpt lat="45.28818" lon="5.83512">
        <ele>1187</ele>
        <time>2022-10-13T11:50:02+02:00</time>
      </trkpt>
      <trkpt lat="45.28839" lon="5.835">
        <ele>1193</ele>
        <time>2022-10-13T11:50:36+02:00</time>
      </trkpt>
      <trkpt lat="45.2886" lon="5.83487">
        <ele>1199</ele>
        <time>2022-10-13T11:50:57+02:00</time>
      </trkpt>
      <trkpt lat="45.2888" lon="5.8347">
        <ele>1201</ele>
        <time>2022-10-13T11:51:26+02:00</time>
      </trkpt>
      <trkpt lat="45.28904" lon="5.83462">
        <ele>1204</ele>
        <time>2022-10-13T11:51:41+02:00</time>
      </trkpt>
      <trkpt lat="45.28885" lon="5.83482">
        <ele>1217</ele>
        <time>2022-10-13T11:55:13+02:00</time>
      </trkpt>
      <trkpt lat="45.28874" lon="5.8351">
        <ele>1220</ele>
        <time>2022-10-13T11:55:31+02:00</time>
      </trkpt>
      <trkpt lat="45.28854" lon="5.8353">
        <ele>1228</ele>
        <time>2022-10-13T11:55:59+02:00</time>
      </trkpt>
      <trkpt lat="45.28835" lon="5.83547">
        <ele>1238</ele>
        <time>2022-10-13T11:56:20+02:00</time>
      </trkpt>
      <trkpt lat="45.28817" lon="5.83567">
        <ele>1248</ele>
        <time>2022-10-13T11:56:47+02:00</time>
      </trkpt>
      <trkpt lat="45.28812" lon="5.83599">
        <ele>1251</ele>
        <time>2022-10-13T11:57:05+02:00</time>
      </trkpt>
      <trkpt lat="45.28799" lon="5.83626">
        <ele>1250</ele>
        <time>2022-10-13T11:57:23+02:00</time>
      </trkpt>
      <trkpt lat="45.28786" lon="5.83653">
        <ele>1243</ele>
        <time>2022-10-13T11:57:41+02:00</time>
      </trkpt>
      <trkpt lat="45.2877" lon="5.83677">
        <ele>1251</ele>
        <time>2022-10-13T11:57:57+02:00</time>
      </trkpt>
      <trkpt lat="45.28752" lon="5.83698">
        <ele>1260</ele>
        <time>2022-10-13T11:58:18+02:00</time>
      </trkpt>
      <trkpt lat="45.28753" lon="5.83731">
        <ele>1253</ele>
        <time>2022-10-13T11:58:29+02:00</time>
      </trkpt>
      <trkpt lat="45.28758" lon="5.83762">
        <ele>1251</ele>
        <time>2022-10-13T11:58:39+02:00</time>
      </trkpt>
      <trkpt lat="45.28778" lon="5.83779">
        <ele>1262</ele>
        <time>2022-10-13T11:58:54+02:00</time>
      </trkpt>
      <trkpt lat="45.28802" lon="5.83785">
        <ele>1262</ele>
        <time>2022-10-13T11:59:04+02:00</time>
      </trkpt>
      <trkpt lat="45.28826" lon="5.83779">
        <ele>1258</ele>
        <time>2022-10-13T11:59:16+02:00</time>
      </trkpt>
      <trkpt lat="45.28849" lon="5.8378">
        <ele>1261</ele>
        <time>2022-10-13T11:59:27+02:00</time>
      </trkpt>
      <trkpt lat="45.28872" lon="5.83784">
        <ele>1260</ele>
        <time>2022-10-13T11:59:38+02:00</time>
      </trkpt>
      <trkpt lat="45.28894" lon="5.83788">
        <ele>1257</ele>
        <time>2022-10-13T11:59:46+02:00</time>
      </trkpt>
      <trkpt lat="45.28921" lon="5.83789">
        <ele>1254</ele>
        <time>2022-10-13T11:59:53+02:00</time>
      </trkpt>
      <trkpt lat="45.28945" lon="5.83788">
        <ele>1251</ele>
        <time>2022-10-13T11:59:57+02:00</time>
      </trkpt>
      <trkpt lat="45.28968" lon="5.83792">
        <ele>1255</ele>
        <time>2022-10-13T12:00:08+02:00</time>
      </trkpt>
      <trkpt lat="45.28987" lon="5.83811">
        <ele>1257</ele>
        <time>2022-10-13T12:00:25+02:00</time>
      </trkpt>
      <trkpt lat="45.29007" lon="5.83829">
        <ele>1254</ele>
        <time>2022-10-13T12:00:32+02:00</time>
      </trkpt>
      <trkpt lat="45.29032" lon="5.83842">
        <ele>1254</ele>
        <time>2022-10-13T12:00:37+02:00</time>
      </trkpt>
      <trkpt lat="45.29053" lon="5.83858">
        <ele>1253</ele>
        <time>2022-10-13T12:00:42+02:00</time>
      </trkpt>
      <trkpt lat="45.29075" lon="5.83869">
        <ele>1252</ele>
        <time>2022-10-13T12:00:47+02:00</time>
      </trkpt>
      <trkpt lat="45.29101" lon="5.83877">
        <ele>1251</ele>
        <time>2022-10-13T12:00:55+02:00</time>
      </trkpt>
      <trkpt lat="45.29121" lon="5.83893">
        <ele>1251</ele>
        <time>2022-10-13T12:01:16+02:00</time>
      </trkpt>
      <trkpt lat="45.29139" lon="5.83915">
        <ele>1250</ele>
        <time>2022-10-13T12:01:33+02:00</time>
      </trkpt>
      <trkpt lat="45.29156" lon="5.83941">
        <ele>1251</ele>
        <time>2022-10-13T12:01:45+02:00</time>
      </trkpt>
      <trkpt lat="45.29176" lon="5.83962">
        <ele>1248</ele>
        <time>2022-10-13T12:01:54+02:00</time>
      </trkpt>
      <trkpt lat="45.292" lon="5.83976">
        <ele>1251</ele>
        <time>2022-10-13T12:02:00+02:00</time>
      </trkpt>
      <trkpt lat="45.29221" lon="5.8399">
        <ele>1254</ele>
        <time>2022-10-13T12:02:07+02:00</time>
      </trkpt>
      <trkpt lat="45.29244" lon="5.84003">
        <ele>1250</ele>
        <time>2022-10-13T12:02:33+02:00</time>
      </trkpt>
      <trkpt lat="45.29267" lon="5.84016">
        <ele>1251</ele>
        <time>2022-10-13T12:02:41+02:00</time>
      </trkpt>
      <trkpt lat="45.29289" lon="5.84027">
        <ele>1250</ele>
        <time>2022-10-13T12:02:49+02:00</time>
      </trkpt>
      <trkpt lat="45.29312" lon="5.84035">
        <ele>1253</ele>
        <time>2022-10-13T12:03:03+02:00</time>
      </trkpt>
      <trkpt lat="45.29335" lon="5.8403">
        <ele>1249</ele>
        <time>2022-10-13T12:03:11+02:00</time>
      </trkpt>
      <trkpt lat="45.29357" lon="5.84022">
        <ele>1246</ele>
        <time>2022-10-13T12:03:26+02:00</time>
      </trkpt>
      <trkpt lat="45.29378" lon="5.84037">
        <ele>1248</ele>
        <time>2022-10-13T12:03:46+02:00</time>
      </trkpt>
      <trkpt lat="45.29401" lon="5.84034">
        <ele>1260</ele>
        <time>2022-10-13T12:04:11+02:00</time>
      </trkpt>
      <trkpt lat="45.29425" lon="5.84026">
        <ele>1266</ele>
        <time>2022-10-13T12:04:23+02:00</time>
      </trkpt>
      <trkpt lat="45.29448" lon="5.84012">
        <ele>1269</ele>
        <time>2022-10-13T12:04:31+02:00</time>
      </trkpt>
      <trkpt lat="45.29474" lon="5.84001">
        <ele>1267</ele>
        <time>2022-10-13T12:04:37+02:00</time>
      </trkpt>
      <trkpt lat="45.29495" lon="5.83991">
        <ele>1268</ele>
        <time>2022-10-13T12:04:44+02:00</time>
      </trkpt>
      <trkpt lat="45.29515" lon="5.84007">
        <ele>1263</ele>
        <time>2022-10-13T12:05:25+02:00</time>
      </trkpt>
      <trkpt lat="45.29535" lon="5.84026">
        <ele>1266</ele>
        <time>2022-10-13T12:05:35+02:00</time>
      </trkpt>
      <trkpt lat="45.29554" lon="5.84044">
        <ele>1264</ele>
        <time>2022-10-13T12:05:45+02:00</time>
      </trkpt>
      <trkpt lat="45.29574" lon="5.84066">
        <ele>1265</ele>
        <time>2022-10-13T12:05:54+02:00</time>
      </trkpt>
      <trkpt lat="45.29597" lon="5.84084">
        <ele>1265</ele>
        <time>2022-10-13T12:06:02+02:00</time>
      </trkpt>
      <trkpt lat="45.29622" lon="5.84104">
        <ele>1265</ele>
        <time>2022-10-13T12:06:07+02:00</time>
      </trkpt>
      <trkpt lat="45.29641" lon="5.84124">
        <ele>1266</ele>
        <time>2022-10-13T12:06:10+02:00</time>
      </trkpt>
      <trkpt lat="45.29665" lon="5.84123">
        <ele>1264</ele>
        <time>2022-10-13T12:06:18+02:00</time>
      </trkpt>
      <trkpt lat="45.29686" lon="5.84134">
        <ele>1261</ele>
        <time>2022-10-13T12:06:35+02:00</time>
      </trkpt>
      <trkpt lat="45.29704" lon="5.84153">
        <ele>1258</ele>
        <time>2022-10-13T12:06:53+02:00</time>
      </trkpt>
      <trkpt lat="45.29717" lon="5.84183">
        <ele>1255</ele>
        <time>2022-10-13T12:07:06+02:00</time>
      </trkpt>
      <trkpt lat="45.29729" lon="5.84213">
        <ele>1254</ele>
        <time>2022-10-13T12:07:14+02:00</time>
      </trkpt>
      <trkpt lat="45.29743" lon="5.84244">
        <ele>1255</ele>
        <time>2022-10-13T12:07:23+02:00</time>
      </trkpt>
      <trkpt lat="45.29763" lon="5.84267">
        <ele>1250</ele>
        <time>2022-10-13T12:07:39+02:00</time>
      </trkpt>
      <trkpt lat="45.29761" lon="5.84299">
        <ele>1248</ele>
        <time>2022-10-13T12:07:55+02:00</time>
      </trkpt>
      <trkpt lat="45.29743" lon="5.84321">
        <ele>1250</ele>
        <time>2022-10-13T12:08:15+02:00</time>
      </trkpt>
      <trkpt lat="45.29727" lon="5.84346">
        <ele>1254</ele>
        <time>2022-10-13T12:08:27+02:00</time>
      </trkpt>
      <trkpt lat="45.29714" lon="5.84373">
        <ele>1252</ele>
        <time>2022-10-13T12:08:40+02:00</time>
      </trkpt>
      <trkpt lat="45.29701" lon="5.84401">
        <ele>1256</ele>
        <time>2022-10-13T12:08:49+02:00</time>
      </trkpt>
      <trkpt lat="45.29682" lon="5.84419">
        <ele>1266</ele>
        <time>2022-10-13T12:08:59+02:00</time>
      </trkpt>
      <trkpt lat="45.29668" lon="5.84444">
        <ele>1270</ele>
        <time>2022-10-13T12:09:20+02:00</time>
      </trkpt>
      <trkpt lat="45.29658" lon="5.84475">
        <ele>1268</ele>
        <time>2022-10-13T12:09:32+02:00</time>
      </trkpt>
      <trkpt lat="45.29644" lon="5.84506">
        <ele>1265</ele>
        <time>2022-10-13T12:09:42+02:00</time>
      </trkpt>
      <trkpt lat="45.29665" lon="5.84521">
        <ele>1261</ele>
        <time>2022-10-13T12:09:56+02:00</time>
      </trkpt>
      <trkpt lat="45.29681" lon="5.84498">
        <ele>1268</ele>
        <time>2022-10-13T12:12:29+02:00</time>
      </trkpt>
      <trkpt lat="45.29701" lon="5.84479">
        <ele>1269</ele>
        <time>2022-10-13T12:12:47+02:00</time>
      </trkpt>
      <trkpt lat="45.29722" lon="5.8446">
        <ele>1272</ele>
        <time>2022-10-13T12:13:00+02:00</time>
      </trkpt>
      <trkpt lat="45.29742" lon="5.84444">
        <ele>1277</ele>
        <time>2022-10-13T12:13:13+02:00</time>
      </trkpt>
      <trkpt lat="45.29761" lon="5.84425">
        <ele>1278</ele>
        <time>2022-10-13T12:13:24+02:00</time>
      </trkpt>
      <trkpt lat="45.29781" lon="5.84405">
        <ele>1281</ele>
        <time>2022-10-13T12:13:33+02:00</time>
      </trkpt>
      <trkpt lat="45.298" lon="5.84387">
        <ele>1282</ele>
        <time>2022-10-13T12:13:43+02:00</time>
      </trkpt>
      <trkpt lat="45.29819" lon="5.8437">
        <ele>1282</ele>
        <time>2022-10-13T12:13:55+02:00</time>
      </trkpt>
      <trkpt lat="45.29839" lon="5.84351">
        <ele>1287</ele>
        <time>2022-10-13T12:14:07+02:00</time>
      </trkpt>
      <trkpt lat="45.29859" lon="5.84334">
        <ele>1292</ele>
        <time>2022-10-13T12:14:21+02:00</time>
      </trkpt>
      <trkpt lat="45.2988" lon="5.8432">
        <ele>1293</ele>
        <time>2022-10-13T12:14:34+02:00</time>
      </trkpt>
      <trkpt lat="45.299" lon="5.84303">
        <ele>1294</ele>
        <time>2022-10-13T12:14:46+02:00</time>
      </trkpt>
      <trkpt lat="45.29921" lon="5.84286">
        <ele>1297</ele>
        <time>2022-10-13T12:14:59+02:00</time>
      </trkpt>
      <trkpt lat="45.29941" lon="5.84268">
        <ele>1298</ele>
        <time>2022-10-13T12:15:12+02:00</time>
      </trkpt>
      <trkpt lat="45.2996" lon="5.84248">
        <ele>1300</ele>
        <time>2022-10-13T12:15:25+02:00</time>
      </trkpt>
      <trkpt lat="45.29981" lon="5.84232">
        <ele>1304</ele>
        <time>2022-10-13T12:15:38+02:00</time>
      </trkpt>
      <trkpt lat="45.30001" lon="5.84216">
        <ele>1304</ele>
        <time>2022-10-13T12:15:50+02:00</time>
      </trkpt>
      <trkpt lat="45.30022" lon="5.842">
        <ele>1315</ele>
        <time>2022-10-13T12:16:08+02:00</time>
      </trkpt>
      <trkpt lat="45.30034" lon="5.8417">
        <ele>1319</ele>
        <time>2022-10-13T12:16:24+02:00</time>
      </trkpt>
      <trkpt lat="45.30024" lon="5.84139">
        <ele>1333</ele>
        <time>2022-10-13T12:16:35+02:00</time>
      </trkpt>
      <trkpt lat="45.30009" lon="5.84114">
        <ele>1334</ele>
        <time>2022-10-13T12:16:45+02:00</time>
      </trkpt>
      <trkpt lat="45.2999" lon="5.84094">
        <ele>1330</ele>
        <time>2022-10-13T12:16:57+02:00</time>
      </trkpt>
      <trkpt lat="45.29968" lon="5.84081">
        <ele>1331</ele>
        <time>2022-10-13T12:17:12+02:00</time>
      </trkpt>
      <trkpt lat="45.2999" lon="5.84074">
        <ele>1334</ele>
        <time>2022-10-13T12:17:41+02:00</time>
      </trkpt>
      <trkpt lat="45.30014" lon="5.84083">
        <ele>1339</ele>
        <time>2022-10-13T12:17:52+02:00</time>
      </trkpt>
      <trkpt lat="45.30038" lon="5.84082">
        <ele>1338</ele>
        <time>2022-10-13T12:18:04+02:00</time>
      </trkpt>
      <trkpt lat="45.30063" lon="5.84081">
        <ele>1341</ele>
        <time>2022-10-13T12:18:13+02:00</time>
      </trkpt>
      <trkpt lat="45.30085" lon="5.84077">
        <ele>1345</ele>
        <time>2022-10-13T12:18:25+02:00</time>
      </trkpt>
      <trkpt lat="45.30108" lon="5.84075">
        <ele>1352</ele>
        <time>2022-10-13T12:18:44+02:00</time>
      </trkpt>
      <trkpt lat="45.30132" lon="5.84071">
        <ele>1356</ele>
        <time>2022-10-13T12:18:58+02:00</time>
      </trkpt>
      <trkpt lat="45.30155" lon="5.84065">
        <ele>1360</ele>
        <time>2022-10-13T12:19:09+02:00</time>
      </trkpt>
      <trkpt lat="45.30178" lon="5.84064">
        <ele>1365</ele>
        <time>2022-10-13T12:19:20+02:00</time>
      </trkpt>
      <trkpt lat="45.30198" lon="5.84081">
        <ele>1366</ele>
        <time>2022-10-13T12:19:32+02:00</time>
      </trkpt>
      <trkpt lat="45.30211" lon="5.84109">
        <ele>1365</ele>
        <time>2022-10-13T12:19:50+02:00</time>
      </trkpt>
      <trkpt lat="45.30222" lon="5.84079">
        <ele>1361</ele>
        <time>2022-10-13T12:20:15+02:00</time>
      </trkpt>
      <trkpt lat="45.30217" lon="5.84043">
        <ele>1366</ele>
        <time>2022-10-13T12:20:26+02:00</time>
      </trkpt>
      <trkpt lat="45.302" lon="5.83982">
        <ele>1370</ele>
        <time>2022-10-13T12:20:46+02:00</time>
      </trkpt>
      <trkpt lat="45.30179" lon="5.83968">
        <ele>1375</ele>
        <time>2022-10-13T12:20:55+02:00</time>
      </trkpt>
      <trkpt lat="45.30156" lon="5.8396">
        <ele>1375</ele>
        <time>2022-10-13T12:21:06+02:00</time>
      </trkpt>
      <trkpt lat="45.30134" lon="5.83955">
        <ele>1377</ele>
        <time>2022-10-13T12:21:17+02:00</time>
      </trkpt>
      <trkpt lat="45.30154" lon="5.83937">
        <ele>1379</ele>
        <time>2022-10-13T12:21:30+02:00</time>
      </trkpt>
      <trkpt lat="45.30177" lon="5.83936">
        <ele>1382</ele>
        <time>2022-10-13T12:21:42+02:00</time>
      </trkpt>
      <trkpt lat="45.30202" lon="5.83937">
        <ele>1386</ele>
        <time>2022-10-13T12:21:55+02:00</time>
      </trkpt>
      <trkpt lat="45.30225" lon="5.83944">
        <ele>1390</ele>
        <time>2022-10-13T12:22:08+02:00</time>
      </trkpt>
      <trkpt lat="45.30243" lon="5.83963">
        <ele>1394</ele>
        <time>2022-10-13T12:22:19+02:00</time>
      </trkpt>
      <trkpt lat="45.30263" lon="5.8398">
        <ele>1397</ele>
        <time>2022-10-13T12:22:30+02:00</time>
      </trkpt>
      <trkpt lat="45.30284" lon="5.83993">
        <ele>1397</ele>
        <time>2022-10-13T12:22:42+02:00</time>
      </trkpt>
      <trkpt lat="45.30306" lon="5.84009">
        <ele>1406</ele>
        <time>2022-10-13T12:22:57+02:00</time>
      </trkpt>
      <trkpt lat="45.30341" lon="5.8405">
        <ele>1408</ele>
        <time>2022-10-13T12:23:18+02:00</time>
      </trkpt>
      <trkpt lat="45.30351" lon="5.8402">
        <ele>1409</ele>
        <time>2022-10-13T12:23:31+02:00</time>
      </trkpt>
      <trkpt lat="45.30346" lon="5.83988">
        <ele>1408</ele>
        <time>2022-10-13T12:23:40+02:00</time>
      </trkpt>
      <trkpt lat="45.30334" lon="5.8396">
        <ele>1410</ele>
        <time>2022-10-13T12:23:53+02:00</time>
      </trkpt>
      <trkpt lat="45.30323" lon="5.83931">
        <ele>1411</ele>
        <time>2022-10-13T12:24:04+02:00</time>
      </trkpt>
      <trkpt lat="45.30346" lon="5.83923">
        <ele>1418</ele>
        <time>2022-10-13T12:24:20+02:00</time>
      </trkpt>
      <trkpt lat="45.30361" lon="5.8395">
        <ele>1425</ele>
        <time>2022-10-13T12:24:35+02:00</time>
      </trkpt>
      <trkpt lat="45.30394" lon="5.83995">
        <ele>1427</ele>
        <time>2022-10-13T12:24:54+02:00</time>
      </trkpt>
      <trkpt lat="45.30415" lon="5.8401">
        <ele>1430</ele>
        <time>2022-10-13T12:25:06+02:00</time>
      </trkpt>
      <trkpt lat="45.30437" lon="5.84019">
        <ele>1431</ele>
        <time>2022-10-13T12:25:15+02:00</time>
      </trkpt>
      <trkpt lat="45.3046" lon="5.84024">
        <ele>1433</ele>
        <time>2022-10-13T12:25:25+02:00</time>
      </trkpt>
      <trkpt lat="45.30481" lon="5.84036">
        <ele>1437</ele>
        <time>2022-10-13T12:25:35+02:00</time>
      </trkpt>
      <trkpt lat="45.30498" lon="5.8406">
        <ele>1436</ele>
        <time>2022-10-13T12:25:44+02:00</time>
      </trkpt>
      <trkpt lat="45.30516" lon="5.84083">
        <ele>1438</ele>
        <time>2022-10-13T12:25:58+02:00</time>
      </trkpt>
      <trkpt lat="45.30533" lon="5.84062">
        <ele>1436</ele>
        <time>2022-10-13T12:26:12+02:00</time>
      </trkpt>
      <trkpt lat="45.30532" lon="5.8403">
        <ele>1443</ele>
        <time>2022-10-13T12:26:22+02:00</time>
      </trkpt>
      <trkpt lat="45.30529" lon="5.83996">
        <ele>1445</ele>
        <time>2022-10-13T12:26:33+02:00</time>
      </trkpt>
      <trkpt lat="45.30519" lon="5.83963">
        <ele>1447</ele>
        <time>2022-10-13T12:26:44+02:00</time>
      </trkpt>
      <trkpt lat="45.30505" lon="5.83937">
        <ele>1452</ele>
        <time>2022-10-13T12:26:52+02:00</time>
      </trkpt>
      <trkpt lat="45.30487" lon="5.83918">
        <ele>1458</ele>
        <time>2022-10-13T12:27:01+02:00</time>
      </trkpt>
      <trkpt lat="45.30467" lon="5.83902">
        <ele>1459</ele>
        <time>2022-10-13T12:27:13+02:00</time>
      </trkpt>
      <trkpt lat="45.30448" lon="5.83882">
        <ele>1461</ele>
        <time>2022-10-13T12:27:24+02:00</time>
      </trkpt>
      <trkpt lat="45.30429" lon="5.8386">
        <ele>1459</ele>
        <time>2022-10-13T12:27:33+02:00</time>
      </trkpt>
      <trkpt lat="45.30416" lon="5.83832">
        <ele>1459</ele>
        <time>2022-10-13T12:27:45+02:00</time>
      </trkpt>
      <trkpt lat="45.30405" lon="5.83804">
        <ele>1460</ele>
        <time>2022-10-13T12:27:55+02:00</time>
      </trkpt>
      <trkpt lat="45.30387" lon="5.83783">
        <ele>1463</ele>
        <time>2022-10-13T12:28:05+02:00</time>
      </trkpt>
      <trkpt lat="45.30364" lon="5.83773">
        <ele>1463</ele>
        <time>2022-10-13T12:28:12+02:00</time>
      </trkpt>
      <trkpt lat="45.3034" lon="5.83766">
        <ele>1462</ele>
        <time>2022-10-13T12:28:22+02:00</time>
      </trkpt>
      <trkpt lat="45.30304" lon="5.83726">
        <ele>1463</ele>
        <time>2022-10-13T12:28:46+02:00</time>
      </trkpt>
      <trkpt lat="45.30285" lon="5.83704">
        <ele>1463</ele>
        <time>2022-10-13T12:28:56+02:00</time>
      </trkpt>
      <trkpt lat="45.30264" lon="5.83691">
        <ele>1466</ele>
        <time>2022-10-13T12:29:09+02:00</time>
      </trkpt>
      <trkpt lat="45.30263" lon="5.83659">
        <ele>1477</ele>
        <time>2022-10-13T12:29:24+02:00</time>
      </trkpt>
      <trkpt lat="45.3025" lon="5.83631">
        <ele>1483</ele>
        <time>2022-10-13T12:30:37+02:00</time>
      </trkpt>
      <trkpt lat="45.30252" lon="5.83597">
        <ele>1480</ele>
        <time>2022-10-13T12:30:52+02:00</time>
      </trkpt>
      <trkpt lat="45.30221" lon="5.83562">
        <ele>1475</ele>
        <time>2022-10-13T12:30:57+02:00</time>
      </trkpt>
      <trkpt lat="45.30203" lon="5.83539">
        <ele>1476</ele>
        <time>2022-10-13T12:31:00+02:00</time>
      </trkpt>
      <trkpt lat="45.30178" lon="5.83514">
        <ele>1470</ele>
        <time>2022-10-13T12:31:04+02:00</time>
      </trkpt>
      <trkpt lat="45.30171" lon="5.83481">
        <ele>1467</ele>
        <time>2022-10-13T12:31:07+02:00</time>
      </trkpt>
      <trkpt lat="45.30161" lon="5.83452">
        <ele>1462</ele>
        <time>2022-10-13T12:31:10+02:00</time>
      </trkpt>
      <trkpt lat="45.30159" lon="5.83416">
        <ele>1457</ele>
        <time>2022-10-13T12:31:14+02:00</time>
      </trkpt>
      <trkpt lat="45.30171" lon="5.83379">
        <ele>1455</ele>
        <time>2022-10-13T12:31:18+02:00</time>
      </trkpt>
      <trkpt lat="45.30176" lon="5.83341">
        <ele>1452</ele>
        <time>2022-10-13T12:31:22+02:00</time>
      </trkpt>
      <trkpt lat="45.30172" lon="5.83307">
        <ele>1450</ele>
        <time>2022-10-13T12:31:26+02:00</time>
      </trkpt>
      <trkpt lat="45.30181" lon="5.83275">
        <ele>1446</ele>
        <time>2022-10-13T12:31:34+02:00</time>
      </trkpt>
      <trkpt lat="45.30185" lon="5.83237">
        <ele>1445</ele>
        <time>2022-10-13T12:31:39+02:00</time>
      </trkpt>
      <trkpt lat="45.3018" lon="5.83204">
        <ele>1441</ele>
        <time>2022-10-13T12:31:48+02:00</time>
      </trkpt>
      <trkpt lat="45.30173" lon="5.83168">
        <ele>1443</ele>
        <time>2022-10-13T12:31:55+02:00</time>
      </trkpt>
      <trkpt lat="45.30193" lon="5.83152">
        <ele>1427</ele>
        <time>2022-10-13T12:32:43+02:00</time>
      </trkpt>
      <trkpt lat="45.30212" lon="5.83133">
        <ele>1423</ele>
        <time>2022-10-13T12:32:52+02:00</time>
      </trkpt>
      <trkpt lat="45.30238" lon="5.83138">
        <ele>1416</ele>
        <time>2022-10-13T12:32:58+02:00</time>
      </trkpt>
      <trkpt lat="45.3026" lon="5.83134">
        <ele>1408</ele>
        <time>2022-10-13T12:33:05+02:00</time>
      </trkpt>
      <trkpt lat="45.30277" lon="5.83111">
        <ele>1406</ele>
        <time>2022-10-13T12:33:10+02:00</time>
      </trkpt>
      <trkpt lat="45.30296" lon="5.83087">
        <ele>1400</ele>
        <time>2022-10-13T12:33:15+02:00</time>
      </trkpt>
      <trkpt lat="45.30315" lon="5.83066">
        <ele>1397</ele>
        <time>2022-10-13T12:33:21+02:00</time>
      </trkpt>
      <trkpt lat="45.30335" lon="5.83043">
        <ele>1394</ele>
        <time>2022-10-13T12:33:27+02:00</time>
      </trkpt>
      <trkpt lat="45.3035" lon="5.83015">
        <ele>1388</ele>
        <time>2022-10-13T12:33:34+02:00</time>
      </trkpt>
      <trkpt lat="45.30364" lon="5.82989">
        <ele>1383</ele>
        <time>2022-10-13T12:33:41+02:00</time>
      </trkpt>
      <trkpt lat="45.30379" lon="5.82965">
        <ele>1378</ele>
        <time>2022-10-13T12:33:48+02:00</time>
      </trkpt>
      <trkpt lat="45.30368" lon="5.82936">
        <ele>1375</ele>
        <time>2022-10-13T12:34:30+02:00</time>
      </trkpt>
      <trkpt lat="45.30354" lon="5.82902">
        <ele>1372</ele>
        <time>2022-10-13T12:34:36+02:00</time>
      </trkpt>
      <trkpt lat="45.30357" lon="5.82871">
        <ele>1375</ele>
        <time>2022-10-13T12:34:41+02:00</time>
      </trkpt>
      <trkpt lat="45.30358" lon="5.82838">
        <ele>1375</ele>
        <time>2022-10-13T12:35:06+02:00</time>
      </trkpt>
      <trkpt lat="45.30378" lon="5.82806">
        <ele>1366</ele>
        <time>2022-10-13T12:35:11+02:00</time>
      </trkpt>
      <trkpt lat="45.30396" lon="5.82775">
        <ele>1362</ele>
        <time>2022-10-13T12:35:15+02:00</time>
      </trkpt>
      <trkpt lat="45.30416" lon="5.82748">
        <ele>1360</ele>
        <time>2022-10-13T12:35:18+02:00</time>
      </trkpt>
      <trkpt lat="45.30431" lon="5.8272">
        <ele>1355</ele>
        <time>2022-10-13T12:35:21+02:00</time>
      </trkpt>
      <trkpt lat="45.3044" lon="5.82686">
        <ele>1354</ele>
        <time>2022-10-13T12:35:27+02:00</time>
      </trkpt>
      <trkpt lat="45.30427" lon="5.82656">
        <ele>1355</ele>
        <time>2022-10-13T12:35:34+02:00</time>
      </trkpt>
      <trkpt lat="45.30414" lon="5.82628">
        <ele>1356</ele>
        <time>2022-10-13T12:39:41+02:00</time>
      </trkpt>
      <trkpt lat="45.3041" lon="5.82595">
        <ele>1351</ele>
        <time>2022-10-13T12:39:53+02:00</time>
      </trkpt>
      <trkpt lat="45.30415" lon="5.82561">
        <ele>1348</ele>
        <time>2022-10-13T12:40:03+02:00</time>
      </trkpt>
      <trkpt lat="45.30423" lon="5.8253">
        <ele>1350</ele>
        <time>2022-10-13T12:40:15+02:00</time>
      </trkpt>
      <trkpt lat="45.30435" lon="5.82501">
        <ele>1360</ele>
        <time>2022-10-13T12:40:30+02:00</time>
      </trkpt>
      <trkpt lat="45.30425" lon="5.82471">
        <ele>1364</ele>
        <time>2022-10-13T12:40:44+02:00</time>
      </trkpt>
      <trkpt lat="45.30414" lon="5.82443">
        <ele>1369</ele>
        <time>2022-10-13T12:40:54+02:00</time>
      </trkpt>
      <trkpt lat="45.30407" lon="5.8241">
        <ele>1370</ele>
        <time>2022-10-13T12:41:12+02:00</time>
      </trkpt>
      <trkpt lat="45.304" lon="5.82378">
        <ele>1370</ele>
        <time>2022-10-13T12:41:24+02:00</time>
      </trkpt>
      <trkpt lat="45.30393" lon="5.82346">
        <ele>1371</ele>
        <time>2022-10-13T12:41:55+02:00</time>
      </trkpt>
      <trkpt lat="45.30376" lon="5.82325">
        <ele>1374</ele>
        <time>2022-10-13T12:42:04+02:00</time>
      </trkpt>
      <trkpt lat="45.30356" lon="5.82307">
        <ele>1370</ele>
        <time>2022-10-13T12:42:13+02:00</time>
      </trkpt>
      <trkpt lat="45.30338" lon="5.82285">
        <ele>1372</ele>
        <time>2022-10-13T12:42:24+02:00</time>
      </trkpt>
      <trkpt lat="45.30327" lon="5.82256">
        <ele>1377</ele>
        <time>2022-10-13T12:42:37+02:00</time>
      </trkpt>
      <trkpt lat="45.30309" lon="5.82233">
        <ele>1379</ele>
        <time>2022-10-13T12:42:50+02:00</time>
      </trkpt>
      <trkpt lat="45.30285" lon="5.82229">
        <ele>1384</ele>
        <time>2022-10-13T12:43:01+02:00</time>
      </trkpt>
      <trkpt lat="45.30263" lon="5.82241">
        <ele>1384</ele>
        <time>2022-10-13T12:43:11+02:00</time>
      </trkpt>
      <trkpt lat="45.3024" lon="5.82253">
        <ele>1383</ele>
        <time>2022-10-13T12:43:22+02:00</time>
      </trkpt>
      <trkpt lat="45.30217" lon="5.82259">
        <ele>1389</ele>
        <time>2022-10-13T12:43:34+02:00</time>
      </trkpt>
      <trkpt lat="45.30194" lon="5.82256">
        <ele>1392</ele>
        <time>2022-10-13T12:43:47+02:00</time>
      </trkpt>
      <trkpt lat="45.30172" lon="5.82243">
        <ele>1395</ele>
        <time>2022-10-13T12:43:59+02:00</time>
      </trkpt>
      <trkpt lat="45.30151" lon="5.8223">
        <ele>1397</ele>
        <time>2022-10-13T12:44:12+02:00</time>
      </trkpt>
      <trkpt lat="45.3013" lon="5.82219">
        <ele>1400</ele>
        <time>2022-10-13T12:44:23+02:00</time>
      </trkpt>
      <trkpt lat="45.30107" lon="5.82207">
        <ele>1402</ele>
        <time>2022-10-13T12:44:38+02:00</time>
      </trkpt>
      <trkpt lat="45.30086" lon="5.82192">
        <ele>1405</ele>
        <time>2022-10-13T12:44:53+02:00</time>
      </trkpt>
      <trkpt lat="45.30066" lon="5.82172">
        <ele>1402</ele>
        <time>2022-10-13T12:45:07+02:00</time>
      </trkpt>
      <trkpt lat="45.30044" lon="5.82161">
        <ele>1405</ele>
        <time>2022-10-13T12:45:23+02:00</time>
      </trkpt>
      <trkpt lat="45.3003" lon="5.82135">
        <ele>1410</ele>
        <time>2022-10-13T12:45:36+02:00</time>
      </trkpt>
      <trkpt lat="45.3002" lon="5.82106">
        <ele>1414</ele>
        <time>2022-10-13T12:45:50+02:00</time>
      </trkpt>
      <trkpt lat="45.30005" lon="5.82081">
        <ele>1415</ele>
        <time>2022-10-13T12:46:04+02:00</time>
      </trkpt>
      <trkpt lat="45.29983" lon="5.82067">
        <ele>1414</ele>
        <time>2022-10-13T12:46:15+02:00</time>
      </trkpt>
      <trkpt lat="45.29959" lon="5.82066">
        <ele>1420</ele>
        <time>2022-10-13T12:46:29+02:00</time>
      </trkpt>
      <trkpt lat="45.29937" lon="5.82071">
        <ele>1421</ele>
        <time>2022-10-13T12:46:40+02:00</time>
      </trkpt>
      <trkpt lat="45.29914" lon="5.82075">
        <ele>1425</ele>
        <time>2022-10-13T12:46:52+02:00</time>
      </trkpt>
      <trkpt lat="45.2989" lon="5.82081">
        <ele>1429</ele>
        <time>2022-10-13T12:47:03+02:00</time>
      </trkpt>
      <trkpt lat="45.29867" lon="5.82089">
        <ele>1429</ele>
        <time>2022-10-13T12:47:14+02:00</time>
      </trkpt>
      <trkpt lat="45.29844" lon="5.82088">
        <ele>1432</ele>
        <time>2022-10-13T12:47:27+02:00</time>
      </trkpt>
      <trkpt lat="45.29821" lon="5.82099">
        <ele>1437</ele>
        <time>2022-10-13T12:47:40+02:00</time>
      </trkpt>
      <trkpt lat="45.29797" lon="5.82106">
        <ele>1439</ele>
        <time>2022-10-13T12:47:52+02:00</time>
      </trkpt>
      <trkpt lat="45.29774" lon="5.82103">
        <ele>1443</ele>
        <time>2022-10-13T12:48:03+02:00</time>
      </trkpt>
      <trkpt lat="45.29751" lon="5.82094">
        <ele>1443</ele>
        <time>2022-10-13T12:48:15+02:00</time>
      </trkpt>
      <trkpt lat="45.29727" lon="5.82089">
        <ele>1441</ele>
        <time>2022-10-13T12:48:27+02:00</time>
      </trkpt>
      <trkpt lat="45.29703" lon="5.8209">
        <ele>1441</ele>
        <time>2022-10-13T12:48:35+02:00</time>
      </trkpt>
      <trkpt lat="45.29679" lon="5.82093">
        <ele>1446</ele>
        <time>2022-10-13T12:48:44+02:00</time>
      </trkpt>
      <trkpt lat="45.29655" lon="5.82086">
        <ele>1444</ele>
        <time>2022-10-13T12:48:53+02:00</time>
      </trkpt>
      <trkpt lat="45.29636" lon="5.82069">
        <ele>1450</ele>
        <time>2022-10-13T12:48:59+02:00</time>
      </trkpt>
      <trkpt lat="45.29611" lon="5.82074">
        <ele>1451</ele>
        <time>2022-10-13T12:49:08+02:00</time>
      </trkpt>
      <trkpt lat="45.29589" lon="5.82079">
        <ele>1451</ele>
        <time>2022-10-13T12:49:19+02:00</time>
      </trkpt>
      <trkpt lat="45.29568" lon="5.82065">
        <ele>1451</ele>
        <time>2022-10-13T12:49:28+02:00</time>
      </trkpt>
      <trkpt lat="45.29545" lon="5.82076">
        <ele>1451</ele>
        <time>2022-10-13T12:49:39+02:00</time>
      </trkpt>
      <trkpt lat="45.2952" lon="5.8208">
        <ele>1453</ele>
        <time>2022-10-13T12:49:47+02:00</time>
      </trkpt>
      <trkpt lat="45.29498" lon="5.82088">
        <ele>1456</ele>
        <time>2022-10-13T12:49:57+02:00</time>
      </trkpt>
      <trkpt lat="45.29475" lon="5.82091">
        <ele>1456</ele>
        <time>2022-10-13T12:50:09+02:00</time>
      </trkpt>
      <trkpt lat="45.29451" lon="5.82085">
        <ele>1456</ele>
        <time>2022-10-13T12:50:17+02:00</time>
      </trkpt>
      <trkpt lat="45.29428" lon="5.82077">
        <ele>1457</ele>
        <time>2022-10-13T12:50:26+02:00</time>
      </trkpt>
      <trkpt lat="45.29403" lon="5.82075">
        <ele>1459</ele>
        <time>2022-10-13T12:50:33+02:00</time>
      </trkpt>
      <trkpt lat="45.2938" lon="5.82073">
        <ele>1455</ele>
        <time>2022-10-13T12:50:39+02:00</time>
      </trkpt>
      <trkpt lat="45.29354" lon="5.82071">
        <ele>1463</ele>
        <time>2022-10-13T12:50:45+02:00</time>
      </trkpt>
      <trkpt lat="45.29332" lon="5.82059">
        <ele>1463</ele>
        <time>2022-10-13T12:50:50+02:00</time>
      </trkpt>
      <trkpt lat="45.29308" lon="5.82053">
        <ele>1464</ele>
        <time>2022-10-13T12:50:56+02:00</time>
      </trkpt>
      <trkpt lat="45.29286" lon="5.82062">
        <ele>1464</ele>
        <time>2022-10-13T12:51:05+02:00</time>
      </trkpt>
      <trkpt lat="45.29263" lon="5.82059">
        <ele>1462</ele>
        <time>2022-10-13T12:51:13+02:00</time>
      </trkpt>
      <trkpt lat="45.29237" lon="5.8206">
        <ele>1459</ele>
        <time>2022-10-13T12:51:22+02:00</time>
      </trkpt>
      <trkpt lat="45.29213" lon="5.82051">
        <ele>1462</ele>
        <time>2022-10-13T12:52:30+02:00</time>
      </trkpt>
      <trkpt lat="45.29188" lon="5.82047">
        <ele>1460</ele>
        <time>2022-10-13T12:52:34+02:00</time>
      </trkpt>
      <trkpt lat="45.29163" lon="5.82042">
        <ele>1459</ele>
        <time>2022-10-13T12:52:40+02:00</time>
      </trkpt>
      <trkpt lat="45.29135" lon="5.82037">
        <ele>1458</ele>
        <time>2022-10-13T12:52:45+02:00</time>
      </trkpt>
      <trkpt lat="45.29108" lon="5.82036">
        <ele>1457</ele>
        <time>2022-10-13T12:52:49+02:00</time>
      </trkpt>
      <trkpt lat="45.29086" lon="5.82018">
        <ele>1456</ele>
        <time>2022-10-13T12:52:53+02:00</time>
      </trkpt>
      <trkpt lat="45.29061" lon="5.82016">
        <ele>1456</ele>
        <time>2022-10-13T12:52:57+02:00</time>
      </trkpt>
      <trkpt lat="45.29044" lon="5.82038">
        <ele>1456</ele>
        <time>2022-10-13T12:53:02+02:00</time>
      </trkpt>
      <trkpt lat="45.29026" lon="5.82061">
        <ele>1455</ele>
        <time>2022-10-13T12:53:07+02:00</time>
      </trkpt>
      <trkpt lat="45.29004" lon="5.82076">
        <ele>1454</ele>
        <time>2022-10-13T12:53:11+02:00</time>
      </trkpt>
      <trkpt lat="45.28977" lon="5.8208">
        <ele>1449</ele>
        <time>2022-10-13T12:53:15+02:00</time>
      </trkpt>
      <trkpt lat="45.28956" lon="5.82057">
        <ele>1448</ele>
        <time>2022-10-13T12:53:19+02:00</time>
      </trkpt>
      <trkpt lat="45.28952" lon="5.82018">
        <ele>1448</ele>
        <time>2022-10-13T12:53:23+02:00</time>
      </trkpt>
      <trkpt lat="45.28935" lon="5.81991">
        <ele>1450</ele>
        <time>2022-10-13T12:53:26+02:00</time>
      </trkpt>
      <trkpt lat="45.28914" lon="5.81975">
        <ele>1452</ele>
        <time>2022-10-13T12:53:30+02:00</time>
      </trkpt>
      <trkpt lat="45.28888" lon="5.81968">
        <ele>1450</ele>
        <time>2022-10-13T12:53:33+02:00</time>
      </trkpt>
      <trkpt lat="45.28862" lon="5.81955">
        <ele>1449</ele>
        <time>2022-10-13T12:53:37+02:00</time>
      </trkpt>
      <trkpt lat="45.28838" lon="5.81946">
        <ele>1447</ele>
        <time>2022-10-13T12:53:42+02:00</time>
      </trkpt>
      <trkpt lat="45.28809" lon="5.81952">
        <ele>1446</ele>
        <time>2022-10-13T12:53:49+02:00</time>
      </trkpt>
      <trkpt lat="45.28784" lon="5.81967">
        <ele>1444</ele>
        <time>2022-10-13T12:53:55+02:00</time>
      </trkpt>
      <trkpt lat="45.28761" lon="5.81971">
        <ele>1444</ele>
        <time>2022-10-13T12:54:00+02:00</time>
      </trkpt>
      <trkpt lat="45.28736" lon="5.81959">
        <ele>1443</ele>
        <time>2022-10-13T12:54:06+02:00</time>
      </trkpt>
      <trkpt lat="45.28712" lon="5.81942">
        <ele>1445</ele>
        <time>2022-10-13T12:54:13+02:00</time>
      </trkpt>
      <trkpt lat="45.28693" lon="5.81921">
        <ele>1441</ele>
        <time>2022-10-13T12:54:18+02:00</time>
      </trkpt>
      <trkpt lat="45.28669" lon="5.81906">
        <ele>1441</ele>
        <time>2022-10-13T12:54:29+02:00</time>
      </trkpt>
      <trkpt lat="45.28648" lon="5.81896">
        <ele>1443</ele>
        <time>2022-10-13T12:54:34+02:00</time>
      </trkpt>
      <trkpt lat="45.28626" lon="5.81885">
        <ele>1442</ele>
        <time>2022-10-13T12:54:41+02:00</time>
      </trkpt>
      <trkpt lat="45.286" lon="5.81873">
        <ele>1437</ele>
        <time>2022-10-13T12:54:48+02:00</time>
      </trkpt>
      <trkpt lat="45.28573" lon="5.81859">
        <ele>1436</ele>
        <time>2022-10-13T12:54:53+02:00</time>
      </trkpt>
      <trkpt lat="45.28547" lon="5.81849">
        <ele>1435</ele>
        <time>2022-10-13T12:54:57+02:00</time>
      </trkpt>
      <trkpt lat="45.28523" lon="5.81843">
        <ele>1435</ele>
        <time>2022-10-13T12:55:00+02:00</time>
      </trkpt>
      <trkpt lat="45.28495" lon="5.81831">
        <ele>1433</ele>
        <time>2022-10-13T12:55:04+02:00</time>
      </trkpt>
      <trkpt lat="45.28472" lon="5.81816">
        <ele>1427</ele>
        <time>2022-10-13T12:55:09+02:00</time>
      </trkpt>
      <trkpt lat="45.28455" lon="5.81795">
        <ele>1426</ele>
        <time>2022-10-13T12:55:12+02:00</time>
      </trkpt>
      <trkpt lat="45.28433" lon="5.81775">
        <ele>1428</ele>
        <time>2022-10-13T12:55:15+02:00</time>
      </trkpt>
      <trkpt lat="45.28414" lon="5.81752">
        <ele>1429</ele>
        <time>2022-10-13T12:55:18+02:00</time>
      </trkpt>
      <trkpt lat="45.28392" lon="5.81736">
        <ele>1427</ele>
        <time>2022-10-13T12:55:21+02:00</time>
      </trkpt>
      <trkpt lat="45.2837" lon="5.81726">
        <ele>1427</ele>
        <time>2022-10-13T12:55:24+02:00</time>
      </trkpt>
      <trkpt lat="45.28348" lon="5.8171">
        <ele>1427</ele>
        <time>2022-10-13T12:55:29+02:00</time>
      </trkpt>
      <trkpt lat="45.28326" lon="5.81697">
        <ele>1426</ele>
        <time>2022-10-13T12:55:38+02:00</time>
      </trkpt>
      <trkpt lat="45.28305" lon="5.81682">
        <ele>1432</ele>
        <time>2022-10-13T12:55:44+02:00</time>
      </trkpt>
      <trkpt lat="45.28283" lon="5.81671">
        <ele>1427</ele>
        <time>2022-10-13T12:55:53+02:00</time>
      </trkpt>
      <trkpt lat="45.28264" lon="5.81652">
        <ele>1429</ele>
        <time>2022-10-13T12:56:01+02:00</time>
      </trkpt>
      <trkpt lat="45.28262" lon="5.81619">
        <ele>1423</ele>
        <time>2022-10-13T12:56:12+02:00</time>
      </trkpt>
      <trkpt lat="45.28269" lon="5.81588">
        <ele>1421</ele>
        <time>2022-10-13T12:56:20+02:00</time>
      </trkpt>
      <trkpt lat="45.28284" lon="5.81564">
        <ele>1420</ele>
        <time>2022-10-13T12:56:27+02:00</time>
      </trkpt>
      <trkpt lat="45.28304" lon="5.81543">
        <ele>1418</ele>
        <time>2022-10-13T12:56:36+02:00</time>
      </trkpt>
      <trkpt lat="45.28297" lon="5.8151">
        <ele>1419</ele>
        <time>2022-10-13T12:56:47+02:00</time>
      </trkpt>
      <trkpt lat="45.28302" lon="5.81479">
        <ele>1421</ele>
        <time>2022-10-13T12:56:58+02:00</time>
      </trkpt>
      <trkpt lat="45.28324" lon="5.81468">
        <ele>1420</ele>
        <time>2022-10-13T12:57:08+02:00</time>
      </trkpt>
      <trkpt lat="45.28347" lon="5.81462">
        <ele>1427</ele>
        <time>2022-10-13T12:57:22+02:00</time>
      </trkpt>
      <trkpt lat="45.28364" lon="5.81439">
        <ele>1429</ele>
        <time>2022-10-13T12:57:32+02:00</time>
      </trkpt>
      <trkpt lat="45.28384" lon="5.81381">
        <ele>1436</ele>
        <time>2022-10-13T12:57:57+02:00</time>
      </trkpt>
      <trkpt lat="45.2839" lon="5.81349">
        <ele>1447</ele>
        <time>2022-10-13T12:58:13+02:00</time>
      </trkpt>
      <trkpt lat="45.28404" lon="5.81323">
        <ele>1443</ele>
        <time>2022-10-13T12:58:26+02:00</time>
      </trkpt>
      <trkpt lat="45.28416" lon="5.81294">
        <ele>1443</ele>
        <time>2022-10-13T12:58:40+02:00</time>
      </trkpt>
      <trkpt lat="45.28419" lon="5.81262">
        <ele>1444</ele>
        <time>2022-10-13T12:58:54+02:00</time>
      </trkpt>
      <trkpt lat="45.28426" lon="5.81229">
        <ele>1443</ele>
        <time>2022-10-13T12:59:02+02:00</time>
      </trkpt>
      <trkpt lat="45.28436" lon="5.81199">
        <ele>1445</ele>
        <time>2022-10-13T12:59:16+02:00</time>
      </trkpt>
      <trkpt lat="45.28435" lon="5.81166">
        <ele>1448</ele>
        <time>2022-10-13T12:59:36+02:00</time>
      </trkpt>
      <trkpt lat="45.28414" lon="5.81151">
        <ele>1457</ele>
        <time>2022-10-13T12:59:55+02:00</time>
      </trkpt>
      <trkpt lat="45.28393" lon="5.81137">
        <ele>1460</ele>
        <time>2022-10-13T13:00:12+02:00</time>
      </trkpt>
      <trkpt lat="45.28372" lon="5.81125">
        <ele>1464</ele>
        <time>2022-10-13T13:00:26+02:00</time>
      </trkpt>
      <trkpt lat="45.28348" lon="5.81125">
        <ele>1467</ele>
        <time>2022-10-13T13:00:39+02:00</time>
      </trkpt>
      <trkpt lat="45.28325" lon="5.81126">
        <ele>1470</ele>
        <time>2022-10-13T13:00:49+02:00</time>
      </trkpt>
      <trkpt lat="45.28303" lon="5.81123">
        <ele>1468</ele>
        <time>2022-10-13T13:01:00+02:00</time>
      </trkpt>
      <trkpt lat="45.28281" lon="5.81111">
        <ele>1467</ele>
        <time>2022-10-13T13:01:21+02:00</time>
      </trkpt>
      <trkpt lat="45.28258" lon="5.81096">
        <ele>1467</ele>
        <time>2022-10-13T13:01:34+02:00</time>
      </trkpt>
      <trkpt lat="45.28237" lon="5.81082">
        <ele>1469</ele>
        <time>2022-10-13T13:01:43+02:00</time>
      </trkpt>
      <trkpt lat="45.28216" lon="5.81067">
        <ele>1470</ele>
        <time>2022-10-13T13:01:53+02:00</time>
      </trkpt>
      <trkpt lat="45.28197" lon="5.81051">
        <ele>1474</ele>
        <time>2022-10-13T13:02:03+02:00</time>
      </trkpt>
      <trkpt lat="45.28177" lon="5.81033">
        <ele>1476</ele>
        <time>2022-10-13T13:02:13+02:00</time>
      </trkpt>
      <trkpt lat="45.28156" lon="5.8102">
        <ele>1479</ele>
        <time>2022-10-13T13:02:30+02:00</time>
      </trkpt>
      <trkpt lat="45.28151" lon="5.80984">
        <ele>1474</ele>
        <time>2022-10-13T13:20:36+02:00</time>
      </trkpt>
      <trkpt lat="45.28149" lon="5.80943">
        <ele>1470</ele>
        <time>2022-10-13T13:20:40+02:00</time>
      </trkpt>
      <trkpt lat="45.28136" lon="5.80913">
        <ele>1464</ele>
        <time>2022-10-13T13:20:43+02:00</time>
      </trkpt>
      <trkpt lat="45.28116" lon="5.80887">
        <ele>1458</ele>
        <time>2022-10-13T13:20:48+02:00</time>
      </trkpt>
      <trkpt lat="45.28095" lon="5.80863">
        <ele>1452</ele>
        <time>2022-10-13T13:20:52+02:00</time>
      </trkpt>
      <trkpt lat="45.28072" lon="5.80844">
        <ele>1448</ele>
        <time>2022-10-13T13:20:55+02:00</time>
      </trkpt>
      <trkpt lat="45.28046" lon="5.80829">
        <ele>1443</ele>
        <time>2022-10-13T13:20:58+02:00</time>
      </trkpt>
      <trkpt lat="45.28024" lon="5.80809">
        <ele>1443</ele>
        <time>2022-10-13T13:21:01+02:00</time>
      </trkpt>
      <trkpt lat="45.27999" lon="5.80795">
        <ele>1440</ele>
        <time>2022-10-13T13:21:05+02:00</time>
      </trkpt>
      <trkpt lat="45.27977" lon="5.80782">
        <ele>1442</ele>
        <time>2022-10-13T13:21:11+02:00</time>
      </trkpt>
      <trkpt lat="45.27952" lon="5.80763">
        <ele>1444</ele>
        <time>2022-10-13T13:21:20+02:00</time>
      </trkpt>
      <trkpt lat="45.27931" lon="5.80753">
        <ele>1432</ele>
        <time>2022-10-13T13:21:24+02:00</time>
      </trkpt>
      <trkpt lat="45.27911" lon="5.80728">
        <ele>1428</ele>
        <time>2022-10-13T13:21:30+02:00</time>
      </trkpt>
      <trkpt lat="45.27892" lon="5.80705">
        <ele>1423</ele>
        <time>2022-10-13T13:21:38+02:00</time>
      </trkpt>
      <trkpt lat="45.27877" lon="5.80681">
        <ele>1419</ele>
        <time>2022-10-13T13:21:42+02:00</time>
      </trkpt>
      <trkpt lat="45.27854" lon="5.80664">
        <ele>1416</ele>
        <time>2022-10-13T13:21:49+02:00</time>
      </trkpt>
      <trkpt lat="45.27837" lon="5.80643">
        <ele>1411</ele>
        <time>2022-10-13T13:21:58+02:00</time>
      </trkpt>
      <trkpt lat="45.27824" lon="5.80611">
        <ele>1409</ele>
        <time>2022-10-13T13:22:07+02:00</time>
      </trkpt>
      <trkpt lat="45.27804" lon="5.8059">
        <ele>1405</ele>
        <time>2022-10-13T13:22:12+02:00</time>
      </trkpt>
      <trkpt lat="45.27787" lon="5.8057">
        <ele>1403</ele>
        <time>2022-10-13T13:22:19+02:00</time>
      </trkpt>
      <trkpt lat="45.27764" lon="5.8056">
        <ele>1396</ele>
        <time>2022-10-13T13:22:23+02:00</time>
      </trkpt>
      <trkpt lat="45.27805" lon="5.8059">
        <ele>1392</ele>
        <time>2022-10-13T13:22:30+02:00</time>
      </trkpt>
      <trkpt lat="45.27784" lon="5.80563">
        <ele>1391</ele>
        <time>2022-10-13T13:22:32+02:00</time>
      </trkpt>
      <trkpt lat="45.27726" lon="5.80528">
        <ele>1399</ele>
        <time>2022-10-13T13:22:33+02:00</time>
      </trkpt>
      <trkpt lat="45.277" lon="5.80528">
        <ele>1392</ele>
        <time>2022-10-13T13:22:39+02:00</time>
      </trkpt>
      <trkpt lat="45.27675" lon="5.80525">
        <ele>1388</ele>
        <time>2022-10-13T13:22:45+02:00</time>
      </trkpt>
      <trkpt lat="45.27651" lon="5.80519">
        <ele>1383</ele>
        <time>2022-10-13T13:22:52+02:00</time>
      </trkpt>
      <trkpt lat="45.27629" lon="5.80507">
        <ele>1381</ele>
        <time>2022-10-13T13:22:55+02:00</time>
      </trkpt>
      <trkpt lat="45.27609" lon="5.80488">
        <ele>1381</ele>
        <time>2022-10-13T13:23:00+02:00</time>
      </trkpt>
      <trkpt lat="45.27587" lon="5.80479">
        <ele>1379</ele>
        <time>2022-10-13T13:24:15+02:00</time>
      </trkpt>
      <trkpt lat="45.27576" lon="5.80451">
        <ele>1371</ele>
        <time>2022-10-13T13:25:23+02:00</time>
      </trkpt>
      <trkpt lat="45.27557" lon="5.80429">
        <ele>1367</ele>
        <time>2022-10-13T13:25:31+02:00</time>
      </trkpt>
      <trkpt lat="45.27545" lon="5.804">
        <ele>1366</ele>
        <time>2022-10-13T13:25:37+02:00</time>
      </trkpt>
      <trkpt lat="45.27524" lon="5.80377">
        <ele>1361</ele>
        <time>2022-10-13T13:25:43+02:00</time>
      </trkpt>
      <trkpt lat="45.27507" lon="5.80354">
        <ele>1362</ele>
        <time>2022-10-13T13:25:49+02:00</time>
      </trkpt>
      <trkpt lat="45.27491" lon="5.80377">
        <ele>1351</ele>
        <time>2022-10-13T13:30:52+02:00</time>
      </trkpt>
      <trkpt lat="45.2747" lon="5.8039">
        <ele>1348</ele>
        <time>2022-10-13T13:31:04+02:00</time>
      </trkpt>
      <trkpt lat="45.27446" lon="5.80387">
        <ele>1332</ele>
        <time>2022-10-13T13:31:20+02:00</time>
      </trkpt>
      <trkpt lat="45.27423" lon="5.80375">
        <ele>1326</ele>
        <time>2022-10-13T13:31:26+02:00</time>
      </trkpt>
      <trkpt lat="45.274" lon="5.80361">
        <ele>1318</ele>
        <time>2022-10-13T13:31:31+02:00</time>
      </trkpt>
      <trkpt lat="45.27381" lon="5.80343">
        <ele>1315</ele>
        <time>2022-10-13T13:31:35+02:00</time>
      </trkpt>
      <trkpt lat="45.27363" lon="5.80315">
        <ele>1315</ele>
        <time>2022-10-13T13:31:39+02:00</time>
      </trkpt>
      <trkpt lat="45.27339" lon="5.80302">
        <ele>1304</ele>
        <time>2022-10-13T13:31:44+02:00</time>
      </trkpt>
      <trkpt lat="45.27317" lon="5.8029">
        <ele>1300</ele>
        <time>2022-10-13T13:31:54+02:00</time>
      </trkpt>
      <trkpt lat="45.27289" lon="5.80295">
        <ele>1297</ele>
        <time>2022-10-13T13:31:57+02:00</time>
      </trkpt>
      <trkpt lat="45.27267" lon="5.80288">
        <ele>1280</ele>
        <time>2022-10-13T13:32:04+02:00</time>
      </trkpt>
      <trkpt lat="45.27256" lon="5.80261">
        <ele>1270</ele>
        <time>2022-10-13T13:32:12+02:00</time>
      </trkpt>
      <trkpt lat="45.27251" lon="5.80217">
        <ele>1256</ele>
        <time>2022-10-13T13:32:22+02:00</time>
      </trkpt>
      <trkpt lat="45.27247" lon="5.80183">
        <ele>1251</ele>
        <time>2022-10-13T13:32:31+02:00</time>
      </trkpt>
      <trkpt lat="45.27248" lon="5.80148">
        <ele>1242</ele>
        <time>2022-10-13T13:32:37+02:00</time>
      </trkpt>
      <trkpt lat="45.27223" lon="5.80138">
        <ele>1236</ele>
        <time>2022-10-13T13:32:41+02:00</time>
      </trkpt>
      <trkpt lat="45.27201" lon="5.80154">
        <ele>1225</ele>
        <time>2022-10-13T13:32:47+02:00</time>
      </trkpt>
      <trkpt lat="45.27191" lon="5.8012">
        <ele>1222</ele>
        <time>2022-10-13T13:32:54+02:00</time>
      </trkpt>
      <trkpt lat="45.27188" lon="5.80083">
        <ele>1217</ele>
        <time>2022-10-13T13:33:00+02:00</time>
      </trkpt>
      <trkpt lat="45.27178" lon="5.80053">
        <ele>1207</ele>
        <time>2022-10-13T13:33:04+02:00</time>
      </trkpt>
      <trkpt lat="45.27167" lon="5.80017">
        <ele>1203</ele>
        <time>2022-10-13T13:33:10+02:00</time>
      </trkpt>
      <trkpt lat="45.27149" lon="5.79996">
        <ele>1197</ele>
        <time>2022-10-13T13:33:15+02:00</time>
      </trkpt>
      <trkpt lat="45.27126" lon="5.79989">
        <ele>1190</ele>
        <time>2022-10-13T13:33:20+02:00</time>
      </trkpt>
      <trkpt lat="45.2712" lon="5.79955">
        <ele>1176</ele>
        <time>2022-10-13T13:33:35+02:00</time>
      </trkpt>
      <trkpt lat="45.27106" lon="5.7993">
        <ele>1170</ele>
        <time>2022-10-13T13:33:45+02:00</time>
      </trkpt>
      <trkpt lat="45.27092" lon="5.79905">
        <ele>1165</ele>
        <time>2022-10-13T13:34:23+02:00</time>
      </trkpt>
      <trkpt lat="45.27071" lon="5.79886">
        <ele>1160</ele>
        <time>2022-10-13T13:34:41+02:00</time>
      </trkpt>
      <trkpt lat="45.27045" lon="5.79867">
        <ele>1155</ele>
        <time>2022-10-13T13:34:44+02:00</time>
      </trkpt>
      <trkpt lat="45.27019" lon="5.79841">
        <ele>1154</ele>
        <time>2022-10-13T13:34:47+02:00</time>
      </trkpt>
      <trkpt lat="45.27001" lon="5.79821">
        <ele>1152</ele>
        <time>2022-10-13T13:34:49+02:00</time>
      </trkpt>
      <trkpt lat="45.26983" lon="5.79799">
        <ele>1148</ele>
        <time>2022-10-13T13:34:51+02:00</time>
      </trkpt>
      <trkpt lat="45.26966" lon="5.79774">
        <ele>1145</ele>
        <time>2022-10-13T13:34:53+02:00</time>
      </trkpt>
      <trkpt lat="45.26948" lon="5.79754">
        <ele>1142</ele>
        <time>2022-10-13T13:34:56+02:00</time>
      </trkpt>
      <trkpt lat="45.26918" lon="5.79736">
        <ele>1141</ele>
        <time>2022-10-13T13:34:59+02:00</time>
      </trkpt>
      <trkpt lat="45.26896" lon="5.79715">
        <ele>1142</ele>
        <time>2022-10-13T13:35:01+02:00</time>
      </trkpt>
      <trkpt lat="45.26876" lon="5.79692">
        <ele>1137</ele>
        <time>2022-10-13T13:35:05+02:00</time>
      </trkpt>
      <trkpt lat="45.26861" lon="5.79667">
        <ele>1133</ele>
        <time>2022-10-13T13:35:08+02:00</time>
      </trkpt>
      <trkpt lat="45.26845" lon="5.79636">
        <ele>1133</ele>
        <time>2022-10-13T13:35:11+02:00</time>
      </trkpt>
      <trkpt lat="45.26825" lon="5.79607">
        <ele>1131</ele>
        <time>2022-10-13T13:35:14+02:00</time>
      </trkpt>
      <trkpt lat="45.26799" lon="5.79591">
        <ele>1128</ele>
        <time>2022-10-13T13:35:17+02:00</time>
      </trkpt>
      <trkpt lat="45.26769" lon="5.79581">
        <ele>1127</ele>
        <time>2022-10-13T13:35:20+02:00</time>
      </trkpt>
      <trkpt lat="45.26742" lon="5.79563">
        <ele>1124</ele>
        <time>2022-10-13T13:35:23+02:00</time>
      </trkpt>
      <trkpt lat="45.26713" lon="5.79547">
        <ele>1125</ele>
        <time>2022-10-13T13:35:26+02:00</time>
      </trkpt>
      <trkpt lat="45.26688" lon="5.79524">
        <ele>1125</ele>
        <time>2022-10-13T13:35:29+02:00</time>
      </trkpt>
      <trkpt lat="45.26668" lon="5.79491">
        <ele>1122</ele>
        <time>2022-10-13T13:35:32+02:00</time>
      </trkpt>
      <trkpt lat="45.26645" lon="5.79455">
        <ele>1119</ele>
        <time>2022-10-13T13:35:35+02:00</time>
      </trkpt>
      <trkpt lat="45.2663" lon="5.7943">
        <ele>1117</ele>
        <time>2022-10-13T13:35:37+02:00</time>
      </trkpt>
      <trkpt lat="45.26614" lon="5.79404">
        <ele>1113</ele>
        <time>2022-10-13T13:35:39+02:00</time>
      </trkpt>
      <trkpt lat="45.26598" lon="5.79379">
        <ele>1113</ele>
        <time>2022-10-13T13:35:41+02:00</time>
      </trkpt>
      <trkpt lat="45.26572" lon="5.79355">
        <ele>1110</ele>
        <time>2022-10-13T13:35:44+02:00</time>
      </trkpt>
      <trkpt lat="45.26546" lon="5.79327">
        <ele>1108</ele>
        <time>2022-10-13T13:35:47+02:00</time>
      </trkpt>
      <trkpt lat="45.26523" lon="5.79303">
        <ele>1106</ele>
        <time>2022-10-13T13:35:50+02:00</time>
      </trkpt>
      <trkpt lat="45.265" lon="5.79278">
        <ele>1104</ele>
        <time>2022-10-13T13:35:53+02:00</time>
      </trkpt>
      <trkpt lat="45.2648" lon="5.79253">
        <ele>1103</ele>
        <time>2022-10-13T13:35:56+02:00</time>
      </trkpt>
      <trkpt lat="45.26458" lon="5.79231">
        <ele>1102</ele>
        <time>2022-10-13T13:35:59+02:00</time>
      </trkpt>
      <trkpt lat="45.26439" lon="5.79209">
        <ele>1097</ele>
        <time>2022-10-13T13:36:02+02:00</time>
      </trkpt>
      <trkpt lat="45.26419" lon="5.79188">
        <ele>1091</ele>
        <time>2022-10-13T13:36:05+02:00</time>
      </trkpt>
      <trkpt lat="45.26397" lon="5.79168">
        <ele>1089</ele>
        <time>2022-10-13T13:36:08+02:00</time>
      </trkpt>
      <trkpt lat="45.26376" lon="5.79144">
        <ele>1088</ele>
        <time>2022-10-13T13:36:11+02:00</time>
      </trkpt>
      <trkpt lat="45.26358" lon="5.79114">
        <ele>1086</ele>
        <time>2022-10-13T13:36:14+02:00</time>
      </trkpt>
      <trkpt lat="45.26343" lon="5.79086">
        <ele>1087</ele>
        <time>2022-10-13T13:36:17+02:00</time>
      </trkpt>
      <trkpt lat="45.26322" lon="5.79066">
        <ele>1085</ele>
        <time>2022-10-13T13:36:21+02:00</time>
      </trkpt>
      <trkpt lat="45.26311" lon="5.79037">
        <ele>1082</ele>
        <time>2022-10-13T13:36:28+02:00</time>
      </trkpt>
      <trkpt lat="45.26301" lon="5.79009">
        <ele>1085</ele>
        <time>2022-10-13T13:36:40+02:00</time>
      </trkpt>
      <trkpt lat="45.26287" lon="5.78982">
        <ele>1090</ele>
        <time>2022-10-13T13:36:55+02:00</time>
      </trkpt>
      <trkpt lat="45.26274" lon="5.78956">
        <ele>1093</ele>
        <time>2022-10-13T13:37:09+02:00</time>
      </trkpt>
      <trkpt lat="45.26254" lon="5.7894">
        <ele>1101</ele>
        <time>2022-10-13T13:37:55+02:00</time>
      </trkpt>
      <trkpt lat="45.26261" lon="5.78908">
        <ele>1110</ele>
        <time>2022-10-13T13:38:28+02:00</time>
      </trkpt>
      <trkpt lat="45.26266" lon="5.78876">
        <ele>1112</ele>
        <time>2022-10-13T13:39:00+02:00</time>
      </trkpt>
      <trkpt lat="45.26271" lon="5.78845">
        <ele>1114</ele>
        <time>2022-10-13T13:39:16+02:00</time>
      </trkpt>
      <trkpt lat="45.26274" lon="5.78811">
        <ele>1119</ele>
        <time>2022-10-13T13:39:28+02:00</time>
      </trkpt>
      <trkpt lat="45.26282" lon="5.78781">
        <ele>1120</ele>
        <time>2022-10-13T13:39:36+02:00</time>
      </trkpt>
      <trkpt lat="45.26288" lon="5.78749">
        <ele>1126</ele>
        <time>2022-10-13T13:39:49+02:00</time>
      </trkpt>
      <trkpt lat="45.26289" lon="5.78716">
        <ele>1139</ele>
        <time>2022-10-13T13:40:18+02:00</time>
      </trkpt>
      <trkpt lat="45.26287" lon="5.78684">
        <ele>1140</ele>
        <time>2022-10-13T13:40:34+02:00</time>
      </trkpt>
      <trkpt lat="45.26306" lon="5.78706">
        <ele>1135</ele>
        <time>2022-10-13T13:41:55+02:00</time>
      </trkpt>
      <trkpt lat="45.2632" lon="5.78732">
        <ele>1142</ele>
        <time>2022-10-13T13:42:15+02:00</time>
      </trkpt>
      <trkpt lat="45.26356" lon="5.78772">
        <ele>1153</ele>
        <time>2022-10-13T13:43:03+02:00</time>
      </trkpt>
      <trkpt lat="45.26371" lon="5.78796">
        <ele>1160</ele>
        <time>2022-10-13T13:43:30+02:00</time>
      </trkpt>
      <trkpt lat="45.26395" lon="5.78792">
        <ele>1161</ele>
        <time>2022-10-13T13:44:15+02:00</time>
      </trkpt>
      <trkpt lat="45.26413" lon="5.78772">
        <ele>1163</ele>
        <time>2022-10-13T13:44:33+02:00</time>
      </trkpt>
      <trkpt lat="45.26432" lon="5.78754">
        <ele>1164</ele>
        <time>2022-10-13T13:44:50+02:00</time>
      </trkpt>
      <trkpt lat="45.2645" lon="5.78734">
        <ele>1169</ele>
        <time>2022-10-13T13:45:06+02:00</time>
      </trkpt>
      <trkpt lat="45.26473" lon="5.78732">
        <ele>1173</ele>
        <time>2022-10-13T13:45:27+02:00</time>
      </trkpt>
      <trkpt lat="45.26496" lon="5.78726">
        <ele>1179</ele>
        <time>2022-10-13T13:45:46+02:00</time>
      </trkpt>
      <trkpt lat="45.2651" lon="5.787">
        <ele>1184</ele>
        <time>2022-10-13T13:46:04+02:00</time>
      </trkpt>
      <trkpt lat="45.26535" lon="5.78646">
        <ele>1186</ele>
        <time>2022-10-13T13:46:31+02:00</time>
      </trkpt>
      <trkpt lat="45.26541" lon="5.78614">
        <ele>1186</ele>
        <time>2022-10-13T13:46:43+02:00</time>
      </trkpt>
      <trkpt lat="45.26552" lon="5.78642">
        <ele>1183</ele>
        <time>2022-10-13T13:55:42+02:00</time>
      </trkpt>
      <trkpt lat="45.26561" lon="5.78672">
        <ele>1188</ele>
        <time>2022-10-13T13:56:02+02:00</time>
      </trkpt>
      <trkpt lat="45.26585" lon="5.78727">
        <ele>1191</ele>
        <time>2022-10-13T13:56:34+02:00</time>
      </trkpt>
      <trkpt lat="45.26592" lon="5.78757">
        <ele>1194</ele>
        <time>2022-10-13T13:56:53+02:00</time>
      </trkpt>
      <trkpt lat="45.26603" lon="5.78786">
        <ele>1195</ele>
        <time>2022-10-13T13:57:08+02:00</time>
      </trkpt>
      <trkpt lat="45.26619" lon="5.7881">
        <ele>1198</ele>
        <time>2022-10-13T13:57:29+02:00</time>
      </trkpt>
      <trkpt lat="45.26628" lon="5.78841">
        <ele>1203</ele>
        <time>2022-10-13T13:57:47+02:00</time>
      </trkpt>
      <trkpt lat="45.26635" lon="5.78872">
        <ele>1202</ele>
        <time>2022-10-13T13:58:03+02:00</time>
      </trkpt>
      <trkpt lat="45.26648" lon="5.789">
        <ele>1202</ele>
        <time>2022-10-13T13:58:21+02:00</time>
      </trkpt>
      <trkpt lat="45.26659" lon="5.78929">
        <ele>1203</ele>
        <time>2022-10-13T13:58:37+02:00</time>
      </trkpt>
      <trkpt lat="45.26668" lon="5.78958">
        <ele>1204</ele>
        <time>2022-10-13T13:58:51+02:00</time>
      </trkpt>
      <trkpt lat="45.26675" lon="5.78989">
        <ele>1212</ele>
        <time>2022-10-13T13:59:11+02:00</time>
      </trkpt>
      <trkpt lat="45.26685" lon="5.79018">
        <ele>1211</ele>
        <time>2022-10-13T13:59:29+02:00</time>
      </trkpt>
      <trkpt lat="45.26694" lon="5.79049">
        <ele>1215</ele>
        <time>2022-10-13T13:59:47+02:00</time>
      </trkpt>
      <trkpt lat="45.26703" lon="5.79078">
        <ele>1218</ele>
        <time>2022-10-13T14:00:04+02:00</time>
      </trkpt>
      <trkpt lat="45.26714" lon="5.79108">
        <ele>1220</ele>
        <time>2022-10-13T14:00:24+02:00</time>
      </trkpt>
      <trkpt lat="45.26724" lon="5.79138">
        <ele>1222</ele>
        <time>2022-10-13T14:00:39+02:00</time>
      </trkpt>
      <trkpt lat="45.26737" lon="5.79167">
        <ele>1223</ele>
        <time>2022-10-13T14:00:55+02:00</time>
      </trkpt>
      <trkpt lat="45.26748" lon="5.79195">
        <ele>1223</ele>
        <time>2022-10-13T14:01:09+02:00</time>
      </trkpt>
      <trkpt lat="45.2676" lon="5.79223">
        <ele>1224</ele>
        <time>2022-10-13T14:01:23+02:00</time>
      </trkpt>
      <trkpt lat="45.26788" lon="5.79275">
        <ele>1238</ele>
        <time>2022-10-13T14:05:35+02:00</time>
      </trkpt>
      <trkpt lat="45.26805" lon="5.79299">
        <ele>1233</ele>
        <time>2022-10-13T14:05:50+02:00</time>
      </trkpt>
      <trkpt lat="45.26821" lon="5.79322">
        <ele>1234</ele>
        <time>2022-10-13T14:06:03+02:00</time>
      </trkpt>
      <trkpt lat="45.26838" lon="5.79344">
        <ele>1234</ele>
        <time>2022-10-13T14:06:24+02:00</time>
      </trkpt>
      <trkpt lat="45.26853" lon="5.7937">
        <ele>1234</ele>
        <time>2022-10-13T14:06:44+02:00</time>
      </trkpt>
      <trkpt lat="45.26583" lon="5.79327">
        <ele>1098</ele>
        <time>2022-10-13T14:48:56+02:00</time>
      </trkpt>
      <trkpt lat="45.26551" lon="5.79335">
        <ele>1145</ele>
        <time>2022-10-13T14:48:58+02:00</time>
      </trkpt>
      <trkpt lat="45.2653" lon="5.79319">
        <ele>1146</ele>
        <time>2022-10-13T14:49:28+02:00</time>
      </trkpt>
      <trkpt lat="45.26515" lon="5.79294">
        <ele>1141</ele>
        <time>2022-10-13T14:49:34+02:00</time>
      </trkpt>
      <trkpt lat="45.26496" lon="5.79279">
        <ele>1123</ele>
        <time>2022-10-13T14:49:45+02:00</time>
      </trkpt>
      <trkpt lat="45.26479" lon="5.79256">
        <ele>1112</ele>
        <time>2022-10-13T14:49:55+02:00</time>
      </trkpt>
      <trkpt lat="45.26461" lon="5.7923">
        <ele>1107</ele>
        <time>2022-10-13T14:50:00+02:00</time>
      </trkpt>
      <trkpt lat="45.26436" lon="5.79206">
        <ele>1102</ele>
        <time>2022-10-13T14:50:04+02:00</time>
      </trkpt>
      <trkpt lat="45.26418" lon="5.79183">
        <ele>1099</ele>
        <time>2022-10-13T14:50:07+02:00</time>
      </trkpt>
      <trkpt lat="45.26392" lon="5.79159">
        <ele>1093</ele>
        <time>2022-10-13T14:50:11+02:00</time>
      </trkpt>
      <trkpt lat="45.26372" lon="5.79137">
        <ele>1091</ele>
        <time>2022-10-13T14:50:14+02:00</time>
      </trkpt>
      <trkpt lat="45.26356" lon="5.7911">
        <ele>1089</ele>
        <time>2022-10-13T14:50:17+02:00</time>
      </trkpt>
      <trkpt lat="45.26339" lon="5.79084">
        <ele>1086</ele>
        <time>2022-10-13T14:50:20+02:00</time>
      </trkpt>
      <trkpt lat="45.26319" lon="5.79064">
        <ele>1086</ele>
        <time>2022-10-13T14:50:23+02:00</time>
      </trkpt>
      <trkpt lat="45.26296" lon="5.79047">
        <ele>1086</ele>
        <time>2022-10-13T14:50:26+02:00</time>
      </trkpt>
      <trkpt lat="45.26273" lon="5.7902">
        <ele>1086</ele>
        <time>2022-10-13T14:50:29+02:00</time>
      </trkpt>
      <trkpt lat="45.26251" lon="5.79003">
        <ele>1085</ele>
        <time>2022-10-13T14:50:32+02:00</time>
      </trkpt>
      <trkpt lat="45.2622" lon="5.78995">
        <ele>1085</ele>
        <time>2022-10-13T14:50:35+02:00</time>
      </trkpt>
      <trkpt lat="45.26194" lon="5.78984">
        <ele>1083</ele>
        <time>2022-10-13T14:50:39+02:00</time>
      </trkpt>
      <trkpt lat="45.26181" lon="5.78955">
        <ele>1081</ele>
        <time>2022-10-13T14:50:44+02:00</time>
      </trkpt>
      <trkpt lat="45.26167" lon="5.78927">
        <ele>1075</ele>
        <time>2022-10-13T14:50:48+02:00</time>
      </trkpt>
      <trkpt lat="45.26145" lon="5.78912">
        <ele>1078</ele>
        <time>2022-10-13T14:52:52+02:00</time>
      </trkpt>
      <trkpt lat="45.26123" lon="5.78919">
        <ele>1079</ele>
        <time>2022-10-13T14:53:01+02:00</time>
      </trkpt>
      <trkpt lat="45.26129" lon="5.78951">
        <ele>1079</ele>
        <time>2022-10-13T14:53:15+02:00</time>
      </trkpt>
      <trkpt lat="45.26131" lon="5.78985">
        <ele>1078</ele>
        <time>2022-10-13T14:53:27+02:00</time>
      </trkpt>
      <trkpt lat="45.26137" lon="5.79017">
        <ele>1079</ele>
        <time>2022-10-13T14:53:36+02:00</time>
      </trkpt>
      <trkpt lat="45.2615" lon="5.79043">
        <ele>1077</ele>
        <time>2022-10-13T14:53:44+02:00</time>
      </trkpt>
      <trkpt lat="45.26171" lon="5.7906">
        <ele>1082</ele>
        <time>2022-10-13T14:53:57+02:00</time>
      </trkpt>
      <trkpt lat="45.26193" lon="5.79068">
        <ele>1078</ele>
        <time>2022-10-13T14:54:06+02:00</time>
      </trkpt>
      <trkpt lat="45.26206" lon="5.79096">
        <ele>1080</ele>
        <time>2022-10-13T14:54:15+02:00</time>
      </trkpt>
      <trkpt lat="45.26183" lon="5.79092">
        <ele>1085</ele>
        <time>2022-10-13T14:54:29+02:00</time>
      </trkpt>
      <trkpt lat="45.2617" lon="5.79066">
        <ele>1092</ele>
        <time>2022-10-13T14:54:45+02:00</time>
      </trkpt>
      <trkpt lat="45.26148" lon="5.79059">
        <ele>1093</ele>
        <time>2022-10-13T14:55:01+02:00</time>
      </trkpt>
      <trkpt lat="45.2613" lon="5.79038">
        <ele>1094</ele>
        <time>2022-10-13T14:55:23+02:00</time>
      </trkpt>
      <trkpt lat="45.26118" lon="5.79009">
        <ele>1098</ele>
        <time>2022-10-13T14:55:43+02:00</time>
      </trkpt>
      <trkpt lat="45.26102" lon="5.78985">
        <ele>1100</ele>
        <time>2022-10-13T14:56:01+02:00</time>
      </trkpt>
      <trkpt lat="45.26084" lon="5.78963">
        <ele>1097</ele>
        <time>2022-10-13T14:56:18+02:00</time>
      </trkpt>
      <trkpt lat="45.26065" lon="5.78944">
        <ele>1104</ele>
        <time>2022-10-13T14:56:33+02:00</time>
      </trkpt>
      <trkpt lat="45.26047" lon="5.78922">
        <ele>1112</ele>
        <time>2022-10-13T14:56:49+02:00</time>
      </trkpt>
      <trkpt lat="45.26024" lon="5.78915">
        <ele>1116</ele>
        <time>2022-10-13T14:57:08+02:00</time>
      </trkpt>
      <trkpt lat="45.26001" lon="5.7892">
        <ele>1118</ele>
        <time>2022-10-13T14:57:25+02:00</time>
      </trkpt>
      <trkpt lat="45.25979" lon="5.78929">
        <ele>1121</ele>
        <time>2022-10-13T14:57:42+02:00</time>
      </trkpt>
      <trkpt lat="45.25958" lon="5.78916">
        <ele>1131</ele>
        <time>2022-10-13T14:58:00+02:00</time>
      </trkpt>
      <trkpt lat="45.25936" lon="5.78908">
        <ele>1128</ele>
        <time>2022-10-13T14:58:20+02:00</time>
      </trkpt>
      <trkpt lat="45.25914" lon="5.789">
        <ele>1132</ele>
        <time>2022-10-13T14:58:38+02:00</time>
      </trkpt>
      <trkpt lat="45.25892" lon="5.78887">
        <ele>1129</ele>
        <time>2022-10-13T14:58:58+02:00</time>
      </trkpt>
      <trkpt lat="45.2587" lon="5.78875">
        <ele>1130</ele>
        <time>2022-10-13T14:59:16+02:00</time>
      </trkpt>
      <trkpt lat="45.2585" lon="5.78858">
        <ele>1137</ele>
        <time>2022-10-13T14:59:33+02:00</time>
      </trkpt>
      <trkpt lat="45.2583" lon="5.7884">
        <ele>1143</ele>
        <time>2022-10-13T14:59:49+02:00</time>
      </trkpt>
      <trkpt lat="45.25811" lon="5.78825">
        <ele>1140</ele>
        <time>2022-10-13T15:00:07+02:00</time>
      </trkpt>
      <trkpt lat="45.2579" lon="5.7881">
        <ele>1146</ele>
        <time>2022-10-13T15:00:30+02:00</time>
      </trkpt>
      <trkpt lat="45.25768" lon="5.78798">
        <ele>1149</ele>
        <time>2022-10-13T15:00:47+02:00</time>
      </trkpt>
      <trkpt lat="45.25746" lon="5.78789">
        <ele>1150</ele>
        <time>2022-10-13T15:01:06+02:00</time>
      </trkpt>
      <trkpt lat="45.25727" lon="5.78771">
        <ele>1150</ele>
        <time>2022-10-13T15:01:25+02:00</time>
      </trkpt>
      <trkpt lat="45.25706" lon="5.78756">
        <ele>1152</ele>
        <time>2022-10-13T15:01:43+02:00</time>
      </trkpt>
      <trkpt lat="45.25684" lon="5.78742">
        <ele>1156</ele>
        <time>2022-10-13T15:02:00+02:00</time>
      </trkpt>
      <trkpt lat="45.25665" lon="5.78724">
        <ele>1154</ele>
        <time>2022-10-13T15:02:16+02:00</time>
      </trkpt>
      <trkpt lat="45.25642" lon="5.78721">
        <ele>1157</ele>
        <time>2022-10-13T15:02:33+02:00</time>
      </trkpt>
      <trkpt lat="45.25622" lon="5.78707">
        <ele>1159</ele>
        <time>2022-10-13T15:02:51+02:00</time>
      </trkpt>
      <trkpt lat="45.25601" lon="5.78691">
        <ele>1163</ele>
        <time>2022-10-13T15:03:07+02:00</time>
      </trkpt>
      <trkpt lat="45.2558" lon="5.7868">
        <ele>1162</ele>
        <time>2022-10-13T15:03:23+02:00</time>
      </trkpt>
      <trkpt lat="45.25558" lon="5.78668">
        <ele>1167</ele>
        <time>2022-10-13T15:03:39+02:00</time>
      </trkpt>
      <trkpt lat="45.25538" lon="5.78655">
        <ele>1167</ele>
        <time>2022-10-13T15:03:56+02:00</time>
      </trkpt>
      <trkpt lat="45.25516" lon="5.78642">
        <ele>1169</ele>
        <time>2022-10-13T15:04:14+02:00</time>
      </trkpt>
      <trkpt lat="45.25496" lon="5.78627">
        <ele>1171</ele>
        <time>2022-10-13T15:04:29+02:00</time>
      </trkpt>
      <trkpt lat="45.25475" lon="5.78613">
        <ele>1175</ele>
        <time>2022-10-13T15:04:42+02:00</time>
      </trkpt>
      <trkpt lat="45.25457" lon="5.78594">
        <ele>1177</ele>
        <time>2022-10-13T15:05:01+02:00</time>
      </trkpt>
      <trkpt lat="45.25443" lon="5.78568">
        <ele>1183</ele>
        <time>2022-10-13T15:05:21+02:00</time>
      </trkpt>
      <trkpt lat="45.25439" lon="5.78535">
        <ele>1183</ele>
        <time>2022-10-13T15:05:38+02:00</time>
      </trkpt>
      <trkpt lat="45.25431" lon="5.78504">
        <ele>1191</ele>
        <time>2022-10-13T15:05:54+02:00</time>
      </trkpt>
      <trkpt lat="45.25435" lon="5.78472">
        <ele>1195</ele>
        <time>2022-10-13T15:06:15+02:00</time>
      </trkpt>
      <trkpt lat="45.25429" lon="5.7844">
        <ele>1195</ele>
        <time>2022-10-13T15:06:30+02:00</time>
      </trkpt>
      <trkpt lat="45.25412" lon="5.78418">
        <ele>1192</ele>
        <time>2022-10-13T15:06:53+02:00</time>
      </trkpt>
      <trkpt lat="45.25393" lon="5.78396">
        <ele>1192</ele>
        <time>2022-10-13T15:07:10+02:00</time>
      </trkpt>
      <trkpt lat="45.25373" lon="5.78379">
        <ele>1192</ele>
        <time>2022-10-13T15:07:26+02:00</time>
      </trkpt>
      <trkpt lat="45.25353" lon="5.78362">
        <ele>1198</ele>
        <time>2022-10-13T15:07:41+02:00</time>
      </trkpt>
      <trkpt lat="45.25331" lon="5.78349">
        <ele>1198</ele>
        <time>2022-10-13T15:07:53+02:00</time>
      </trkpt>
      <trkpt lat="45.25308" lon="5.78343">
        <ele>1206</ele>
        <time>2022-10-13T15:11:32+02:00</time>
      </trkpt>
      <trkpt lat="45.25285" lon="5.7835">
        <ele>1201</ele>
        <time>2022-10-13T15:11:49+02:00</time>
      </trkpt>
      <trkpt lat="45.25264" lon="5.78362">
        <ele>1206</ele>
        <time>2022-10-13T15:12:12+02:00</time>
      </trkpt>
      <trkpt lat="45.25265" lon="5.78395">
        <ele>1214</ele>
        <time>2022-10-13T15:12:36+02:00</time>
      </trkpt>
      <trkpt lat="45.25275" lon="5.78425">
        <ele>1224</ele>
        <time>2022-10-13T15:12:56+02:00</time>
      </trkpt>
      <trkpt lat="45.25281" lon="5.78455">
        <ele>1226</ele>
        <time>2022-10-13T15:13:15+02:00</time>
      </trkpt>
      <trkpt lat="45.25263" lon="5.78474">
        <ele>1237</ele>
        <time>2022-10-13T15:15:14+02:00</time>
      </trkpt>
      <trkpt lat="45.25255" lon="5.78504">
        <ele>1237</ele>
        <time>2022-10-13T15:15:41+02:00</time>
      </trkpt>
      <trkpt lat="45.25256" lon="5.78536">
        <ele>1247</ele>
        <time>2022-10-13T15:16:03+02:00</time>
      </trkpt>
      <trkpt lat="45.25235" lon="5.78549">
        <ele>1272</ele>
        <time>2022-10-13T15:17:47+02:00</time>
      </trkpt>
      <trkpt lat="45.25212" lon="5.78553">
        <ele>1275</ele>
        <time>2022-10-13T15:18:13+02:00</time>
      </trkpt>
      <trkpt lat="45.2519" lon="5.78562">
        <ele>1274</ele>
        <time>2022-10-13T15:18:39+02:00</time>
      </trkpt>
      <trkpt lat="45.25167" lon="5.78559">
        <ele>1276</ele>
        <time>2022-10-13T15:18:56+02:00</time>
      </trkpt>
      <trkpt lat="45.25146" lon="5.78547">
        <ele>1282</ele>
        <time>2022-10-13T15:19:20+02:00</time>
      </trkpt>
      <trkpt lat="45.25123" lon="5.78541">
        <ele>1287</ele>
        <time>2022-10-13T15:19:39+02:00</time>
      </trkpt>
      <trkpt lat="45.251" lon="5.78539">
        <ele>1291</ele>
        <time>2022-10-13T15:20:03+02:00</time>
      </trkpt>
      <trkpt lat="45.25078" lon="5.7853">
        <ele>1295</ele>
        <time>2022-10-13T15:20:30+02:00</time>
      </trkpt>
      <trkpt lat="45.25057" lon="5.78521">
        <ele>1301</ele>
        <time>2022-10-13T15:20:52+02:00</time>
      </trkpt>
      <trkpt lat="45.25036" lon="5.78507">
        <ele>1300</ele>
        <time>2022-10-13T15:22:59+02:00</time>
      </trkpt>
      <trkpt lat="45.25019" lon="5.78483">
        <ele>1304</ele>
        <time>2022-10-13T15:23:23+02:00</time>
      </trkpt>
      <trkpt lat="45.25002" lon="5.78462">
        <ele>1308</ele>
        <time>2022-10-13T15:23:35+02:00</time>
      </trkpt>
      <trkpt lat="45.24978" lon="5.78456">
        <ele>1307</ele>
        <time>2022-10-13T15:23:43+02:00</time>
      </trkpt>
      <trkpt lat="45.24954" lon="5.78449">
        <ele>1310</ele>
        <time>2022-10-13T15:23:57+02:00</time>
      </trkpt>
      <trkpt lat="45.24932" lon="5.78441">
        <ele>1315</ele>
        <time>2022-10-13T15:24:26+02:00</time>
      </trkpt>
      <trkpt lat="45.2491" lon="5.78432">
        <ele>1323</ele>
        <time>2022-10-13T15:24:51+02:00</time>
      </trkpt>
      <trkpt lat="45.24887" lon="5.78424">
        <ele>1333</ele>
        <time>2022-10-13T15:25:10+02:00</time>
      </trkpt>
      <trkpt lat="45.24866" lon="5.7841">
        <ele>1336</ele>
        <time>2022-10-13T15:26:06+02:00</time>
      </trkpt>
      <trkpt lat="45.24844" lon="5.78408">
        <ele>1341</ele>
        <time>2022-10-13T15:27:30+02:00</time>
      </trkpt>
      <trkpt lat="45.24823" lon="5.78395">
        <ele>1354</ele>
        <time>2022-10-13T15:28:16+02:00</time>
      </trkpt>
      <trkpt lat="45.248" lon="5.7839">
        <ele>1359</ele>
        <time>2022-10-13T15:28:52+02:00</time>
      </trkpt>
      <trkpt lat="45.24777" lon="5.78385">
        <ele>1361</ele>
        <time>2022-10-13T15:29:29+02:00</time>
      </trkpt>
      <trkpt lat="45.24779" lon="5.78419">
        <ele>1370</ele>
        <time>2022-10-13T15:32:03+02:00</time>
      </trkpt>
      <trkpt lat="45.24794" lon="5.78444">
        <ele>1371</ele>
        <time>2022-10-13T15:32:16+02:00</time>
      </trkpt>
      <trkpt lat="45.24807" lon="5.7847">
        <ele>1370</ele>
        <time>2022-10-13T15:32:35+02:00</time>
      </trkpt>
      <trkpt lat="45.24784" lon="5.78464">
        <ele>1375</ele>
        <time>2022-10-13T15:34:01+02:00</time>
      </trkpt>
      <trkpt lat="45.24773" lon="5.78434">
        <ele>1377</ele>
        <time>2022-10-13T15:34:24+02:00</time>
      </trkpt>
      <trkpt lat="45.24758" lon="5.7841">
        <ele>1376</ele>
        <time>2022-10-13T15:34:43+02:00</time>
      </trkpt>
      <trkpt lat="45.24738" lon="5.78394">
        <ele>1378</ele>
        <time>2022-10-13T15:34:54+02:00</time>
      </trkpt>
      <trkpt lat="45.24721" lon="5.78372">
        <ele>1378</ele>
        <time>2022-10-13T15:35:24+02:00</time>
      </trkpt>
      <trkpt lat="45.24698" lon="5.78373">
        <ele>1387</ele>
        <time>2022-10-13T15:36:17+02:00</time>
      </trkpt>
      <trkpt lat="45.2468" lon="5.78393">
        <ele>1389</ele>
        <time>2022-10-13T15:37:02+02:00</time>
      </trkpt>
      <trkpt lat="45.2466" lon="5.78407">
        <ele>1397</ele>
        <time>2022-10-13T15:38:14+02:00</time>
      </trkpt>
      <trkpt lat="45.24638" lon="5.78395">
        <ele>1401</ele>
        <time>2022-10-13T15:38:46+02:00</time>
      </trkpt>
      <trkpt lat="45.2462" lon="5.78375">
        <ele>1403</ele>
        <time>2022-10-13T15:39:11+02:00</time>
      </trkpt>
      <trkpt lat="45.24597" lon="5.78363">
        <ele>1403</ele>
        <time>2022-10-13T15:43:58+02:00</time>
      </trkpt>
      <trkpt lat="45.2458" lon="5.78341">
        <ele>1398</ele>
        <time>2022-10-13T15:44:11+02:00</time>
      </trkpt>
      <trkpt lat="45.24567" lon="5.78315">
        <ele>1395</ele>
        <time>2022-10-13T15:44:19+02:00</time>
      </trkpt>
      <trkpt lat="45.24551" lon="5.7829">
        <ele>1390</ele>
        <time>2022-10-13T15:44:25+02:00</time>
      </trkpt>
      <trkpt lat="45.24533" lon="5.78269">
        <ele>1391</ele>
        <time>2022-10-13T15:44:32+02:00</time>
      </trkpt>
      <trkpt lat="45.24517" lon="5.78246">
        <ele>1390</ele>
        <time>2022-10-13T15:44:47+02:00</time>
      </trkpt>
      <trkpt lat="45.24504" lon="5.78219">
        <ele>1388</ele>
        <time>2022-10-13T15:44:57+02:00</time>
      </trkpt>
      <trkpt lat="45.24491" lon="5.78192">
        <ele>1383</ele>
        <time>2022-10-13T15:45:06+02:00</time>
      </trkpt>
      <trkpt lat="45.24476" lon="5.78167">
        <ele>1379</ele>
        <time>2022-10-13T15:45:21+02:00</time>
      </trkpt>
      <trkpt lat="45.24463" lon="5.7814">
        <ele>1377</ele>
        <time>2022-10-13T15:45:35+02:00</time>
      </trkpt>
      <trkpt lat="45.24451" lon="5.78112">
        <ele>1373</ele>
        <time>2022-10-13T15:46:02+02:00</time>
      </trkpt>
      <trkpt lat="45.24438" lon="5.78085">
        <ele>1372</ele>
        <time>2022-10-13T15:46:21+02:00</time>
      </trkpt>
      <trkpt lat="45.24421" lon="5.78063">
        <ele>1373</ele>
        <time>2022-10-13T15:46:55+02:00</time>
      </trkpt>
      <trkpt lat="45.24402" lon="5.78045">
        <ele>1376</ele>
        <time>2022-10-13T15:47:30+02:00</time>
      </trkpt>
      <trkpt lat="45.24379" lon="5.78047">
        <ele>1379</ele>
        <time>2022-10-13T15:48:22+02:00</time>
      </trkpt>
      <trkpt lat="45.24365" lon="5.7802">
        <ele>1384</ele>
        <time>2022-10-13T15:48:57+02:00</time>
      </trkpt>
      <trkpt lat="45.24349" lon="5.77997">
        <ele>1388</ele>
        <time>2022-10-13T15:49:23+02:00</time>
      </trkpt>
      <trkpt lat="45.24338" lon="5.77968">
        <ele>1383</ele>
        <time>2022-10-13T15:51:34+02:00</time>
      </trkpt>
      <trkpt lat="45.24318" lon="5.77954">
        <ele>1391</ele>
        <time>2022-10-13T15:51:48+02:00</time>
      </trkpt>
      <trkpt lat="45.24299" lon="5.77934">
        <ele>1385</ele>
        <time>2022-10-13T15:52:05+02:00</time>
      </trkpt>
      <trkpt lat="45.2428" lon="5.77914">
        <ele>1377</ele>
        <time>2022-10-13T15:52:14+02:00</time>
      </trkpt>
      <trkpt lat="45.24259" lon="5.77884">
        <ele>1380</ele>
        <time>2022-10-13T15:52:17+02:00</time>
      </trkpt>
      <trkpt lat="45.2424" lon="5.77863">
        <ele>1380</ele>
        <time>2022-10-13T15:52:28+02:00</time>
      </trkpt>
      <trkpt lat="45.24226" lon="5.77833">
        <ele>1377</ele>
        <time>2022-10-13T15:52:35+02:00</time>
      </trkpt>
      <trkpt lat="45.24206" lon="5.77811">
        <ele>1371</ele>
        <time>2022-10-13T15:52:43+02:00</time>
      </trkpt>
      <trkpt lat="45.24192" lon="5.77785">
        <ele>1373</ele>
        <time>2022-10-13T15:52:51+02:00</time>
      </trkpt>
      <trkpt lat="45.24175" lon="5.77764">
        <ele>1373</ele>
        <time>2022-10-13T15:53:19+02:00</time>
      </trkpt>
      <trkpt lat="45.24161" lon="5.77737">
        <ele>1371</ele>
        <time>2022-10-13T15:53:45+02:00</time>
      </trkpt>
      <trkpt lat="45.24145" lon="5.77715">
        <ele>1370</ele>
        <time>2022-10-13T15:54:03+02:00</time>
      </trkpt>
      <trkpt lat="45.24127" lon="5.77692">
        <ele>1367</ele>
        <time>2022-10-13T15:54:11+02:00</time>
      </trkpt>
      <trkpt lat="45.24109" lon="5.77672">
        <ele>1364</ele>
        <time>2022-10-13T15:54:39+02:00</time>
      </trkpt>
      <trkpt lat="45.24091" lon="5.77651">
        <ele>1362</ele>
        <time>2022-10-13T15:54:53+02:00</time>
      </trkpt>
      <trkpt lat="45.24073" lon="5.77631">
        <ele>1359</ele>
        <time>2022-10-13T15:55:02+02:00</time>
      </trkpt>
      <trkpt lat="45.24064" lon="5.77602">
        <ele>1358</ele>
        <time>2022-10-13T15:55:09+02:00</time>
      </trkpt>
      <trkpt lat="45.24048" lon="5.77577">
        <ele>1357</ele>
        <time>2022-10-13T15:55:17+02:00</time>
      </trkpt>
      <trkpt lat="45.24026" lon="5.77568">
        <ele>1361</ele>
        <time>2022-10-13T15:55:35+02:00</time>
      </trkpt>
      <trkpt lat="45.24008" lon="5.77546">
        <ele>1359</ele>
        <time>2022-10-13T15:56:01+02:00</time>
      </trkpt>
      <trkpt lat="45.23988" lon="5.77529">
        <ele>1369</ele>
        <time>2022-10-13T15:56:29+02:00</time>
      </trkpt>
      <trkpt lat="45.23973" lon="5.77503">
        <ele>1363</ele>
        <time>2022-10-13T15:56:46+02:00</time>
      </trkpt>
      <trkpt lat="45.23957" lon="5.7748">
        <ele>1360</ele>
        <time>2022-10-13T15:56:55+02:00</time>
      </trkpt>
      <trkpt lat="45.23944" lon="5.77449">
        <ele>1361</ele>
        <time>2022-10-13T15:57:02+02:00</time>
      </trkpt>
      <trkpt lat="45.23935" lon="5.77418">
        <ele>1361</ele>
        <time>2022-10-13T15:57:13+02:00</time>
      </trkpt>
      <trkpt lat="45.23917" lon="5.77398">
        <ele>1357</ele>
        <time>2022-10-13T15:57:42+02:00</time>
      </trkpt>
      <trkpt lat="45.23891" lon="5.77349">
        <ele>1354</ele>
        <time>2022-10-13T15:58:22+02:00</time>
      </trkpt>
      <trkpt lat="45.23874" lon="5.77327">
        <ele>1352</ele>
        <time>2022-10-13T15:58:53+02:00</time>
      </trkpt>
      <trkpt lat="45.2385" lon="5.77313">
        <ele>1350</ele>
        <time>2022-10-13T15:59:00+02:00</time>
      </trkpt>
      <trkpt lat="45.23835" lon="5.77289">
        <ele>1347</ele>
        <time>2022-10-13T15:59:06+02:00</time>
      </trkpt>
      <trkpt lat="45.23826" lon="5.77258">
        <ele>1338</ele>
        <time>2022-10-13T15:59:23+02:00</time>
      </trkpt>
      <trkpt lat="45.2381" lon="5.77234">
        <ele>1341</ele>
        <time>2022-10-13T15:59:38+02:00</time>
      </trkpt>
      <trkpt lat="45.23798" lon="5.77207">
        <ele>1341</ele>
        <time>2022-10-13T15:59:55+02:00</time>
      </trkpt>
      <trkpt lat="45.23785" lon="5.77181">
        <ele>1342</ele>
        <time>2022-10-13T16:00:21+02:00</time>
      </trkpt>
      <trkpt lat="45.23765" lon="5.77165">
        <ele>1348</ele>
        <time>2022-10-13T16:00:39+02:00</time>
      </trkpt>
      <trkpt lat="45.23747" lon="5.77145">
        <ele>1352</ele>
        <time>2022-10-13T16:01:16+02:00</time>
      </trkpt>
      <trkpt lat="45.23735" lon="5.77117">
        <ele>1355</ele>
        <time>2022-10-13T16:01:40+02:00</time>
      </trkpt>
      <trkpt lat="45.23714" lon="5.771">
        <ele>1358</ele>
        <time>2022-10-13T16:02:10+02:00</time>
      </trkpt>
      <trkpt lat="45.23699" lon="5.77074">
        <ele>1356</ele>
        <time>2022-10-13T16:02:23+02:00</time>
      </trkpt>
      <trkpt lat="45.23685" lon="5.77048">
        <ele>1358</ele>
        <time>2022-10-13T16:02:35+02:00</time>
      </trkpt>
      <trkpt lat="45.23668" lon="5.77027">
        <ele>1358</ele>
        <time>2022-10-13T16:02:51+02:00</time>
      </trkpt>
      <trkpt lat="45.2366" lon="5.76993">
        <ele>1357</ele>
        <time>2022-10-13T16:03:06+02:00</time>
      </trkpt>
      <trkpt lat="45.2365" lon="5.76963">
        <ele>1359</ele>
        <time>2022-10-13T16:03:18+02:00</time>
      </trkpt>
      <trkpt lat="45.23639" lon="5.76935">
        <ele>1358</ele>
        <time>2022-10-13T16:03:30+02:00</time>
      </trkpt>
      <trkpt lat="45.23637" lon="5.76902">
        <ele>1356</ele>
        <time>2022-10-13T16:03:40+02:00</time>
      </trkpt>
      <trkpt lat="45.23626" lon="5.76873">
        <ele>1360</ele>
        <time>2022-10-13T16:03:54+02:00</time>
      </trkpt>
      <trkpt lat="45.23615" lon="5.76841">
        <ele>1361</ele>
        <time>2022-10-13T16:04:08+02:00</time>
      </trkpt>
      <trkpt lat="45.23606" lon="5.76809">
        <ele>1358</ele>
        <time>2022-10-13T16:04:19+02:00</time>
      </trkpt>
      <trkpt lat="45.23604" lon="5.76775">
        <ele>1354</ele>
        <time>2022-10-13T16:04:27+02:00</time>
      </trkpt>
      <trkpt lat="45.23594" lon="5.76747">
        <ele>1357</ele>
        <time>2022-10-13T16:04:56+02:00</time>
      </trkpt>
      <trkpt lat="45.23585" lon="5.76716">
        <ele>1358</ele>
        <time>2022-10-13T16:05:08+02:00</time>
      </trkpt>
      <trkpt lat="45.23574" lon="5.76684">
        <ele>1357</ele>
        <time>2022-10-13T16:05:17+02:00</time>
      </trkpt>
      <trkpt lat="45.23564" lon="5.76655">
        <ele>1354</ele>
        <time>2022-10-13T16:05:28+02:00</time>
      </trkpt>
      <trkpt lat="45.23555" lon="5.76625">
        <ele>1354</ele>
        <time>2022-10-13T16:05:35+02:00</time>
      </trkpt>
      <trkpt lat="45.23546" lon="5.76595">
        <ele>1355</ele>
        <time>2022-10-13T16:05:44+02:00</time>
      </trkpt>
      <trkpt lat="45.23556" lon="5.76565">
        <ele>1353</ele>
        <time>2022-10-13T16:05:59+02:00</time>
      </trkpt>
      <trkpt lat="45.23556" lon="5.76531">
        <ele>1359</ele>
        <time>2022-10-13T16:06:14+02:00</time>
      </trkpt>
      <trkpt lat="45.23537" lon="5.76549">
        <ele>1357</ele>
        <time>2022-10-13T16:06:28+02:00</time>
      </trkpt>
      <trkpt lat="45.23538" lon="5.76516">
        <ele>1362</ele>
        <time>2022-10-13T16:06:46+02:00</time>
      </trkpt>
      <trkpt lat="45.2353" lon="5.76486">
        <ele>1360</ele>
        <time>2022-10-13T16:07:02+02:00</time>
      </trkpt>
      <trkpt lat="45.23517" lon="5.76457">
        <ele>1360</ele>
        <time>2022-10-13T16:07:15+02:00</time>
      </trkpt>
      <trkpt lat="45.23509" lon="5.76427">
        <ele>1368</ele>
        <time>2022-10-13T16:07:31+02:00</time>
      </trkpt>
      <trkpt lat="45.23521" lon="5.764">
        <ele>1367</ele>
        <time>2022-10-13T16:08:02+02:00</time>
      </trkpt>
      <trkpt lat="45.2354" lon="5.76375">
        <ele>1359</ele>
        <time>2022-10-13T16:08:07+02:00</time>
      </trkpt>
      <trkpt lat="45.23542" lon="5.76341">
        <ele>1359</ele>
        <time>2022-10-13T16:08:12+02:00</time>
      </trkpt>
      <trkpt lat="45.2354" lon="5.76309">
        <ele>1362</ele>
        <time>2022-10-13T16:08:26+02:00</time>
      </trkpt>
      <trkpt lat="45.23537" lon="5.76277">
        <ele>1363</ele>
        <time>2022-10-13T16:08:37+02:00</time>
      </trkpt>
      <trkpt lat="45.23555" lon="5.76255">
        <ele>1362</ele>
        <time>2022-10-13T16:08:55+02:00</time>
      </trkpt>
      <trkpt lat="45.23577" lon="5.7623">
        <ele>1366</ele>
        <time>2022-10-13T16:09:01+02:00</time>
      </trkpt>
      <trkpt lat="45.23591" lon="5.76201">
        <ele>1366</ele>
        <time>2022-10-13T16:09:05+02:00</time>
      </trkpt>
      <trkpt lat="45.23572" lon="5.76181">
        <ele>1367</ele>
        <time>2022-10-13T16:09:18+02:00</time>
      </trkpt>
      <trkpt lat="45.23554" lon="5.76162">
        <ele>1381</ele>
        <time>2022-10-13T16:10:19+02:00</time>
      </trkpt>
      <trkpt lat="45.23535" lon="5.76146">
        <ele>1377</ele>
        <time>2022-10-13T16:19:44+02:00</time>
      </trkpt>
      <trkpt lat="45.23556" lon="5.76129">
        <ele>1371</ele>
        <time>2022-10-13T16:20:31+02:00</time>
      </trkpt>
      <trkpt lat="45.23577" lon="5.76113">
        <ele>1368</ele>
        <time>2022-10-13T16:20:37+02:00</time>
      </trkpt>
      <trkpt lat="45.23554" lon="5.76112">
        <ele>1357</ele>
        <time>2022-10-13T16:20:50+02:00</time>
      </trkpt>
      <trkpt lat="45.23571" lon="5.76082">
        <ele>1353</ele>
        <time>2022-10-13T16:21:01+02:00</time>
      </trkpt>
      <trkpt lat="45.23552" lon="5.76065">
        <ele>1338</ele>
        <time>2022-10-13T16:21:48+02:00</time>
      </trkpt>
      <trkpt lat="45.23571" lon="5.76041">
        <ele>1321</ele>
        <time>2022-10-13T16:24:04+02:00</time>
      </trkpt>
      <trkpt lat="45.23586" lon="5.76015">
        <ele>1320</ele>
        <time>2022-10-13T16:24:10+02:00</time>
      </trkpt>
      <trkpt lat="45.23603" lon="5.7599">
        <ele>1316</ele>
        <time>2022-10-13T16:24:14+02:00</time>
      </trkpt>
      <trkpt lat="45.23619" lon="5.75968">
        <ele>1312</ele>
        <time>2022-10-13T16:24:19+02:00</time>
      </trkpt>
      <trkpt lat="45.236" lon="5.75948">
        <ele>1301</ele>
        <time>2022-10-13T16:24:30+02:00</time>
      </trkpt>
      <trkpt lat="45.23579" lon="5.75959">
        <ele>1299</ele>
        <time>2022-10-13T16:24:33+02:00</time>
      </trkpt>
      <trkpt lat="45.23555" lon="5.75967">
        <ele>1299</ele>
        <time>2022-10-13T16:24:37+02:00</time>
      </trkpt>
      <trkpt lat="45.23534" lon="5.75982">
        <ele>1293</ele>
        <time>2022-10-13T16:24:41+02:00</time>
      </trkpt>
      <trkpt lat="45.23513" lon="5.75996">
        <ele>1288</ele>
        <time>2022-10-13T16:24:45+02:00</time>
      </trkpt>
      <trkpt lat="45.2353" lon="5.75965">
        <ele>1272</ele>
        <time>2022-10-13T16:24:57+02:00</time>
      </trkpt>
      <trkpt lat="45.23537" lon="5.75934">
        <ele>1267</ele>
        <time>2022-10-13T16:25:02+02:00</time>
      </trkpt>
      <trkpt lat="45.23547" lon="5.75901">
        <ele>1263</ele>
        <time>2022-10-13T16:25:06+02:00</time>
      </trkpt>
      <trkpt lat="45.23558" lon="5.75872">
        <ele>1261</ele>
        <time>2022-10-13T16:25:09+02:00</time>
      </trkpt>
      <trkpt lat="45.23566" lon="5.75838">
        <ele>1256</ele>
        <time>2022-10-13T16:25:12+02:00</time>
      </trkpt>
      <trkpt lat="45.23578" lon="5.7581">
        <ele>1251</ele>
        <time>2022-10-13T16:25:15+02:00</time>
      </trkpt>
      <trkpt lat="45.23594" lon="5.75787">
        <ele>1246</ele>
        <time>2022-10-13T16:25:19+02:00</time>
      </trkpt>
      <trkpt lat="45.23567" lon="5.75783">
        <ele>1235</ele>
        <time>2022-10-13T16:25:27+02:00</time>
      </trkpt>
      <trkpt lat="45.2354" lon="5.7579">
        <ele>1229</ele>
        <time>2022-10-13T16:25:31+02:00</time>
      </trkpt>
      <trkpt lat="45.23522" lon="5.7581">
        <ele>1223</ele>
        <time>2022-10-13T16:25:34+02:00</time>
      </trkpt>
      <trkpt lat="45.23496" lon="5.75831">
        <ele>1212</ele>
        <time>2022-10-13T16:25:38+02:00</time>
      </trkpt>
      <trkpt lat="45.23474" lon="5.75845">
        <ele>1204</ele>
        <time>2022-10-13T16:25:42+02:00</time>
      </trkpt>
      <trkpt lat="45.23448" lon="5.7586">
        <ele>1197</ele>
        <time>2022-10-13T16:25:46+02:00</time>
      </trkpt>
      <trkpt lat="45.23422" lon="5.75881">
        <ele>1191</ele>
        <time>2022-10-13T16:25:50+02:00</time>
      </trkpt>
      <trkpt lat="45.23398" lon="5.75888">
        <ele>1187</ele>
        <time>2022-10-13T16:25:54+02:00</time>
      </trkpt>
      <trkpt lat="45.23377" lon="5.75902">
        <ele>1179</ele>
        <time>2022-10-13T16:25:58+02:00</time>
      </trkpt>
      <trkpt lat="45.23371" lon="5.75938">
        <ele>1172</ele>
        <time>2022-10-13T16:26:03+02:00</time>
      </trkpt>
      <trkpt lat="45.23357" lon="5.75906">
        <ele>1167</ele>
        <time>2022-10-13T16:26:10+02:00</time>
      </trkpt>
      <trkpt lat="45.23345" lon="5.75874">
        <ele>1157</ele>
        <time>2022-10-13T16:26:15+02:00</time>
      </trkpt>
      <trkpt lat="45.23359" lon="5.75845">
        <ele>1151</ele>
        <time>2022-10-13T16:27:05+02:00</time>
      </trkpt>
      <trkpt lat="45.23379" lon="5.75832">
        <ele>1150</ele>
        <time>2022-10-13T16:27:10+02:00</time>
      </trkpt>
      <trkpt lat="45.23397" lon="5.75812">
        <ele>1144</ele>
        <time>2022-10-13T16:27:16+02:00</time>
      </trkpt>
      <trkpt lat="45.23405" lon="5.75781">
        <ele>1142</ele>
        <time>2022-10-13T16:27:21+02:00</time>
      </trkpt>
      <trkpt lat="45.23422" lon="5.75745">
        <ele>1136</ele>
        <time>2022-10-13T16:27:25+02:00</time>
      </trkpt>
      <trkpt lat="45.2343" lon="5.75715">
        <ele>1128</ele>
        <time>2022-10-13T16:27:28+02:00</time>
      </trkpt>
      <trkpt lat="45.23406" lon="5.75719">
        <ele>1121</ele>
        <time>2022-10-13T16:27:40+02:00</time>
      </trkpt>
      <trkpt lat="45.23404" lon="5.75682">
        <ele>1110</ele>
        <time>2022-10-13T16:27:53+02:00</time>
      </trkpt>
      <trkpt lat="45.23414" lon="5.75652">
        <ele>1104</ele>
        <time>2022-10-13T16:27:59+02:00</time>
      </trkpt>
      <trkpt lat="45.23441" lon="5.75647">
        <ele>1100</ele>
        <time>2022-10-13T16:28:03+02:00</time>
      </trkpt>
      <trkpt lat="45.23459" lon="5.75623">
        <ele>1095</ele>
        <time>2022-10-13T16:28:07+02:00</time>
      </trkpt>
      <trkpt lat="45.23482" lon="5.75618">
        <ele>1087</ele>
        <time>2022-10-13T16:28:11+02:00</time>
      </trkpt>
      <trkpt lat="45.23508" lon="5.7562">
        <ele>1080</ele>
        <time>2022-10-13T16:28:15+02:00</time>
      </trkpt>
      <trkpt lat="45.23534" lon="5.7561">
        <ele>1078</ele>
        <time>2022-10-13T16:28:19+02:00</time>
      </trkpt>
      <trkpt lat="45.2351" lon="5.75586">
        <ele>1073</ele>
        <time>2022-10-13T16:28:27+02:00</time>
      </trkpt>
      <trkpt lat="45.23482" lon="5.75584">
        <ele>1065</ele>
        <time>2022-10-13T16:28:32+02:00</time>
      </trkpt>
      <trkpt lat="45.23457" lon="5.75568">
        <ele>1063</ele>
        <time>2022-10-13T16:28:35+02:00</time>
      </trkpt>
      <trkpt lat="45.23434" lon="5.75572">
        <ele>1053</ele>
        <time>2022-10-13T16:28:39+02:00</time>
      </trkpt>
      <trkpt lat="45.23411" lon="5.75566">
        <ele>1050</ele>
        <time>2022-10-13T16:28:42+02:00</time>
      </trkpt>
      <trkpt lat="45.23388" lon="5.75559">
        <ele>1047</ele>
        <time>2022-10-13T16:28:45+02:00</time>
      </trkpt>
      <trkpt lat="45.23364" lon="5.75573">
        <ele>1040</ele>
        <time>2022-10-13T16:28:49+02:00</time>
      </trkpt>
      <trkpt lat="45.23342" lon="5.75587">
        <ele>1031</ele>
        <time>2022-10-13T16:28:54+02:00</time>
      </trkpt>
      <trkpt lat="45.23367" lon="5.75561">
        <ele>1020</ele>
        <time>2022-10-13T16:29:04+02:00</time>
      </trkpt>
      <trkpt lat="45.23391" lon="5.75542">
        <ele>1012</ele>
        <time>2022-10-13T16:29:08+02:00</time>
      </trkpt>
      <trkpt lat="45.23415" lon="5.75522">
        <ele>1005</ele>
        <time>2022-10-13T16:29:12+02:00</time>
      </trkpt>
      <trkpt lat="45.2344" lon="5.7551">
        <ele>1002</ele>
        <time>2022-10-13T16:29:16+02:00</time>
      </trkpt>
      <trkpt lat="45.23465" lon="5.755">
        <ele>997</ele>
        <time>2022-10-13T16:29:21+02:00</time>
      </trkpt>
      <trkpt lat="45.23486" lon="5.75478">
        <ele>993</ele>
        <time>2022-10-13T16:29:27+02:00</time>
      </trkpt>
      <trkpt lat="45.23464" lon="5.75467">
        <ele>988</ele>
        <time>2022-10-13T16:29:33+02:00</time>
      </trkpt>
      <trkpt lat="45.23436" lon="5.7546">
        <ele>983</ele>
        <time>2022-10-13T16:29:37+02:00</time>
      </trkpt>
      <trkpt lat="45.23411" lon="5.75449">
        <ele>980</ele>
        <time>2022-10-13T16:29:40+02:00</time>
      </trkpt>
      <trkpt lat="45.23387" lon="5.75445">
        <ele>976</ele>
        <time>2022-10-13T16:29:43+02:00</time>
      </trkpt>
      <trkpt lat="45.23361" lon="5.75446">
        <ele>970</ele>
        <time>2022-10-13T16:29:46+02:00</time>
      </trkpt>
      <trkpt lat="45.23336" lon="5.75457">
        <ele>961</ele>
        <time>2022-10-13T16:29:49+02:00</time>
      </trkpt>
      <trkpt lat="45.23308" lon="5.75469">
        <ele>952</ele>
        <time>2022-10-13T16:29:53+02:00</time>
      </trkpt>
      <trkpt lat="45.23286" lon="5.75477">
        <ele>947</ele>
        <time>2022-10-13T16:29:57+02:00</time>
      </trkpt>
      <trkpt lat="45.23264" lon="5.7549">
        <ele>938</ele>
        <time>2022-10-13T16:30:02+02:00</time>
      </trkpt>
      <trkpt lat="45.23278" lon="5.75464">
        <ele>929</ele>
        <time>2022-10-13T16:31:04+02:00</time>
      </trkpt>
      <trkpt lat="45.23292" lon="5.75432">
        <ele>931</ele>
        <time>2022-10-13T16:31:08+02:00</time>
      </trkpt>
      <trkpt lat="45.2331" lon="5.75408">
        <ele>928</ele>
        <time>2022-10-13T16:31:12+02:00</time>
      </trkpt>
      <trkpt lat="45.23327" lon="5.7538">
        <ele>924</ele>
        <time>2022-10-13T16:31:16+02:00</time>
      </trkpt>
      <trkpt lat="45.2335" lon="5.75368">
        <ele>919</ele>
        <time>2022-10-13T16:31:20+02:00</time>
      </trkpt>
      <trkpt lat="45.23374" lon="5.75351">
        <ele>910</ele>
        <time>2022-10-13T16:31:26+02:00</time>
      </trkpt>
      <trkpt lat="45.23397" lon="5.75346">
        <ele>906</ele>
        <time>2022-10-13T16:31:30+02:00</time>
      </trkpt>
      <trkpt lat="45.23419" lon="5.75302">
        <ele>895</ele>
        <time>2022-10-13T16:31:37+02:00</time>
      </trkpt>
      <trkpt lat="45.23434" lon="5.7527">
        <ele>892</ele>
        <time>2022-10-13T16:31:41+02:00</time>
      </trkpt>
      <trkpt lat="45.23446" lon="5.75238">
        <ele>886</ele>
        <time>2022-10-13T16:31:45+02:00</time>
      </trkpt>
      <trkpt lat="45.2347" lon="5.75201">
        <ele>878</ele>
        <time>2022-10-13T16:31:52+02:00</time>
      </trkpt>
      <trkpt lat="45.23492" lon="5.7518">
        <ele>877</ele>
        <time>2022-10-13T16:31:55+02:00</time>
      </trkpt>
      <trkpt lat="45.23512" lon="5.75166">
        <ele>878</ele>
        <time>2022-10-13T16:31:59+02:00</time>
      </trkpt>
      <trkpt lat="45.23534" lon="5.75155">
        <ele>867</ele>
        <time>2022-10-13T16:32:09+02:00</time>
      </trkpt>
      <trkpt lat="45.23559" lon="5.75144">
        <ele>861</ele>
        <time>2022-10-13T16:32:14+02:00</time>
      </trkpt>
      <trkpt lat="45.23558" lon="5.75111">
        <ele>848</ele>
        <time>2022-10-13T16:32:22+02:00</time>
      </trkpt>
      <trkpt lat="45.23539" lon="5.75092">
        <ele>832</ele>
        <time>2022-10-13T16:32:29+02:00</time>
      </trkpt>
      <trkpt lat="45.23516" lon="5.75078">
        <ele>828</ele>
        <time>2022-10-13T16:32:34+02:00</time>
      </trkpt>
      <trkpt lat="45.23494" lon="5.75081">
        <ele>825</ele>
        <time>2022-10-13T16:32:38+02:00</time>
      </trkpt>
      <trkpt lat="45.23468" lon="5.75087">
        <ele>821</ele>
        <time>2022-10-13T16:32:43+02:00</time>
      </trkpt>
      <trkpt lat="45.23443" lon="5.75087">
        <ele>818</ele>
        <time>2022-10-13T16:32:47+02:00</time>
      </trkpt>
      <trkpt lat="45.23414" lon="5.7509">
        <ele>816</ele>
        <time>2022-10-13T16:32:51+02:00</time>
      </trkpt>
      <trkpt lat="45.2339" lon="5.75093">
        <ele>814</ele>
        <time>2022-10-13T16:32:56+02:00</time>
      </trkpt>
      <trkpt lat="45.23368" lon="5.75103">
        <ele>811</ele>
        <time>2022-10-13T16:34:12+02:00</time>
      </trkpt>
      <trkpt lat="45.23343" lon="5.75106">
        <ele>813</ele>
        <time>2022-10-13T16:34:17+02:00</time>
      </trkpt>
      <trkpt lat="45.23318" lon="5.75112">
        <ele>814</ele>
        <time>2022-10-13T16:34:21+02:00</time>
      </trkpt>
      <trkpt lat="45.23293" lon="5.75112">
        <ele>810</ele>
        <time>2022-10-13T16:34:25+02:00</time>
      </trkpt>
      <trkpt lat="45.23267" lon="5.75112">
        <ele>807</ele>
        <time>2022-10-13T16:34:29+02:00</time>
      </trkpt>
      <trkpt lat="45.23244" lon="5.7511">
        <ele>805</ele>
        <time>2022-10-13T16:34:32+02:00</time>
      </trkpt>
      <trkpt lat="45.23217" lon="5.75109">
        <ele>803</ele>
        <time>2022-10-13T16:34:35+02:00</time>
      </trkpt>
      <trkpt lat="45.23188" lon="5.75112">
        <ele>799</ele>
        <time>2022-10-13T16:34:38+02:00</time>
      </trkpt>
      <trkpt lat="45.23157" lon="5.75126">
        <ele>797</ele>
        <time>2022-10-13T16:34:41+02:00</time>
      </trkpt>
      <trkpt lat="45.23137" lon="5.75141">
        <ele>795</ele>
        <time>2022-10-13T16:34:43+02:00</time>
      </trkpt>
      <trkpt lat="45.2312" lon="5.75161">
        <ele>794</ele>
        <time>2022-10-13T16:34:45+02:00</time>
      </trkpt>
      <trkpt lat="45.231" lon="5.7518">
        <ele>792</ele>
        <time>2022-10-13T16:34:47+02:00</time>
      </trkpt>
      <trkpt lat="45.23082" lon="5.75203">
        <ele>791</ele>
        <time>2022-10-13T16:34:49+02:00</time>
      </trkpt>
      <trkpt lat="45.23072" lon="5.75235">
        <ele>791</ele>
        <time>2022-10-13T16:34:51+02:00</time>
      </trkpt>
      <trkpt lat="45.23054" lon="5.75259">
        <ele>790</ele>
        <time>2022-10-13T16:34:53+02:00</time>
      </trkpt>
      <trkpt lat="45.23034" lon="5.75277">
        <ele>788</ele>
        <time>2022-10-13T16:34:55+02:00</time>
      </trkpt>
      <trkpt lat="45.23027" lon="5.75322">
        <ele>785</ele>
        <time>2022-10-13T16:34:58+02:00</time>
      </trkpt>
      <trkpt lat="45.23034" lon="5.75357">
        <ele>783</ele>
        <time>2022-10-13T16:35:00+02:00</time>
      </trkpt>
      <trkpt lat="45.23037" lon="5.75404">
        <ele>776</ele>
        <time>2022-10-13T16:35:03+02:00</time>
      </trkpt>
      <trkpt lat="45.23027" lon="5.75435">
        <ele>774</ele>
        <time>2022-10-13T16:35:05+02:00</time>
      </trkpt>
      <trkpt lat="45.23004" lon="5.75453">
        <ele>769</ele>
        <time>2022-10-13T16:35:07+02:00</time>
      </trkpt>
      <trkpt lat="45.22978" lon="5.75459">
        <ele>766</ele>
        <time>2022-10-13T16:35:09+02:00</time>
      </trkpt>
      <trkpt lat="45.22953" lon="5.75462">
        <ele>765</ele>
        <time>2022-10-13T16:35:11+02:00</time>
      </trkpt>
      <trkpt lat="45.22934" lon="5.75479">
        <ele>763</ele>
        <time>2022-10-13T16:35:13+02:00</time>
      </trkpt>
      <trkpt lat="45.22928" lon="5.75519">
        <ele>760</ele>
        <time>2022-10-13T16:35:16+02:00</time>
      </trkpt>
      <trkpt lat="45.22937" lon="5.75555">
        <ele>758</ele>
        <time>2022-10-13T16:35:18+02:00</time>
      </trkpt>
      <trkpt lat="45.22942" lon="5.75588">
        <ele>755</ele>
        <time>2022-10-13T16:35:20+02:00</time>
      </trkpt>
      <trkpt lat="45.22933" lon="5.75622">
        <ele>752</ele>
        <time>2022-10-13T16:35:22+02:00</time>
      </trkpt>
      <trkpt lat="45.2292" lon="5.75652">
        <ele>752</ele>
        <time>2022-10-13T16:35:24+02:00</time>
      </trkpt>
      <trkpt lat="45.22913" lon="5.75689">
        <ele>752</ele>
        <time>2022-10-13T16:35:26+02:00</time>
      </trkpt>
      <trkpt lat="45.22901" lon="5.75719">
        <ele>748</ele>
        <time>2022-10-13T16:35:28+02:00</time>
      </trkpt>
      <trkpt lat="45.22884" lon="5.7575">
        <ele>744</ele>
        <time>2022-10-13T16:35:30+02:00</time>
      </trkpt>
      <trkpt lat="45.22867" lon="5.75778">
        <ele>738</ele>
        <time>2022-10-13T16:35:32+02:00</time>
      </trkpt>
      <trkpt lat="45.22849" lon="5.75806">
        <ele>736</ele>
        <time>2022-10-13T16:35:34+02:00</time>
      </trkpt>
      <trkpt lat="45.22828" lon="5.75827">
        <ele>737</ele>
        <time>2022-10-13T16:35:36+02:00</time>
      </trkpt>
      <trkpt lat="45.22804" lon="5.75839">
        <ele>731</ele>
        <time>2022-10-13T16:35:38+02:00</time>
      </trkpt>
      <trkpt lat="45.22783" lon="5.75854">
        <ele>728</ele>
        <time>2022-10-13T16:35:40+02:00</time>
      </trkpt>
      <trkpt lat="45.22758" lon="5.75873">
        <ele>723</ele>
        <time>2022-10-13T16:35:43+02:00</time>
      </trkpt>
      <trkpt lat="45.22742" lon="5.75898">
        <ele>722</ele>
        <time>2022-10-13T16:35:47+02:00</time>
      </trkpt>
      <trkpt lat="45.2272" lon="5.75911">
        <ele>725</ele>
        <time>2022-10-13T16:36:00+02:00</time>
      </trkpt>
      <trkpt lat="45.22697" lon="5.75915">
        <ele>731</ele>
        <time>2022-10-13T16:36:07+02:00</time>
      </trkpt>
      <trkpt lat="45.2268" lon="5.75938">
        <ele>732</ele>
        <time>2022-10-13T16:36:21+02:00</time>
      </trkpt>
      <trkpt lat="45.22674" lon="5.75969">
        <ele>739</ele>
        <time>2022-10-13T16:36:45+02:00</time>
      </trkpt>
      <trkpt lat="45.22672" lon="5.76002">
        <ele>745</ele>
        <time>2022-10-13T16:37:10+02:00</time>
      </trkpt>
      <trkpt lat="45.22679" lon="5.76033">
        <ele>745</ele>
        <time>2022-10-13T16:37:33+02:00</time>
      </trkpt>
      <trkpt lat="45.2268" lon="5.76066">
        <ele>747</ele>
        <time>2022-10-13T16:37:57+02:00</time>
      </trkpt>
      <trkpt lat="45.22672" lon="5.76096">
        <ele>748</ele>
        <time>2022-10-13T16:39:18+02:00</time>
      </trkpt>
      <trkpt lat="45.2266" lon="5.76123">
        <ele>745</ele>
        <time>2022-10-13T16:40:28+02:00</time>
      </trkpt>
      <trkpt lat="45.22644" lon="5.76155">
        <ele>741</ele>
        <time>2022-10-13T16:40:34+02:00</time>
      </trkpt>
      <trkpt lat="45.22627" lon="5.76192">
        <ele>738</ele>
        <time>2022-10-13T16:40:35+02:00</time>
      </trkpt>
      <trkpt lat="45.22616" lon="5.76222">
        <ele>739</ele>
        <time>2022-10-13T16:40:39+02:00</time>
      </trkpt>
      <trkpt lat="45.22591" lon="5.76236">
        <ele>726</ele>
        <time>2022-10-13T16:40:57+02:00</time>
      </trkpt>
      <trkpt lat="45.22582" lon="5.76268">
        <ele>722</ele>
        <time>2022-10-13T16:41:02+02:00</time>
      </trkpt>
      <trkpt lat="45.22597" lon="5.76292">
        <ele>722</ele>
        <time>2022-10-13T16:41:08+02:00</time>
      </trkpt>
      <trkpt lat="45.22618" lon="5.76311">
        <ele>720</ele>
        <time>2022-10-13T16:41:34+02:00</time>
      </trkpt>
      <trkpt lat="45.22658" lon="5.76344">
        <ele>718</ele>
        <time>2022-10-13T16:41:38+02:00</time>
      </trkpt>
      <trkpt lat="45.22682" lon="5.76359">
        <ele>713</ele>
        <time>2022-10-13T16:41:47+02:00</time>
      </trkpt>
      <trkpt lat="45.22703" lon="5.76375">
        <ele>707</ele>
        <time>2022-10-13T16:41:54+02:00</time>
      </trkpt>
      <trkpt lat="45.2273" lon="5.76376">
        <ele>701</ele>
        <time>2022-10-13T16:42:06+02:00</time>
      </trkpt>
      <trkpt lat="45.22753" lon="5.76382">
        <ele>701</ele>
        <time>2022-10-13T16:42:32+02:00</time>
      </trkpt>
      <trkpt lat="45.22778" lon="5.76375">
        <ele>694</ele>
        <time>2022-10-13T16:42:40+02:00</time>
      </trkpt>
      <trkpt lat="45.22813" lon="5.76391">
        <ele>695</ele>
        <time>2022-10-13T16:42:45+02:00</time>
      </trkpt>
      <trkpt lat="45.22829" lon="5.76416">
        <ele>690</ele>
        <time>2022-10-13T16:42:53+02:00</time>
      </trkpt>
      <trkpt lat="45.2284" lon="5.76447">
        <ele>682</ele>
        <time>2022-10-13T16:43:01+02:00</time>
      </trkpt>
      <trkpt lat="45.22851" lon="5.76478">
        <ele>680</ele>
        <time>2022-10-13T16:43:08+02:00</time>
      </trkpt>
      <trkpt lat="45.22853" lon="5.76515">
        <ele>684</ele>
        <time>2022-10-13T16:43:15+02:00</time>
      </trkpt>
      <trkpt lat="45.2286" lon="5.76545">
        <ele>681</ele>
        <time>2022-10-13T16:43:18+02:00</time>
      </trkpt>
      <trkpt lat="45.22866" lon="5.76579">
        <ele>680</ele>
        <time>2022-10-13T16:43:28+02:00</time>
      </trkpt>
      <trkpt lat="45.22881" lon="5.76611">
        <ele>681</ele>
        <time>2022-10-13T16:43:31+02:00</time>
      </trkpt>
      <trkpt lat="45.22881" lon="5.76644">
        <ele>673</ele>
        <time>2022-10-13T16:43:38+02:00</time>
      </trkpt>
      <trkpt lat="45.22888" lon="5.76678">
        <ele>668</ele>
        <time>2022-10-13T16:43:45+02:00</time>
      </trkpt>
      <trkpt lat="45.22888" lon="5.7671">
        <ele>667</ele>
        <time>2022-10-13T16:43:56+02:00</time>
      </trkpt>
      <trkpt lat="45.22888" lon="5.76747">
        <ele>661</ele>
        <time>2022-10-13T16:44:05+02:00</time>
      </trkpt>
      <trkpt lat="45.22873" lon="5.76776">
        <ele>647</ele>
        <time>2022-10-13T16:44:49+02:00</time>
      </trkpt>
      <trkpt lat="45.22884" lon="5.76809">
        <ele>641</ele>
        <time>2022-10-13T16:44:53+02:00</time>
      </trkpt>
      <trkpt lat="45.2288" lon="5.76843">
        <ele>637</ele>
        <time>2022-10-13T16:44:59+02:00</time>
      </trkpt>
      <trkpt lat="45.22888" lon="5.7688">
        <ele>632</ele>
        <time>2022-10-13T16:45:04+02:00</time>
      </trkpt>
      <trkpt lat="45.22884" lon="5.76916">
        <ele>629</ele>
        <time>2022-10-13T16:45:24+02:00</time>
      </trkpt>
      <trkpt lat="45.22895" lon="5.76946">
        <ele>627</ele>
        <time>2022-10-13T16:45:33+02:00</time>
      </trkpt>
      <trkpt lat="45.22911" lon="5.7697">
        <ele>631</ele>
        <time>2022-10-13T16:45:41+02:00</time>
      </trkpt>
      <trkpt lat="45.229" lon="5.76998">
        <ele>622</ele>
        <time>2022-10-13T16:47:03+02:00</time>
      </trkpt>
      <trkpt lat="45.22901" lon="5.7703">
        <ele>619</ele>
        <time>2022-10-13T16:47:09+02:00</time>
      </trkpt>
      <trkpt lat="45.22917" lon="5.77058">
        <ele>616</ele>
        <time>2022-10-13T16:47:15+02:00</time>
      </trkpt>
      <trkpt lat="45.22909" lon="5.7709">
        <ele>612</ele>
        <time>2022-10-13T16:47:22+02:00</time>
      </trkpt>
      <trkpt lat="45.22903" lon="5.77138">
        <ele>609</ele>
        <time>2022-10-13T16:47:30+02:00</time>
      </trkpt>
      <trkpt lat="45.22907" lon="5.77176">
        <ele>602</ele>
        <time>2022-10-13T16:47:36+02:00</time>
      </trkpt>
      <trkpt lat="45.22914" lon="5.77207">
        <ele>603</ele>
        <time>2022-10-13T16:47:44+02:00</time>
      </trkpt>
      <trkpt lat="45.22898" lon="5.77233">
        <ele>592</ele>
        <time>2022-10-13T16:47:55+02:00</time>
      </trkpt>
      <trkpt lat="45.22877" lon="5.77248">
        <ele>586</ele>
        <time>2022-10-13T16:48:02+02:00</time>
      </trkpt>
      <trkpt lat="45.22855" lon="5.77261">
        <ele>583</ele>
        <time>2022-10-13T16:48:06+02:00</time>
      </trkpt>
      <trkpt lat="45.22835" lon="5.77276">
        <ele>574</ele>
        <time>2022-10-13T16:48:11+02:00</time>
      </trkpt>
      <trkpt lat="45.22819" lon="5.77299">
        <ele>562</ele>
        <time>2022-10-13T16:48:21+02:00</time>
      </trkpt>
      <trkpt lat="45.2281" lon="5.7733">
        <ele>560</ele>
        <time>2022-10-13T16:48:26+02:00</time>
      </trkpt>
      <trkpt lat="45.22799" lon="5.77359">
        <ele>552</ele>
        <time>2022-10-13T16:48:40+02:00</time>
      </trkpt>
      <trkpt lat="45.22788" lon="5.77391">
        <ele>546</ele>
        <time>2022-10-13T16:48:46+02:00</time>
      </trkpt>
      <trkpt lat="45.22764" lon="5.77414">
        <ele>537</ele>
        <time>2022-10-13T16:48:58+02:00</time>
      </trkpt>
      <trkpt lat="45.22742" lon="5.77425">
        <ele>533</ele>
        <time>2022-10-13T16:49:05+02:00</time>
      </trkpt>
      <trkpt lat="45.22727" lon="5.7745">
        <ele>527</ele>
        <time>2022-10-13T16:49:08+02:00</time>
      </trkpt>
      <trkpt lat="45.22706" lon="5.77473">
        <ele>524</ele>
        <time>2022-10-13T16:49:14+02:00</time>
      </trkpt>
      <trkpt lat="45.22703" lon="5.77507">
        <ele>508</ele>
        <time>2022-10-13T16:52:34+02:00</time>
      </trkpt>
      <trkpt lat="45.22713" lon="5.77543">
        <ele>504</ele>
        <time>2022-10-13T16:52:38+02:00</time>
      </trkpt>
      <trkpt lat="45.22721" lon="5.7758">
        <ele>500</ele>
        <time>2022-10-13T16:52:41+02:00</time>
      </trkpt>
      <trkpt lat="45.22731" lon="5.77621">
        <ele>497</ele>
        <time>2022-10-13T16:52:44+02:00</time>
      </trkpt>
      <trkpt lat="45.22743" lon="5.77666">
        <ele>495</ele>
        <time>2022-10-13T16:52:47+02:00</time>
      </trkpt>
      <trkpt lat="45.22753" lon="5.77697">
        <ele>494</ele>
        <time>2022-10-13T16:52:49+02:00</time>
      </trkpt>
      <trkpt lat="45.22756" lon="5.7773">
        <ele>491</ele>
        <time>2022-10-13T16:52:51+02:00</time>
      </trkpt>
      <trkpt lat="45.22755" lon="5.77763">
        <ele>491</ele>
        <time>2022-10-13T16:52:53+02:00</time>
      </trkpt>
      <trkpt lat="45.22756" lon="5.77796">
        <ele>488</ele>
        <time>2022-10-13T16:52:55+02:00</time>
      </trkpt>
      <trkpt lat="45.22757" lon="5.77828">
        <ele>487</ele>
        <time>2022-10-13T16:52:57+02:00</time>
      </trkpt>
      <trkpt lat="45.22756" lon="5.7786">
        <ele>485</ele>
        <time>2022-10-13T16:52:59+02:00</time>
      </trkpt>
      <trkpt lat="45.22755" lon="5.77894">
        <ele>484</ele>
        <time>2022-10-13T16:53:01+02:00</time>
      </trkpt>
      <trkpt lat="45.22756" lon="5.77927">
        <ele>484</ele>
        <time>2022-10-13T16:53:03+02:00</time>
      </trkpt>
      <trkpt lat="45.22756" lon="5.7796">
        <ele>480</ele>
        <time>2022-10-13T16:53:05+02:00</time>
      </trkpt>
      <trkpt lat="45.22756" lon="5.78008">
        <ele>477</ele>
        <time>2022-10-13T16:53:08+02:00</time>
      </trkpt>
      <trkpt lat="45.22756" lon="5.7804">
        <ele>474</ele>
        <time>2022-10-13T16:53:10+02:00</time>
      </trkpt>
      <trkpt lat="45.22756" lon="5.78073">
        <ele>472</ele>
        <time>2022-10-13T16:53:12+02:00</time>
      </trkpt>
      <trkpt lat="45.22753" lon="5.78106">
        <ele>472</ele>
        <time>2022-10-13T16:53:14+02:00</time>
      </trkpt>
      <trkpt lat="45.22742" lon="5.78134">
        <ele>472</ele>
        <time>2022-10-13T16:53:17+02:00</time>
      </trkpt>
      <trkpt lat="45.22729" lon="5.78166">
        <ele>470</ele>
        <time>2022-10-13T16:53:21+02:00</time>
      </trkpt>
      <trkpt lat="45.22723" lon="5.78199">
        <ele>468</ele>
        <time>2022-10-13T16:53:25+02:00</time>
      </trkpt>
      <trkpt lat="45.22726" lon="5.78235">
        <ele>467</ele>
        <time>2022-10-13T16:53:29+02:00</time>
      </trkpt>
      <trkpt lat="45.2274" lon="5.78265">
        <ele>466</ele>
        <time>2022-10-13T16:53:33+02:00</time>
      </trkpt>
      <trkpt lat="45.2276" lon="5.78288">
        <ele>463</ele>
        <time>2022-10-13T16:53:37+02:00</time>
      </trkpt>
      <trkpt lat="45.2278" lon="5.78316">
        <ele>460</ele>
        <time>2022-10-13T16:53:41+02:00</time>
      </trkpt>
      <trkpt lat="45.22799" lon="5.78345">
        <ele>457</ele>
        <time>2022-10-13T16:53:45+02:00</time>
      </trkpt>
      <trkpt lat="45.22813" lon="5.78379">
        <ele>452</ele>
        <time>2022-10-13T16:53:49+02:00</time>
      </trkpt>
      <trkpt lat="45.2282" lon="5.7841">
        <ele>449</ele>
        <time>2022-10-13T16:53:53+02:00</time>
      </trkpt>
      <trkpt lat="45.22839" lon="5.78431">
        <ele>452</ele>
        <time>2022-10-13T16:53:57+02:00</time>
      </trkpt>
      <trkpt lat="45.22861" lon="5.78438">
        <ele>449</ele>
        <time>2022-10-13T16:54:02+02:00</time>
      </trkpt>
      <trkpt lat="45.22871" lon="5.78473">
        <ele>450</ele>
        <time>2022-10-13T16:54:06+02:00</time>
      </trkpt>
      <trkpt lat="45.22886" lon="5.78501">
        <ele>447</ele>
        <time>2022-10-13T16:54:10+02:00</time>
      </trkpt>
      <trkpt lat="45.229" lon="5.78528">
        <ele>445</ele>
        <time>2022-10-13T16:54:13+02:00</time>
      </trkpt>
      <trkpt lat="45.22911" lon="5.78557">
        <ele>445</ele>
        <time>2022-10-13T16:54:16+02:00</time>
      </trkpt>
      <trkpt lat="45.22917" lon="5.78591">
        <ele>444</ele>
        <time>2022-10-13T16:54:19+02:00</time>
      </trkpt>
      <trkpt lat="45.22927" lon="5.78623">
        <ele>442</ele>
        <time>2022-10-13T16:54:22+02:00</time>
      </trkpt>
      <trkpt lat="45.22943" lon="5.7865">
        <ele>443</ele>
        <time>2022-10-13T16:54:25+02:00</time>
      </trkpt>
      <trkpt lat="45.22959" lon="5.78676">
        <ele>446</ele>
        <time>2022-10-13T16:54:29+02:00</time>
      </trkpt>
      <trkpt lat="45.22975" lon="5.78704">
        <ele>446</ele>
        <time>2022-10-13T16:54:33+02:00</time>
      </trkpt>
      <trkpt lat="45.22992" lon="5.78729">
        <ele>447</ele>
        <time>2022-10-13T16:54:37+02:00</time>
      </trkpt>
      <trkpt lat="45.23011" lon="5.78746">
        <ele>448</ele>
        <time>2022-10-13T16:54:41+02:00</time>
      </trkpt>
      <trkpt lat="45.23027" lon="5.78769">
        <ele>445</ele>
        <time>2022-10-13T16:54:45+02:00</time>
      </trkpt>
      <trkpt lat="45.2304" lon="5.78798">
        <ele>446</ele>
        <time>2022-10-13T16:54:49+02:00</time>
      </trkpt>
      <trkpt lat="45.23057" lon="5.78831">
        <ele>444</ele>
        <time>2022-10-13T16:54:53+02:00</time>
      </trkpt>
      <trkpt lat="45.23082" lon="5.78854">
        <ele>443</ele>
        <time>2022-10-13T16:54:57+02:00</time>
      </trkpt>
      <trkpt lat="45.231" lon="5.78875">
        <ele>443</ele>
        <time>2022-10-13T16:55:00+02:00</time>
      </trkpt>
      <trkpt lat="45.23118" lon="5.78905">
        <ele>443</ele>
        <time>2022-10-13T16:55:04+02:00</time>
      </trkpt>
      <trkpt lat="45.2312" lon="5.78941">
        <ele>442</ele>
        <time>2022-10-13T16:55:09+02:00</time>
      </trkpt>
      <trkpt lat="45.23127" lon="5.78971">
        <ele>445</ele>
        <time>2022-10-13T16:55:14+02:00</time>
      </trkpt>
      <trkpt lat="45.23142" lon="5.79">
        <ele>445</ele>
        <time>2022-10-13T16:55:20+02:00</time>
      </trkpt>
      <trkpt lat="45.23164" lon="5.7902">
        <ele>445</ele>
        <time>2022-10-13T16:55:24+02:00</time>
      </trkpt>
      <trkpt lat="45.23188" lon="5.79044">
        <ele>444</ele>
        <time>2022-10-13T16:55:29+02:00</time>
      </trkpt>
      <trkpt lat="45.23204" lon="5.79068">
        <ele>444</ele>
        <time>2022-10-13T16:55:33+02:00</time>
      </trkpt>
      <trkpt lat="45.23222" lon="5.7909">
        <ele>444</ele>
        <time>2022-10-13T16:55:41+02:00</time>
      </trkpt>
      <trkpt lat="45.23243" lon="5.79107">
        <ele>447</ele>
        <time>2022-10-13T16:55:50+02:00</time>
      </trkpt>
      <trkpt lat="45.23265" lon="5.79122">
        <ele>445</ele>
        <time>2022-10-13T16:55:59+02:00</time>
      </trkpt>
      <trkpt lat="45.23285" lon="5.79137">
        <ele>447</ele>
        <time>2022-10-13T16:56:09+02:00</time>
      </trkpt>
      <trkpt lat="45.23305" lon="5.79154">
        <ele>454</ele>
        <time>2022-10-13T16:56:20+02:00</time>
      </trkpt>
      <trkpt lat="45.23323" lon="5.79174">
        <ele>456</ele>
        <time>2022-10-13T16:56:33+02:00</time>
      </trkpt>
      <trkpt lat="45.2334" lon="5.79194">
        <ele>458</ele>
        <time>2022-10-13T16:56:45+02:00</time>
      </trkpt>
      <trkpt lat="45.23356" lon="5.7922">
        <ele>459</ele>
        <time>2022-10-13T16:57:01+02:00</time>
      </trkpt>
      <trkpt lat="45.23368" lon="5.79247">
        <ele>470</ele>
        <time>2022-10-13T16:57:16+02:00</time>
      </trkpt>
      <trkpt lat="45.2339" lon="5.79261">
        <ele>470</ele>
        <time>2022-10-13T16:57:24+02:00</time>
      </trkpt>
      <trkpt lat="45.23413" lon="5.79277">
        <ele>472</ele>
        <time>2022-10-13T16:57:32+02:00</time>
      </trkpt>
      <trkpt lat="45.23433" lon="5.79294">
        <ele>471</ele>
        <time>2022-10-13T16:57:39+02:00</time>
      </trkpt>
      <trkpt lat="45.23456" lon="5.79307">
        <ele>476</ele>
        <time>2022-10-13T16:57:52+02:00</time>
      </trkpt>
      <trkpt lat="45.23478" lon="5.79315">
        <ele>476</ele>
        <time>2022-10-13T16:58:04+02:00</time>
      </trkpt>
      <trkpt lat="45.235" lon="5.79325">
        <ele>475</ele>
        <time>2022-10-13T16:58:13+02:00</time>
      </trkpt>
      <trkpt lat="45.23521" lon="5.79346">
        <ele>484</ele>
        <time>2022-10-13T16:58:22+02:00</time>
      </trkpt>
      <trkpt lat="45.23537" lon="5.79371">
        <ele>484</ele>
        <time>2022-10-13T16:58:30+02:00</time>
      </trkpt>
      <trkpt lat="45.23534" lon="5.79405">
        <ele>485</ele>
        <time>2022-10-13T16:58:36+02:00</time>
      </trkpt>
      <trkpt lat="45.23539" lon="5.79442">
        <ele>487</ele>
        <time>2022-10-13T16:58:40+02:00</time>
      </trkpt>
      <trkpt lat="45.23559" lon="5.79461">
        <ele>482</ele>
        <time>2022-10-13T16:58:46+02:00</time>
      </trkpt>
      <trkpt lat="45.2358" lon="5.79477">
        <ele>483</ele>
        <time>2022-10-13T16:58:57+02:00</time>
      </trkpt>
      <trkpt lat="45.23595" lon="5.79504">
        <ele>489</ele>
        <time>2022-10-13T16:59:08+02:00</time>
      </trkpt>
      <trkpt lat="45.23604" lon="5.79534">
        <ele>490</ele>
        <time>2022-10-13T16:59:16+02:00</time>
      </trkpt>
      <trkpt lat="45.23611" lon="5.79565">
        <ele>490</ele>
        <time>2022-10-13T16:59:23+02:00</time>
      </trkpt>
      <trkpt lat="45.23618" lon="5.79595">
        <ele>491</ele>
        <time>2022-10-13T16:59:31+02:00</time>
      </trkpt>
      <trkpt lat="45.23632" lon="5.79621">
        <ele>493</ele>
        <time>2022-10-13T16:59:39+02:00</time>
      </trkpt>
      <trkpt lat="45.23653" lon="5.79637">
        <ele>492</ele>
        <time>2022-10-13T16:59:47+02:00</time>
      </trkpt>
      <trkpt lat="45.23679" lon="5.79647">
        <ele>495</ele>
        <time>2022-10-13T16:59:55+02:00</time>
      </trkpt>
      <trkpt lat="45.23701" lon="5.79661">
        <ele>500</ele>
        <time>2022-10-13T17:00:05+02:00</time>
      </trkpt>
      <trkpt lat="45.23719" lon="5.7969">
        <ele>498</ele>
        <time>2022-10-13T17:00:13+02:00</time>
      </trkpt>
      <trkpt lat="45.23733" lon="5.79714">
        <ele>500</ele>
        <time>2022-10-13T17:00:16+02:00</time>
      </trkpt>
      <trkpt lat="45.23748" lon="5.79742">
        <ele>499</ele>
        <time>2022-10-13T17:00:20+02:00</time>
      </trkpt>
      <trkpt lat="45.23764" lon="5.7977">
        <ele>502</ele>
        <time>2022-10-13T17:00:26+02:00</time>
      </trkpt>
      <trkpt lat="45.23779" lon="5.79796">
        <ele>499</ele>
        <time>2022-10-13T17:00:34+02:00</time>
      </trkpt>
      <trkpt lat="45.23799" lon="5.79819">
        <ele>498</ele>
        <time>2022-10-13T17:00:39+02:00</time>
      </trkpt>
      <trkpt lat="45.23817" lon="5.79848">
        <ele>497</ele>
        <time>2022-10-13T17:00:42+02:00</time>
      </trkpt>
      <trkpt lat="45.2384" lon="5.79879">
        <ele>498</ele>
        <time>2022-10-13T17:00:46+02:00</time>
      </trkpt>
      <trkpt lat="45.23861" lon="5.79913">
        <ele>492</ele>
        <time>2022-10-13T17:00:49+02:00</time>
      </trkpt>
      <trkpt lat="45.2387" lon="5.79953">
        <ele>487</ele>
        <time>2022-10-13T17:00:52+02:00</time>
      </trkpt>
      <trkpt lat="45.23872" lon="5.7999">
        <ele>485</ele>
        <time>2022-10-13T17:00:55+02:00</time>
      </trkpt>
      <trkpt lat="45.23867" lon="5.80023">
        <ele>480</ele>
        <time>2022-10-13T17:00:58+02:00</time>
      </trkpt>
      <trkpt lat="45.23868" lon="5.80066">
        <ele>478</ele>
        <time>2022-10-13T17:01:02+02:00</time>
      </trkpt>
      <trkpt lat="45.23879" lon="5.80101">
        <ele>474</ele>
        <time>2022-10-13T17:01:05+02:00</time>
      </trkpt>
      <trkpt lat="45.23891" lon="5.80135">
        <ele>470</ele>
        <time>2022-10-13T17:01:08+02:00</time>
      </trkpt>
      <trkpt lat="45.23884" lon="5.80169">
        <ele>467</ele>
        <time>2022-10-13T17:01:12+02:00</time>
      </trkpt>
      <trkpt lat="45.23868" lon="5.80192">
        <ele>464</ele>
        <time>2022-10-13T17:01:15+02:00</time>
      </trkpt>
      <trkpt lat="45.23873" lon="5.80225">
        <ele>459</ele>
        <time>2022-10-13T17:01:20+02:00</time>
      </trkpt>
      <trkpt lat="45.23893" lon="5.80253">
        <ele>456</ele>
        <time>2022-10-13T17:01:24+02:00</time>
      </trkpt>
      <trkpt lat="45.23913" lon="5.80284">
        <ele>458</ele>
        <time>2022-10-13T17:01:28+02:00</time>
      </trkpt>
      <trkpt lat="45.2393" lon="5.80308">
        <ele>457</ele>
        <time>2022-10-13T17:01:32+02:00</time>
      </trkpt>
      <trkpt lat="45.23941" lon="5.80337">
        <ele>456</ele>
        <time>2022-10-13T17:01:37+02:00</time>
      </trkpt>
      <trkpt lat="45.23915" lon="5.80347">
        <ele>454</ele>
        <time>2022-10-13T17:01:41+02:00</time>
      </trkpt>
    </trkseg>
  </trk>
</gpx>